<?xml version="1.0" encoding="UTF-8" standalone="no" ?>
<gpx xmlns="http://www.topografix.com/GPX/1/1" xmlns:xsi="http://www.w3.org/2001/XMLSchema-instance" xsi:schemaLocation="http://www.topografix.com/GPX/1/1 http://www.topografix.com/GPX/1/1/gpx.xsd" version="1.1" creator="VisuGPX - https://www.visugpx.com">
  <metadata>
    <name>Les îles éoliennes 01</name>
    <desc><![CDATA[Avril 18 Oceanis 43 équipage Bruno S J M et G. depuis Portorosa]]></desc>
  </metadata>
  <trk>
    <name><![CDATA[Tracé actuel: 16 AVR 2018 09:24]]></name>
    <trkseg>
      <trkpt lat="38.41656" lon="14.96191">
        <ele>-0.34</ele>
        <time>2018-04-16T07:24:51Z</time>
      </trkpt>
      <trkpt lat="38.4165" lon="14.96198">
        <ele>-17.65</ele>
        <time>2018-04-16T07:25:04Z</time>
      </trkpt>
      <trkpt lat="38.41647" lon="14.96198">
        <ele>-25.82</ele>
        <time>2018-04-16T07:25:20Z</time>
      </trkpt>
      <trkpt lat="38.41648" lon="14.96196">
        <ele>-27.74</ele>
        <time>2018-04-16T07:25:33Z</time>
      </trkpt>
      <trkpt lat="38.41647" lon="14.96193">
        <ele>-30.14</ele>
        <time>2018-04-16T07:25:46Z</time>
      </trkpt>
      <trkpt lat="38.41648" lon="14.96194">
        <ele>-30.14</ele>
        <time>2018-04-16T07:25:58Z</time>
      </trkpt>
      <trkpt lat="38.41647" lon="14.96193">
        <ele>-32.07</ele>
        <time>2018-04-16T07:26:10Z</time>
      </trkpt>
      <trkpt lat="38.41647" lon="14.96193">
        <ele>-33.03</ele>
        <time>2018-04-16T07:26:17Z</time>
      </trkpt>
      <trkpt lat="38.41647" lon="14.96197">
        <ele>-32.55</ele>
        <time>2018-04-16T07:26:36Z</time>
      </trkpt>
      <trkpt lat="38.41649" lon="14.96203">
        <ele>-28.7</ele>
        <time>2018-04-16T07:26:52Z</time>
      </trkpt>
      <trkpt lat="38.41653" lon="14.96202">
        <ele>-13.8</ele>
        <time>2018-04-16T07:27:06Z</time>
      </trkpt>
      <trkpt lat="38.41653" lon="14.96202">
        <ele>-12.36</ele>
        <time>2018-04-16T07:27:15Z</time>
      </trkpt>
      <trkpt lat="38.41653" lon="14.96203">
        <ele>-10.92</ele>
        <time>2018-04-16T07:27:28Z</time>
      </trkpt>
      <trkpt lat="38.41655" lon="14.96206">
        <ele>-8.03</ele>
        <time>2018-04-16T07:27:42Z</time>
      </trkpt>
      <trkpt lat="38.41674" lon="14.96204">
        <ele>-1.3</ele>
        <time>2018-04-16T07:27:57Z</time>
      </trkpt>
      <trkpt lat="38.41679" lon="14.96203">
        <ele>0.62</ele>
        <time>2018-04-16T07:28:10Z</time>
      </trkpt>
      <trkpt lat="38.41677" lon="14.96206">
        <ele>1.1</ele>
        <time>2018-04-16T07:28:29Z</time>
      </trkpt>
      <trkpt lat="38.41675" lon="14.96207">
        <ele>1.1</ele>
        <time>2018-04-16T07:28:43Z</time>
      </trkpt>
      <trkpt lat="38.41674" lon="14.96208">
        <ele>1.1</ele>
        <time>2018-04-16T07:28:56Z</time>
      </trkpt>
      <trkpt lat="38.41675" lon="14.96209">
        <ele>1.58</ele>
        <time>2018-04-16T07:29:15Z</time>
      </trkpt>
      <trkpt lat="38.41675" lon="14.96209">
        <ele>1.58</ele>
        <time>2018-04-16T07:29:34Z</time>
      </trkpt>
      <trkpt lat="38.41675" lon="14.96209">
        <ele>1.1</ele>
        <time>2018-04-16T07:29:50Z</time>
      </trkpt>
      <trkpt lat="38.41678" lon="14.96206">
        <ele>0.62</ele>
        <time>2018-04-16T07:30:08Z</time>
      </trkpt>
      <trkpt lat="38.41678" lon="14.96203">
        <ele>0.14</ele>
        <time>2018-04-16T07:30:23Z</time>
      </trkpt>
      <trkpt lat="38.41679" lon="14.96204">
        <ele>0.14</ele>
        <time>2018-04-16T07:30:32Z</time>
      </trkpt>
      <trkpt lat="38.41679" lon="14.96205">
        <ele>1.58</ele>
        <time>2018-04-16T07:30:53Z</time>
      </trkpt>
      <trkpt lat="38.41677" lon="14.96207">
        <ele>2.06</ele>
        <time>2018-04-16T07:31:16Z</time>
      </trkpt>
      <trkpt lat="38.41675" lon="14.96208">
        <ele>1.58</ele>
        <time>2018-04-16T07:31:30Z</time>
      </trkpt>
      <trkpt lat="38.41675" lon="14.96208">
        <ele>1.58</ele>
        <time>2018-04-16T07:31:46Z</time>
      </trkpt>
      <trkpt lat="38.41675" lon="14.96207">
        <ele>2.54</ele>
        <time>2018-04-16T07:32:04Z</time>
      </trkpt>
      <trkpt lat="38.41676" lon="14.96206">
        <ele>2.54</ele>
        <time>2018-04-16T07:32:22Z</time>
      </trkpt>
      <trkpt lat="38.41677" lon="14.96205">
        <ele>2.06</ele>
        <time>2018-04-16T07:32:38Z</time>
      </trkpt>
      <trkpt lat="38.41678" lon="14.96204">
        <ele>2.06</ele>
        <time>2018-04-16T07:32:54Z</time>
      </trkpt>
      <trkpt lat="38.41678" lon="14.962">
        <ele>0.62</ele>
        <time>2018-04-16T07:33:04Z</time>
      </trkpt>
      <trkpt lat="38.4168" lon="14.962">
        <ele>0.62</ele>
        <time>2018-04-16T07:33:19Z</time>
      </trkpt>
      <trkpt lat="38.4168" lon="14.962">
        <ele>1.1</ele>
        <time>2018-04-16T07:33:42Z</time>
      </trkpt>
      <trkpt lat="38.41679" lon="14.962">
        <ele>1.58</ele>
        <time>2018-04-16T07:33:58Z</time>
      </trkpt>
      <trkpt lat="38.41679" lon="14.962">
        <ele>1.58</ele>
        <time>2018-04-16T07:34:13Z</time>
      </trkpt>
      <trkpt lat="38.41679" lon="14.962">
        <ele>1.58</ele>
        <time>2018-04-16T07:34:25Z</time>
      </trkpt>
      <trkpt lat="38.4168" lon="14.96201">
        <ele>2.06</ele>
        <time>2018-04-16T07:34:36Z</time>
      </trkpt>
      <trkpt lat="38.41681" lon="14.96204">
        <ele>2.54</ele>
        <time>2018-04-16T07:34:54Z</time>
      </trkpt>
      <trkpt lat="38.41682" lon="14.96205">
        <ele>2.06</ele>
        <time>2018-04-16T07:35:04Z</time>
      </trkpt>
      <trkpt lat="38.41686" lon="14.96202">
        <ele>2.06</ele>
        <time>2018-04-16T07:35:20Z</time>
      </trkpt>
      <trkpt lat="38.41687" lon="14.962">
        <ele>2.54</ele>
        <time>2018-04-16T07:35:36Z</time>
      </trkpt>
      <trkpt lat="38.41687" lon="14.96198">
        <ele>2.54</ele>
        <time>2018-04-16T07:35:52Z</time>
      </trkpt>
      <trkpt lat="38.41688" lon="14.96197">
        <ele>2.06</ele>
        <time>2018-04-16T07:36:10Z</time>
      </trkpt>
      <trkpt lat="38.41687" lon="14.96198">
        <ele>2.06</ele>
        <time>2018-04-16T07:36:29Z</time>
      </trkpt>
      <trkpt lat="38.41685" lon="14.96199">
        <ele>1.58</ele>
        <time>2018-04-16T07:36:51Z</time>
      </trkpt>
      <trkpt lat="38.41683" lon="14.96202">
        <ele>3.5</ele>
        <time>2018-04-16T07:37:15Z</time>
      </trkpt>
      <trkpt lat="38.41682" lon="14.96203">
        <ele>4.94</ele>
        <time>2018-04-16T07:37:34Z</time>
      </trkpt>
      <trkpt lat="38.4168" lon="14.96205">
        <ele>4.94</ele>
        <time>2018-04-16T07:37:56Z</time>
      </trkpt>
      <trkpt lat="38.41677" lon="14.96206">
        <ele>4.94</ele>
        <time>2018-04-16T07:38:16Z</time>
      </trkpt>
      <trkpt lat="38.41673" lon="14.96206">
        <ele>3.98</ele>
        <time>2018-04-16T07:38:36Z</time>
      </trkpt>
      <trkpt lat="38.41662" lon="14.96209">
        <ele>4.94</ele>
        <time>2018-04-16T07:38:58Z</time>
      </trkpt>
      <trkpt lat="38.41659" lon="14.96217">
        <ele>4.94</ele>
        <time>2018-04-16T07:39:23Z</time>
      </trkpt>
      <trkpt lat="38.41658" lon="14.96223">
        <ele>6.87</ele>
        <time>2018-04-16T07:39:47Z</time>
      </trkpt>
      <trkpt lat="38.41656" lon="14.96234">
        <ele>6.39</ele>
        <time>2018-04-16T07:40:08Z</time>
      </trkpt>
      <trkpt lat="38.41664" lon="14.96248">
        <ele>4.94</ele>
        <time>2018-04-16T07:40:25Z</time>
      </trkpt>
      <trkpt lat="38.4168" lon="14.96229">
        <ele>3.5</ele>
        <time>2018-04-16T07:40:41Z</time>
      </trkpt>
      <trkpt lat="38.41696" lon="14.96194">
        <ele>3.5</ele>
        <time>2018-04-16T07:41:00Z</time>
      </trkpt>
      <trkpt lat="38.41709" lon="14.96164">
        <ele>3.02</ele>
        <time>2018-04-16T07:41:17Z</time>
      </trkpt>
      <trkpt lat="38.41724" lon="14.9613">
        <ele>3.5</ele>
        <time>2018-04-16T07:41:35Z</time>
      </trkpt>
      <trkpt lat="38.41728" lon="14.96094">
        <ele>3.5</ele>
        <time>2018-04-16T07:41:54Z</time>
      </trkpt>
      <trkpt lat="38.41727" lon="14.96052">
        <ele>3.98</ele>
        <time>2018-04-16T07:42:18Z</time>
      </trkpt>
      <trkpt lat="38.4172" lon="14.96015">
        <ele>3.98</ele>
        <time>2018-04-16T07:42:41Z</time>
      </trkpt>
      <trkpt lat="38.41711" lon="14.95999">
        <ele>2.54</ele>
        <time>2018-04-16T07:43:00Z</time>
      </trkpt>
      <trkpt lat="38.41711" lon="14.95986">
        <ele>3.5</ele>
        <time>2018-04-16T07:43:21Z</time>
      </trkpt>
      <trkpt lat="38.41712" lon="14.95983">
        <ele>4.46</ele>
        <time>2018-04-16T07:43:37Z</time>
      </trkpt>
      <trkpt lat="38.41714" lon="14.95983">
        <ele>4.94</ele>
        <time>2018-04-16T07:43:55Z</time>
      </trkpt>
      <trkpt lat="38.41712" lon="14.95973">
        <ele>4.94</ele>
        <time>2018-04-16T07:44:10Z</time>
      </trkpt>
      <trkpt lat="38.41712" lon="14.95965">
        <ele>4.46</ele>
        <time>2018-04-16T07:44:24Z</time>
      </trkpt>
      <trkpt lat="38.41712" lon="14.95968">
        <ele>3.5</ele>
        <time>2018-04-16T07:44:33Z</time>
      </trkpt>
      <trkpt lat="38.41712" lon="14.95966">
        <ele>3.98</ele>
        <time>2018-04-16T07:44:42Z</time>
      </trkpt>
      <trkpt lat="38.41712" lon="14.95963">
        <ele>3.98</ele>
        <time>2018-04-16T07:44:44Z</time>
      </trkpt>
      <trkpt lat="38.41711" lon="14.95959">
        <ele>4.46</ele>
        <time>2018-04-16T07:44:47Z</time>
      </trkpt>
      <trkpt lat="38.41708" lon="14.95948">
        <ele>4.94</ele>
        <time>2018-04-16T07:45:00Z</time>
      </trkpt>
      <trkpt lat="38.41713" lon="14.95962">
        <ele>4.94</ele>
        <time>2018-04-16T07:45:12Z</time>
      </trkpt>
      <trkpt lat="38.41716" lon="14.95966">
        <ele>4.46</ele>
        <time>2018-04-16T07:45:22Z</time>
      </trkpt>
      <trkpt lat="38.41716" lon="14.95964">
        <ele>3.98</ele>
        <time>2018-04-16T07:45:36Z</time>
      </trkpt>
      <trkpt lat="38.41716" lon="14.95964">
        <ele>3.98</ele>
        <time>2018-04-16T07:45:40Z</time>
      </trkpt>
      <trkpt lat="38.41714" lon="14.9596">
        <ele>3.98</ele>
        <time>2018-04-16T07:45:51Z</time>
      </trkpt>
      <trkpt lat="38.41714" lon="14.95961">
        <ele>3.98</ele>
        <time>2018-04-16T07:45:52Z</time>
      </trkpt>
      <trkpt lat="38.41714" lon="14.95964">
        <ele>3.5</ele>
        <time>2018-04-16T07:46:04Z</time>
      </trkpt>
      <trkpt lat="38.41711" lon="14.95958">
        <ele>2.54</ele>
        <time>2018-04-16T07:46:09Z</time>
      </trkpt>
      <trkpt lat="38.41703" lon="14.95947">
        <ele>2.06</ele>
        <time>2018-04-16T07:46:23Z</time>
      </trkpt>
      <trkpt lat="38.41694" lon="14.95938">
        <ele>2.54</ele>
        <time>2018-04-16T07:46:37Z</time>
      </trkpt>
      <trkpt lat="38.41688" lon="14.9593">
        <ele>3.98</ele>
        <time>2018-04-16T07:46:49Z</time>
      </trkpt>
      <trkpt lat="38.41682" lon="14.95924">
        <ele>4.46</ele>
        <time>2018-04-16T07:47:02Z</time>
      </trkpt>
      <trkpt lat="38.4168" lon="14.9592">
        <ele>3.98</ele>
        <time>2018-04-16T07:47:12Z</time>
      </trkpt>
      <trkpt lat="38.41671" lon="14.95909">
        <ele>2.06</ele>
        <time>2018-04-16T07:47:25Z</time>
      </trkpt>
      <trkpt lat="38.41667" lon="14.959">
        <ele>2.06</ele>
        <time>2018-04-16T07:47:37Z</time>
      </trkpt>
      <trkpt lat="38.41665" lon="14.959">
        <ele>3.02</ele>
        <time>2018-04-16T07:47:50Z</time>
      </trkpt>
      <trkpt lat="38.41662" lon="14.95901">
        <ele>2.54</ele>
        <time>2018-04-16T07:47:54Z</time>
      </trkpt>
      <trkpt lat="38.41648" lon="14.95906">
        <ele>-1.3</ele>
        <time>2018-04-16T07:48:10Z</time>
      </trkpt>
      <trkpt lat="38.41635" lon="14.95909">
        <ele>-3.71</ele>
        <time>2018-04-16T07:48:24Z</time>
      </trkpt>
      <trkpt lat="38.41623" lon="14.95913">
        <ele>-2.75</ele>
        <time>2018-04-16T07:48:37Z</time>
      </trkpt>
      <trkpt lat="38.41618" lon="14.95915">
        <ele>-2.75</ele>
        <time>2018-04-16T07:48:43Z</time>
      </trkpt>
      <trkpt lat="38.41607" lon="14.95918">
        <ele>-0.82</ele>
        <time>2018-04-16T07:48:56Z</time>
      </trkpt>
      <trkpt lat="38.41606" lon="14.95923">
        <ele>1.58</ele>
        <time>2018-04-16T07:49:08Z</time>
      </trkpt>
      <trkpt lat="38.41607" lon="14.95923">
        <ele>3.5</ele>
        <time>2018-04-16T07:49:26Z</time>
      </trkpt>
      <trkpt lat="38.41607" lon="14.95922">
        <ele>3.98</ele>
        <time>2018-04-16T07:49:44Z</time>
      </trkpt>
      <trkpt lat="38.41607" lon="14.95922">
        <ele>3.02</ele>
        <time>2018-04-16T07:49:53Z</time>
      </trkpt>
      <trkpt lat="38.41605" lon="14.95921">
        <ele>3.02</ele>
        <time>2018-04-16T07:50:17Z</time>
      </trkpt>
      <trkpt lat="38.41605" lon="14.95921">
        <ele>3.02</ele>
        <time>2018-04-16T07:50:18Z</time>
      </trkpt>
      <trkpt lat="38.41593" lon="14.95922">
        <ele>0.62</ele>
        <time>2018-04-16T07:50:31Z</time>
      </trkpt>
      <trkpt lat="38.41585" lon="14.95922">
        <ele>0.62</ele>
        <time>2018-04-16T07:50:42Z</time>
      </trkpt>
      <trkpt lat="38.41584" lon="14.95916">
        <ele>1.1</ele>
        <time>2018-04-16T07:50:55Z</time>
      </trkpt>
      <trkpt lat="38.4158" lon="14.95918">
        <ele>0.62</ele>
        <time>2018-04-16T07:51:00Z</time>
      </trkpt>
      <trkpt lat="38.41567" lon="14.95922">
        <ele>-0.34</ele>
        <time>2018-04-16T07:51:14Z</time>
      </trkpt>
      <trkpt lat="38.41557" lon="14.95914">
        <ele>-1.79</ele>
        <time>2018-04-16T07:51:27Z</time>
      </trkpt>
      <trkpt lat="38.41557" lon="14.95914">
        <ele>-1.79</ele>
        <time>2018-04-16T07:51:28Z</time>
      </trkpt>
      <trkpt lat="38.41555" lon="14.95907">
        <ele>-0.82</ele>
        <time>2018-04-16T07:51:35Z</time>
      </trkpt>
      <trkpt lat="38.41554" lon="14.95891">
        <ele>4.46</ele>
        <time>2018-04-16T07:51:48Z</time>
      </trkpt>
      <trkpt lat="38.41553" lon="14.9588">
        <ele>6.39</ele>
        <time>2018-04-16T07:51:56Z</time>
      </trkpt>
      <trkpt lat="38.41549" lon="14.95868">
        <ele>5.42</ele>
        <time>2018-04-16T07:52:10Z</time>
      </trkpt>
      <trkpt lat="38.41542" lon="14.95857">
        <ele>3.5</ele>
        <time>2018-04-16T07:52:23Z</time>
      </trkpt>
      <trkpt lat="38.41534" lon="14.95839">
        <ele>3.02</ele>
        <time>2018-04-16T07:52:38Z</time>
      </trkpt>
      <trkpt lat="38.41535" lon="14.95836">
        <ele>5.91</ele>
        <time>2018-04-16T07:52:51Z</time>
      </trkpt>
      <trkpt lat="38.41536" lon="14.95838">
        <ele>6.39</ele>
        <time>2018-04-16T07:53:04Z</time>
      </trkpt>
      <trkpt lat="38.41534" lon="14.9584">
        <ele>5.42</ele>
        <time>2018-04-16T07:53:24Z</time>
      </trkpt>
      <trkpt lat="38.41527" lon="14.95848">
        <ele>5.42</ele>
        <time>2018-04-16T07:53:36Z</time>
      </trkpt>
      <trkpt lat="38.41516" lon="14.95854">
        <ele>6.39</ele>
        <time>2018-04-16T07:53:47Z</time>
      </trkpt>
      <trkpt lat="38.41512" lon="14.95855">
        <ele>5.91</ele>
        <time>2018-04-16T07:53:57Z</time>
      </trkpt>
      <trkpt lat="38.41503" lon="14.95853">
        <ele>4.46</ele>
        <time>2018-04-16T07:54:10Z</time>
      </trkpt>
      <trkpt lat="38.41493" lon="14.95853">
        <ele>-0.82</ele>
        <time>2018-04-16T07:54:28Z</time>
      </trkpt>
      <trkpt lat="38.41513" lon="14.9586">
        <ele>13.6</ele>
        <time>2018-04-16T07:55:07Z</time>
      </trkpt>
      <trkpt lat="38.41514" lon="14.95859">
        <ele>12.63</ele>
        <time>2018-04-16T07:55:09Z</time>
      </trkpt>
      <trkpt lat="38.41515" lon="14.95857">
        <ele>11.67</ele>
        <time>2018-04-16T07:55:15Z</time>
      </trkpt>
      <trkpt lat="38.41498" lon="14.95852">
        <ele>5.91</ele>
        <time>2018-04-16T07:55:28Z</time>
      </trkpt>
      <trkpt lat="38.41491" lon="14.95852">
        <ele>-4.67</ele>
        <time>2018-04-16T07:55:52Z</time>
      </trkpt>
      <trkpt lat="38.4149" lon="14.95845">
        <ele>-17.65</ele>
        <time>2018-04-16T07:56:20Z</time>
      </trkpt>
      <trkpt lat="38.41495" lon="14.95846">
        <ele>-23.41</ele>
        <time>2018-04-16T07:56:43Z</time>
      </trkpt>
      <trkpt lat="38.41508" lon="14.95857">
        <ele>4.94</ele>
        <time>2018-04-16T07:56:56Z</time>
      </trkpt>
      <trkpt lat="38.41511" lon="14.95861">
        <ele>6.39</ele>
        <time>2018-04-16T07:57:07Z</time>
      </trkpt>
      <trkpt lat="38.41508" lon="14.95861">
        <ele>7.35</ele>
        <time>2018-04-16T07:57:25Z</time>
      </trkpt>
      <trkpt lat="38.41509" lon="14.95861">
        <ele>8.31</ele>
        <time>2018-04-16T07:57:38Z</time>
      </trkpt>
      <trkpt lat="38.41508" lon="14.9586">
        <ele>7.83</ele>
        <time>2018-04-16T07:57:59Z</time>
      </trkpt>
      <trkpt lat="38.41508" lon="14.9586">
        <ele>8.79</ele>
        <time>2018-04-16T07:58:24Z</time>
      </trkpt>
      <trkpt lat="38.41508" lon="14.95861">
        <ele>8.31</ele>
        <time>2018-04-16T07:58:33Z</time>
      </trkpt>
      <trkpt lat="38.41512" lon="14.95855">
        <ele>8.31</ele>
        <time>2018-04-16T07:58:49Z</time>
      </trkpt>
      <trkpt lat="38.41514" lon="14.95853">
        <ele>8.31</ele>
        <time>2018-04-16T07:58:54Z</time>
      </trkpt>
      <trkpt lat="38.41524" lon="14.95851">
        <ele>8.79</ele>
        <time>2018-04-16T07:59:07Z</time>
      </trkpt>
      <trkpt lat="38.41525" lon="14.95851">
        <ele>8.79</ele>
        <time>2018-04-16T07:59:08Z</time>
      </trkpt>
      <trkpt lat="38.41486" lon="14.95894">
        <ele>9.27</ele>
        <time>2018-04-16T09:05:33Z</time>
      </trkpt>
      <trkpt lat="38.41483" lon="14.95891">
        <ele>10.71</ele>
        <time>2018-04-16T09:05:35Z</time>
      </trkpt>
      <trkpt lat="38.41475" lon="14.9589">
        <ele>18.4</ele>
        <time>2018-04-16T09:05:41Z</time>
      </trkpt>
      <trkpt lat="38.41473" lon="14.95892">
        <ele>18.88</ele>
        <time>2018-04-16T09:05:43Z</time>
      </trkpt>
      <trkpt lat="38.4146" lon="14.95916">
        <ele>15.04</ele>
        <time>2018-04-16T09:05:58Z</time>
      </trkpt>
      <trkpt lat="38.41453" lon="14.9593">
        <ele>15.52</ele>
        <time>2018-04-16T09:06:15Z</time>
      </trkpt>
      <trkpt lat="38.41452" lon="14.95932">
        <ele>15.52</ele>
        <time>2018-04-16T09:06:16Z</time>
      </trkpt>
      <trkpt lat="38.41445" lon="14.95949">
        <ele>12.63</ele>
        <time>2018-04-16T09:06:31Z</time>
      </trkpt>
      <trkpt lat="38.41443" lon="14.95952">
        <ele>12.15</ele>
        <time>2018-04-16T09:06:34Z</time>
      </trkpt>
      <trkpt lat="38.41436" lon="14.95974">
        <ele>12.63</ele>
        <time>2018-04-16T09:06:49Z</time>
      </trkpt>
      <trkpt lat="38.41432" lon="14.95986">
        <ele>10.71</ele>
        <time>2018-04-16T09:07:03Z</time>
      </trkpt>
      <trkpt lat="38.41431" lon="14.95986">
        <ele>10.23</ele>
        <time>2018-04-16T09:07:06Z</time>
      </trkpt>
      <trkpt lat="38.41418" lon="14.95986">
        <ele>10.23</ele>
        <time>2018-04-16T09:07:21Z</time>
      </trkpt>
      <trkpt lat="38.41401" lon="14.95982">
        <ele>6.39</ele>
        <time>2018-04-16T09:07:36Z</time>
      </trkpt>
      <trkpt lat="38.41386" lon="14.95977">
        <ele>5.91</ele>
        <time>2018-04-16T09:07:51Z</time>
      </trkpt>
      <trkpt lat="38.4137" lon="14.95968">
        <ele>4.94</ele>
        <time>2018-04-16T09:08:08Z</time>
      </trkpt>
      <trkpt lat="38.41356" lon="14.95956">
        <ele>5.42</ele>
        <time>2018-04-16T09:08:23Z</time>
      </trkpt>
      <trkpt lat="38.41344" lon="14.95942">
        <ele>5.91</ele>
        <time>2018-04-16T09:08:38Z</time>
      </trkpt>
      <trkpt lat="38.41329" lon="14.95925">
        <ele>5.91</ele>
        <time>2018-04-16T09:08:52Z</time>
      </trkpt>
      <trkpt lat="38.41319" lon="14.95914">
        <ele>7.83</ele>
        <time>2018-04-16T09:09:06Z</time>
      </trkpt>
      <trkpt lat="38.41305" lon="14.95899">
        <ele>3.98</ele>
        <time>2018-04-16T09:09:23Z</time>
      </trkpt>
      <trkpt lat="38.41294" lon="14.95886">
        <ele>-0.34</ele>
        <time>2018-04-16T09:09:38Z</time>
      </trkpt>
      <trkpt lat="38.41287" lon="14.95872">
        <ele>-1.3</ele>
        <time>2018-04-16T09:09:50Z</time>
      </trkpt>
      <trkpt lat="38.41278" lon="14.95864">
        <ele>-4.19</ele>
        <time>2018-04-16T09:09:59Z</time>
      </trkpt>
      <trkpt lat="38.41274" lon="14.95859">
        <ele>-3.71</ele>
        <time>2018-04-16T09:10:04Z</time>
      </trkpt>
      <trkpt lat="38.41262" lon="14.95848">
        <ele>0.14</ele>
        <time>2018-04-16T09:10:18Z</time>
      </trkpt>
      <trkpt lat="38.41254" lon="14.95836">
        <ele>0.62</ele>
        <time>2018-04-16T09:10:31Z</time>
      </trkpt>
      <trkpt lat="38.41243" lon="14.95823">
        <ele>3.5</ele>
        <time>2018-04-16T09:10:41Z</time>
      </trkpt>
      <trkpt lat="38.4124" lon="14.95819">
        <ele>4.46</ele>
        <time>2018-04-16T09:10:45Z</time>
      </trkpt>
      <trkpt lat="38.41226" lon="14.95804">
        <ele>5.42</ele>
        <time>2018-04-16T09:10:59Z</time>
      </trkpt>
      <trkpt lat="38.41222" lon="14.95799">
        <ele>6.39</ele>
        <time>2018-04-16T09:11:03Z</time>
      </trkpt>
      <trkpt lat="38.41209" lon="14.95781">
        <ele>3.98</ele>
        <time>2018-04-16T09:11:20Z</time>
      </trkpt>
      <trkpt lat="38.41199" lon="14.95769">
        <ele>2.06</ele>
        <time>2018-04-16T09:11:33Z</time>
      </trkpt>
      <trkpt lat="38.41188" lon="14.95756">
        <ele>3.02</ele>
        <time>2018-04-16T09:11:46Z</time>
      </trkpt>
      <trkpt lat="38.41175" lon="14.9574">
        <ele>4.94</ele>
        <time>2018-04-16T09:12:02Z</time>
      </trkpt>
      <trkpt lat="38.4117" lon="14.95735">
        <ele>4.94</ele>
        <time>2018-04-16T09:12:07Z</time>
      </trkpt>
      <trkpt lat="38.41159" lon="14.95718">
        <ele>6.87</ele>
        <time>2018-04-16T09:12:21Z</time>
      </trkpt>
      <trkpt lat="38.41155" lon="14.95715">
        <ele>7.35</ele>
        <time>2018-04-16T09:12:24Z</time>
      </trkpt>
      <trkpt lat="38.41143" lon="14.95697">
        <ele>9.27</ele>
        <time>2018-04-16T09:12:39Z</time>
      </trkpt>
      <trkpt lat="38.41129" lon="14.9568">
        <ele>9.27</ele>
        <time>2018-04-16T09:12:53Z</time>
      </trkpt>
      <trkpt lat="38.41112" lon="14.9566">
        <ele>7.35</ele>
        <time>2018-04-16T09:13:12Z</time>
      </trkpt>
      <trkpt lat="38.41096" lon="14.9564">
        <ele>6.87</ele>
        <time>2018-04-16T09:13:30Z</time>
      </trkpt>
      <trkpt lat="38.41084" lon="14.95626">
        <ele>7.35</ele>
        <time>2018-04-16T09:13:41Z</time>
      </trkpt>
      <trkpt lat="38.41081" lon="14.95622">
        <ele>7.83</ele>
        <time>2018-04-16T09:13:45Z</time>
      </trkpt>
      <trkpt lat="38.4107" lon="14.95608">
        <ele>8.31</ele>
        <time>2018-04-16T09:14:00Z</time>
      </trkpt>
      <trkpt lat="38.41059" lon="14.95593">
        <ele>10.71</ele>
        <time>2018-04-16T09:14:16Z</time>
      </trkpt>
      <trkpt lat="38.41046" lon="14.95578">
        <ele>14.08</ele>
        <time>2018-04-16T09:14:29Z</time>
      </trkpt>
      <trkpt lat="38.41028" lon="14.95557">
        <ele>18.4</ele>
        <time>2018-04-16T09:14:47Z</time>
      </trkpt>
      <trkpt lat="38.41013" lon="14.95536">
        <ele>21.29</ele>
        <time>2018-04-16T09:15:05Z</time>
      </trkpt>
      <trkpt lat="38.41001" lon="14.95523">
        <ele>19.36</ele>
        <time>2018-04-16T09:15:19Z</time>
      </trkpt>
      <trkpt lat="38.40989" lon="14.95508">
        <ele>16.96</ele>
        <time>2018-04-16T09:15:33Z</time>
      </trkpt>
      <trkpt lat="38.40978" lon="14.95494">
        <ele>22.73</ele>
        <time>2018-04-16T09:15:45Z</time>
      </trkpt>
      <trkpt lat="38.4096" lon="14.95477">
        <ele>27.05</ele>
        <time>2018-04-16T09:16:03Z</time>
      </trkpt>
      <trkpt lat="38.40946" lon="14.95457">
        <ele>27.53</ele>
        <time>2018-04-16T09:16:19Z</time>
      </trkpt>
      <trkpt lat="38.40933" lon="14.9544">
        <ele>28.5</ele>
        <time>2018-04-16T09:16:34Z</time>
      </trkpt>
      <trkpt lat="38.40919" lon="14.95421">
        <ele>31.38</ele>
        <time>2018-04-16T09:16:50Z</time>
      </trkpt>
      <trkpt lat="38.40916" lon="14.95415">
        <ele>31.38</ele>
        <time>2018-04-16T09:17:00Z</time>
      </trkpt>
      <trkpt lat="38.409" lon="14.95399">
        <ele>33.3</ele>
        <time>2018-04-16T09:17:16Z</time>
      </trkpt>
      <trkpt lat="38.40895" lon="14.95394">
        <ele>32.82</ele>
        <time>2018-04-16T09:17:22Z</time>
      </trkpt>
      <trkpt lat="38.40892" lon="14.95393">
        <ele>32.34</ele>
        <time>2018-04-16T09:17:24Z</time>
      </trkpt>
      <trkpt lat="38.40889" lon="14.95388">
        <ele>31.38</ele>
        <time>2018-04-16T09:17:28Z</time>
      </trkpt>
      <trkpt lat="38.40872" lon="14.95376">
        <ele>31.86</ele>
        <time>2018-04-16T09:17:45Z</time>
      </trkpt>
      <trkpt lat="38.40865" lon="14.95374">
        <ele>34.26</ele>
        <time>2018-04-16T09:17:57Z</time>
      </trkpt>
      <trkpt lat="38.40865" lon="14.95374">
        <ele>34.74</ele>
        <time>2018-04-16T09:18:13Z</time>
      </trkpt>
      <trkpt lat="38.4086" lon="14.95377">
        <ele>35.23</ele>
        <time>2018-04-16T09:18:19Z</time>
      </trkpt>
      <trkpt lat="38.40855" lon="14.9538">
        <ele>36.19</ele>
        <time>2018-04-16T09:18:24Z</time>
      </trkpt>
      <trkpt lat="38.40851" lon="14.95383">
        <ele>37.15</ele>
        <time>2018-04-16T09:18:28Z</time>
      </trkpt>
      <trkpt lat="38.40837" lon="14.95387">
        <ele>39.07</ele>
        <time>2018-04-16T09:18:42Z</time>
      </trkpt>
      <trkpt lat="38.40826" lon="14.95388">
        <ele>40.99</ele>
        <time>2018-04-16T09:18:54Z</time>
      </trkpt>
      <trkpt lat="38.40813" lon="14.95396">
        <ele>43.88</ele>
        <time>2018-04-16T09:19:08Z</time>
      </trkpt>
      <trkpt lat="38.40811" lon="14.95399">
        <ele>44.36</ele>
        <time>2018-04-16T09:19:11Z</time>
      </trkpt>
      <trkpt lat="38.40805" lon="14.95408">
        <ele>47.72</ele>
        <time>2018-04-16T09:19:22Z</time>
      </trkpt>
      <trkpt lat="38.40799" lon="14.95414">
        <ele>49.65</ele>
        <time>2018-04-16T09:19:33Z</time>
      </trkpt>
      <trkpt lat="38.40791" lon="14.95421">
        <ele>52.05</ele>
        <time>2018-04-16T09:19:46Z</time>
      </trkpt>
      <trkpt lat="38.40786" lon="14.95429">
        <ele>52.53</ele>
        <time>2018-04-16T09:19:55Z</time>
      </trkpt>
      <trkpt lat="38.40783" lon="14.95436">
        <ele>54.93</ele>
        <time>2018-04-16T09:20:06Z</time>
      </trkpt>
      <trkpt lat="38.40778" lon="14.95434">
        <ele>56.86</ele>
        <time>2018-04-16T09:20:18Z</time>
      </trkpt>
      <trkpt lat="38.40778" lon="14.95435">
        <ele>56.86</ele>
        <time>2018-04-16T09:20:19Z</time>
      </trkpt>
      <trkpt lat="38.40785" lon="14.95452">
        <ele>58.3</ele>
        <time>2018-04-16T09:20:30Z</time>
      </trkpt>
      <trkpt lat="38.40788" lon="14.95468">
        <ele>59.74</ele>
        <time>2018-04-16T09:20:44Z</time>
      </trkpt>
      <trkpt lat="38.40794" lon="14.95477">
        <ele>61.18</ele>
        <time>2018-04-16T09:20:54Z</time>
      </trkpt>
      <trkpt lat="38.40798" lon="14.95485">
        <ele>62.14</ele>
        <time>2018-04-16T09:21:00Z</time>
      </trkpt>
      <trkpt lat="38.40801" lon="14.95497">
        <ele>62.62</ele>
        <time>2018-04-16T09:21:10Z</time>
      </trkpt>
      <trkpt lat="38.40802" lon="14.955">
        <ele>62.62</ele>
        <time>2018-04-16T09:21:12Z</time>
      </trkpt>
      <trkpt lat="38.40808" lon="14.95513">
        <ele>61.18</ele>
        <time>2018-04-16T09:21:23Z</time>
      </trkpt>
      <trkpt lat="38.40809" lon="14.95515">
        <ele>61.18</ele>
        <time>2018-04-16T09:21:25Z</time>
      </trkpt>
      <trkpt lat="38.40811" lon="14.95521">
        <ele>61.18</ele>
        <time>2018-04-16T09:21:29Z</time>
      </trkpt>
      <trkpt lat="38.40812" lon="14.95524">
        <ele>61.66</ele>
        <time>2018-04-16T09:21:31Z</time>
      </trkpt>
      <trkpt lat="38.40815" lon="14.95533">
        <ele>63.1</ele>
        <time>2018-04-16T09:21:42Z</time>
      </trkpt>
      <trkpt lat="38.40817" lon="14.95541">
        <ele>63.1</ele>
        <time>2018-04-16T09:21:51Z</time>
      </trkpt>
      <trkpt lat="38.40822" lon="14.95553">
        <ele>64.55</ele>
        <time>2018-04-16T09:22:03Z</time>
      </trkpt>
      <trkpt lat="38.40823" lon="14.95554">
        <ele>65.51</ele>
        <time>2018-04-16T09:22:20Z</time>
      </trkpt>
      <trkpt lat="38.40827" lon="14.9556">
        <ele>65.03</ele>
        <time>2018-04-16T09:22:30Z</time>
      </trkpt>
      <trkpt lat="38.40827" lon="14.95561">
        <ele>65.03</ele>
        <time>2018-04-16T09:22:31Z</time>
      </trkpt>
      <trkpt lat="38.40827" lon="14.95565">
        <ele>65.03</ele>
        <time>2018-04-16T09:22:34Z</time>
      </trkpt>
      <trkpt lat="38.40831" lon="14.95578">
        <ele>64.55</ele>
        <time>2018-04-16T09:22:45Z</time>
      </trkpt>
      <trkpt lat="38.40829" lon="14.95591">
        <ele>67.43</ele>
        <time>2018-04-16T09:22:57Z</time>
      </trkpt>
      <trkpt lat="38.40828" lon="14.95591">
        <ele>68.39</ele>
        <time>2018-04-16T09:23:00Z</time>
      </trkpt>
      <trkpt lat="38.40817" lon="14.95587">
        <ele>71.27</ele>
        <time>2018-04-16T09:23:11Z</time>
      </trkpt>
      <trkpt lat="38.40811" lon="14.95583">
        <ele>74.16</ele>
        <time>2018-04-16T09:23:19Z</time>
      </trkpt>
      <trkpt lat="38.40802" lon="14.95579">
        <ele>77.52</ele>
        <time>2018-04-16T09:23:31Z</time>
      </trkpt>
      <trkpt lat="38.40801" lon="14.95578">
        <ele>78.48</ele>
        <time>2018-04-16T09:23:44Z</time>
      </trkpt>
      <trkpt lat="38.40794" lon="14.95577">
        <ele>80.41</ele>
        <time>2018-04-16T09:23:54Z</time>
      </trkpt>
      <trkpt lat="38.40789" lon="14.95577">
        <ele>82.81</ele>
        <time>2018-04-16T09:24:01Z</time>
      </trkpt>
      <trkpt lat="38.4078" lon="14.95573">
        <ele>87.62</ele>
        <time>2018-04-16T09:24:14Z</time>
      </trkpt>
      <trkpt lat="38.40775" lon="14.95571">
        <ele>89.54</ele>
        <time>2018-04-16T09:24:23Z</time>
      </trkpt>
      <trkpt lat="38.40772" lon="14.95571">
        <ele>90.5</ele>
        <time>2018-04-16T09:24:36Z</time>
      </trkpt>
      <trkpt lat="38.40772" lon="14.95572">
        <ele>88.58</ele>
        <time>2018-04-16T09:24:46Z</time>
      </trkpt>
      <trkpt lat="38.40768" lon="14.9557">
        <ele>89.54</ele>
        <time>2018-04-16T09:24:55Z</time>
      </trkpt>
      <trkpt lat="38.40768" lon="14.9557">
        <ele>89.54</ele>
        <time>2018-04-16T09:25:01Z</time>
      </trkpt>
      <trkpt lat="38.40768" lon="14.95568">
        <ele>89.54</ele>
        <time>2018-04-16T09:25:04Z</time>
      </trkpt>
      <trkpt lat="38.40756" lon="14.9556">
        <ele>92.42</ele>
        <time>2018-04-16T09:25:18Z</time>
      </trkpt>
      <trkpt lat="38.40746" lon="14.95557">
        <ele>95.79</ele>
        <time>2018-04-16T09:25:31Z</time>
      </trkpt>
      <trkpt lat="38.40745" lon="14.95556">
        <ele>98.19</ele>
        <time>2018-04-16T09:25:44Z</time>
      </trkpt>
      <trkpt lat="38.40741" lon="14.95556">
        <ele>99.15</ele>
        <time>2018-04-16T09:26:00Z</time>
      </trkpt>
      <trkpt lat="38.40739" lon="14.95555">
        <ele>99.15</ele>
        <time>2018-04-16T09:26:02Z</time>
      </trkpt>
      <trkpt lat="38.40734" lon="14.95555">
        <ele>100.6</ele>
        <time>2018-04-16T09:26:12Z</time>
      </trkpt>
      <trkpt lat="38.40728" lon="14.95557">
        <ele>100.11</ele>
        <time>2018-04-16T09:26:22Z</time>
      </trkpt>
      <trkpt lat="38.40725" lon="14.95555">
        <ele>101.08</ele>
        <time>2018-04-16T09:26:26Z</time>
      </trkpt>
      <trkpt lat="38.40719" lon="14.95553">
        <ele>101.56</ele>
        <time>2018-04-16T09:26:37Z</time>
      </trkpt>
      <trkpt lat="38.40717" lon="14.95551">
        <ele>102.04</ele>
        <time>2018-04-16T09:26:41Z</time>
      </trkpt>
      <trkpt lat="38.40716" lon="14.95542">
        <ele>102.52</ele>
        <time>2018-04-16T09:26:48Z</time>
      </trkpt>
      <trkpt lat="38.40715" lon="14.9554">
        <ele>103</ele>
        <time>2018-04-16T09:26:50Z</time>
      </trkpt>
      <trkpt lat="38.40714" lon="14.95538">
        <ele>103.48</ele>
        <time>2018-04-16T09:26:52Z</time>
      </trkpt>
      <trkpt lat="38.40705" lon="14.95536">
        <ele>106.84</ele>
        <time>2018-04-16T09:27:01Z</time>
      </trkpt>
      <trkpt lat="38.40702" lon="14.95535">
        <ele>108.77</ele>
        <time>2018-04-16T09:27:04Z</time>
      </trkpt>
      <trkpt lat="38.40694" lon="14.95533">
        <ele>110.21</ele>
        <time>2018-04-16T09:27:15Z</time>
      </trkpt>
      <trkpt lat="38.40689" lon="14.9553">
        <ele>111.17</ele>
        <time>2018-04-16T09:27:23Z</time>
      </trkpt>
      <trkpt lat="38.40685" lon="14.95534">
        <ele>112.13</ele>
        <time>2018-04-16T09:27:29Z</time>
      </trkpt>
      <trkpt lat="38.40681" lon="14.95527">
        <ele>113.57</ele>
        <time>2018-04-16T09:27:37Z</time>
      </trkpt>
      <trkpt lat="38.40678" lon="14.95526">
        <ele>113.57</ele>
        <time>2018-04-16T09:27:45Z</time>
      </trkpt>
      <trkpt lat="38.4067" lon="14.95528">
        <ele>113.57</ele>
        <time>2018-04-16T09:27:54Z</time>
      </trkpt>
      <trkpt lat="38.40661" lon="14.95518">
        <ele>113.09</ele>
        <time>2018-04-16T09:28:08Z</time>
      </trkpt>
      <trkpt lat="38.40654" lon="14.95516">
        <ele>116.46</ele>
        <time>2018-04-16T09:28:21Z</time>
      </trkpt>
      <trkpt lat="38.40648" lon="14.95516">
        <ele>117.42</ele>
        <time>2018-04-16T09:28:28Z</time>
      </trkpt>
      <trkpt lat="38.40641" lon="14.9552">
        <ele>118.38</ele>
        <time>2018-04-16T09:28:36Z</time>
      </trkpt>
      <trkpt lat="38.40633" lon="14.9551">
        <ele>119.34</ele>
        <time>2018-04-16T09:28:49Z</time>
      </trkpt>
      <trkpt lat="38.40627" lon="14.95509">
        <ele>121.26</ele>
        <time>2018-04-16T09:28:57Z</time>
      </trkpt>
      <trkpt lat="38.40613" lon="14.95507">
        <ele>126.07</ele>
        <time>2018-04-16T09:29:12Z</time>
      </trkpt>
      <trkpt lat="38.40605" lon="14.95509">
        <ele>128.47</ele>
        <time>2018-04-16T09:29:26Z</time>
      </trkpt>
      <trkpt lat="38.40602" lon="14.9551">
        <ele>129.43</ele>
        <time>2018-04-16T09:29:30Z</time>
      </trkpt>
      <trkpt lat="38.40596" lon="14.95513">
        <ele>130.4</ele>
        <time>2018-04-16T09:29:38Z</time>
      </trkpt>
      <trkpt lat="38.40589" lon="14.95509">
        <ele>130.4</ele>
        <time>2018-04-16T09:29:48Z</time>
      </trkpt>
      <trkpt lat="38.40579" lon="14.95503">
        <ele>133.28</ele>
        <time>2018-04-16T09:30:03Z</time>
      </trkpt>
      <trkpt lat="38.40576" lon="14.95501">
        <ele>134.72</ele>
        <time>2018-04-16T09:30:17Z</time>
      </trkpt>
      <trkpt lat="38.40576" lon="14.955">
        <ele>135.2</ele>
        <time>2018-04-16T09:30:34Z</time>
      </trkpt>
      <trkpt lat="38.40574" lon="14.955">
        <ele>134.72</ele>
        <time>2018-04-16T09:30:45Z</time>
      </trkpt>
      <trkpt lat="38.40574" lon="14.955">
        <ele>135.2</ele>
        <time>2018-04-16T09:31:00Z</time>
      </trkpt>
      <trkpt lat="38.40565" lon="14.95501">
        <ele>137.13</ele>
        <time>2018-04-16T09:31:14Z</time>
      </trkpt>
      <trkpt lat="38.40565" lon="14.95501">
        <ele>137.61</ele>
        <time>2018-04-16T09:31:20Z</time>
      </trkpt>
      <trkpt lat="38.40572" lon="14.95499">
        <ele>136.16</ele>
        <time>2018-04-16T09:31:30Z</time>
      </trkpt>
      <trkpt lat="38.40573" lon="14.95497">
        <ele>135.68</ele>
        <time>2018-04-16T09:31:39Z</time>
      </trkpt>
      <trkpt lat="38.40564" lon="14.95499">
        <ele>136.16</ele>
        <time>2018-04-16T09:31:53Z</time>
      </trkpt>
      <trkpt lat="38.40556" lon="14.95501">
        <ele>138.09</ele>
        <time>2018-04-16T09:32:06Z</time>
      </trkpt>
      <trkpt lat="38.40551" lon="14.95496">
        <ele>140.01</ele>
        <time>2018-04-16T09:32:19Z</time>
      </trkpt>
      <trkpt lat="38.40548" lon="14.95496">
        <ele>140.97</ele>
        <time>2018-04-16T09:32:25Z</time>
      </trkpt>
      <trkpt lat="38.40542" lon="14.95498">
        <ele>142.41</ele>
        <time>2018-04-16T09:32:37Z</time>
      </trkpt>
      <trkpt lat="38.40533" lon="14.95499">
        <ele>143.85</ele>
        <time>2018-04-16T09:32:50Z</time>
      </trkpt>
      <trkpt lat="38.40524" lon="14.95498">
        <ele>144.82</ele>
        <time>2018-04-16T09:33:03Z</time>
      </trkpt>
      <trkpt lat="38.40521" lon="14.95496">
        <ele>145.3</ele>
        <time>2018-04-16T09:33:12Z</time>
      </trkpt>
      <trkpt lat="38.40511" lon="14.95498">
        <ele>147.7</ele>
        <time>2018-04-16T09:33:30Z</time>
      </trkpt>
      <trkpt lat="38.40505" lon="14.95499">
        <ele>149.14</ele>
        <time>2018-04-16T09:33:42Z</time>
      </trkpt>
      <trkpt lat="38.40499" lon="14.95499">
        <ele>149.62</ele>
        <time>2018-04-16T09:33:49Z</time>
      </trkpt>
      <trkpt lat="38.40489" lon="14.955">
        <ele>151.54</ele>
        <time>2018-04-16T09:34:02Z</time>
      </trkpt>
      <trkpt lat="38.40484" lon="14.95499">
        <ele>153.47</ele>
        <time>2018-04-16T09:34:10Z</time>
      </trkpt>
      <trkpt lat="38.40475" lon="14.95504">
        <ele>154.91</ele>
        <time>2018-04-16T09:34:24Z</time>
      </trkpt>
      <trkpt lat="38.40464" lon="14.95506">
        <ele>157.79</ele>
        <time>2018-04-16T09:34:38Z</time>
      </trkpt>
      <trkpt lat="38.40453" lon="14.95508">
        <ele>160.2</ele>
        <time>2018-04-16T09:34:51Z</time>
      </trkpt>
      <trkpt lat="38.40444" lon="14.95512">
        <ele>161.64</ele>
        <time>2018-04-16T09:35:04Z</time>
      </trkpt>
      <trkpt lat="38.40436" lon="14.95514">
        <ele>165</ele>
        <time>2018-04-16T09:35:18Z</time>
      </trkpt>
      <trkpt lat="38.40431" lon="14.95516">
        <ele>166.45</ele>
        <time>2018-04-16T09:35:24Z</time>
      </trkpt>
      <trkpt lat="38.40424" lon="14.95518">
        <ele>167.41</ele>
        <time>2018-04-16T09:35:31Z</time>
      </trkpt>
      <trkpt lat="38.40415" lon="14.95526">
        <ele>167.89</ele>
        <time>2018-04-16T09:35:46Z</time>
      </trkpt>
      <trkpt lat="38.40405" lon="14.95531">
        <ele>171.25</ele>
        <time>2018-04-16T09:36:01Z</time>
      </trkpt>
      <trkpt lat="38.40397" lon="14.95536">
        <ele>172.21</ele>
        <time>2018-04-16T09:36:15Z</time>
      </trkpt>
      <trkpt lat="38.40389" lon="14.95542">
        <ele>174.62</ele>
        <time>2018-04-16T09:36:29Z</time>
      </trkpt>
      <trkpt lat="38.40384" lon="14.95548">
        <ele>177.5</ele>
        <time>2018-04-16T09:36:42Z</time>
      </trkpt>
      <trkpt lat="38.40386" lon="14.9555">
        <ele>178.94</ele>
        <time>2018-04-16T09:36:47Z</time>
      </trkpt>
      <trkpt lat="38.4039" lon="14.95552">
        <ele>179.42</ele>
        <time>2018-04-16T09:36:52Z</time>
      </trkpt>
      <trkpt lat="38.40398" lon="14.95552">
        <ele>180.87</ele>
        <time>2018-04-16T09:37:05Z</time>
      </trkpt>
      <trkpt lat="38.40398" lon="14.95553">
        <ele>181.35</ele>
        <time>2018-04-16T09:37:06Z</time>
      </trkpt>
      <trkpt lat="38.40408" lon="14.95555">
        <ele>184.23</ele>
        <time>2018-04-16T09:37:18Z</time>
      </trkpt>
      <trkpt lat="38.40416" lon="14.95558">
        <ele>184.71</ele>
        <time>2018-04-16T09:37:32Z</time>
      </trkpt>
      <trkpt lat="38.4042" lon="14.95558">
        <ele>185.19</ele>
        <time>2018-04-16T09:37:36Z</time>
      </trkpt>
      <trkpt lat="38.40425" lon="14.95561">
        <ele>186.15</ele>
        <time>2018-04-16T09:37:42Z</time>
      </trkpt>
      <trkpt lat="38.40434" lon="14.95563">
        <ele>188.08</ele>
        <time>2018-04-16T09:37:54Z</time>
      </trkpt>
      <trkpt lat="38.40436" lon="14.95564">
        <ele>188.56</ele>
        <time>2018-04-16T09:37:56Z</time>
      </trkpt>
      <trkpt lat="38.40446" lon="14.95573">
        <ele>190</ele>
        <time>2018-04-16T09:38:11Z</time>
      </trkpt>
      <trkpt lat="38.40454" lon="14.95577">
        <ele>191.92</ele>
        <time>2018-04-16T09:38:24Z</time>
      </trkpt>
      <trkpt lat="38.40463" lon="14.95583">
        <ele>194.8</ele>
        <time>2018-04-16T09:38:37Z</time>
      </trkpt>
      <trkpt lat="38.40471" lon="14.9559">
        <ele>196.73</ele>
        <time>2018-04-16T09:38:51Z</time>
      </trkpt>
      <trkpt lat="38.40473" lon="14.95592">
        <ele>197.21</ele>
        <time>2018-04-16T09:38:53Z</time>
      </trkpt>
      <trkpt lat="38.40478" lon="14.95594">
        <ele>197.21</ele>
        <time>2018-04-16T09:38:58Z</time>
      </trkpt>
      <trkpt lat="38.40485" lon="14.95604">
        <ele>197.21</ele>
        <time>2018-04-16T09:39:11Z</time>
      </trkpt>
      <trkpt lat="38.40493" lon="14.95613">
        <ele>197.69</ele>
        <time>2018-04-16T09:39:21Z</time>
      </trkpt>
      <trkpt lat="38.40503" lon="14.9562">
        <ele>197.69</ele>
        <time>2018-04-16T09:39:35Z</time>
      </trkpt>
      <trkpt lat="38.40513" lon="14.95628">
        <ele>199.13</ele>
        <time>2018-04-16T09:39:48Z</time>
      </trkpt>
      <trkpt lat="38.40521" lon="14.95636">
        <ele>200.09</ele>
        <time>2018-04-16T09:40:00Z</time>
      </trkpt>
      <trkpt lat="38.40531" lon="14.95644">
        <ele>202.49</ele>
        <time>2018-04-16T09:40:13Z</time>
      </trkpt>
      <trkpt lat="38.40537" lon="14.9565">
        <ele>203.46</ele>
        <time>2018-04-16T09:40:21Z</time>
      </trkpt>
      <trkpt lat="38.4054" lon="14.95652">
        <ele>203.94</ele>
        <time>2018-04-16T09:40:24Z</time>
      </trkpt>
      <trkpt lat="38.40544" lon="14.95656">
        <ele>204.9</ele>
        <time>2018-04-16T09:40:37Z</time>
      </trkpt>
      <trkpt lat="38.40545" lon="14.95658">
        <ele>204.9</ele>
        <time>2018-04-16T09:40:39Z</time>
      </trkpt>
      <trkpt lat="38.40549" lon="14.95659">
        <ele>205.38</ele>
        <time>2018-04-16T09:40:43Z</time>
      </trkpt>
      <trkpt lat="38.40559" lon="14.95669">
        <ele>205.86</ele>
        <time>2018-04-16T09:40:57Z</time>
      </trkpt>
      <trkpt lat="38.40568" lon="14.95679">
        <ele>207.78</ele>
        <time>2018-04-16T09:41:08Z</time>
      </trkpt>
      <trkpt lat="38.4058" lon="14.95693">
        <ele>209.22</ele>
        <time>2018-04-16T09:41:23Z</time>
      </trkpt>
      <trkpt lat="38.40585" lon="14.95697">
        <ele>210.19</ele>
        <time>2018-04-16T09:41:33Z</time>
      </trkpt>
      <trkpt lat="38.40585" lon="14.95698">
        <ele>210.19</ele>
        <time>2018-04-16T09:41:34Z</time>
      </trkpt>
      <trkpt lat="38.40589" lon="14.95705">
        <ele>210.19</ele>
        <time>2018-04-16T09:41:40Z</time>
      </trkpt>
      <trkpt lat="38.40594" lon="14.95713">
        <ele>210.19</ele>
        <time>2018-04-16T09:41:52Z</time>
      </trkpt>
      <trkpt lat="38.40597" lon="14.95717">
        <ele>210.19</ele>
        <time>2018-04-16T09:42:00Z</time>
      </trkpt>
      <trkpt lat="38.40603" lon="14.95726">
        <ele>212.59</ele>
        <time>2018-04-16T09:42:12Z</time>
      </trkpt>
      <trkpt lat="38.40604" lon="14.95728">
        <ele>213.55</ele>
        <time>2018-04-16T09:42:15Z</time>
      </trkpt>
      <trkpt lat="38.40607" lon="14.95736">
        <ele>215.47</ele>
        <time>2018-04-16T09:42:27Z</time>
      </trkpt>
      <trkpt lat="38.4061" lon="14.95742">
        <ele>216.43</ele>
        <time>2018-04-16T09:42:36Z</time>
      </trkpt>
      <trkpt lat="38.40615" lon="14.95755">
        <ele>217.4</ele>
        <time>2018-04-16T09:42:49Z</time>
      </trkpt>
      <trkpt lat="38.40617" lon="14.95762">
        <ele>218.84</ele>
        <time>2018-04-16T09:43:00Z</time>
      </trkpt>
      <trkpt lat="38.40619" lon="14.9577">
        <ele>220.76</ele>
        <time>2018-04-16T09:43:12Z</time>
      </trkpt>
      <trkpt lat="38.40623" lon="14.95779">
        <ele>225.09</ele>
        <time>2018-04-16T09:43:26Z</time>
      </trkpt>
      <trkpt lat="38.40627" lon="14.9579">
        <ele>227.97</ele>
        <time>2018-04-16T09:43:40Z</time>
      </trkpt>
      <trkpt lat="38.4063" lon="14.95801">
        <ele>229.41</ele>
        <time>2018-04-16T09:43:53Z</time>
      </trkpt>
      <trkpt lat="38.40631" lon="14.95808">
        <ele>230.85</ele>
        <time>2018-04-16T09:44:06Z</time>
      </trkpt>
      <trkpt lat="38.40635" lon="14.95818">
        <ele>234.22</ele>
        <time>2018-04-16T09:44:20Z</time>
      </trkpt>
      <trkpt lat="38.40638" lon="14.95827">
        <ele>237.58</ele>
        <time>2018-04-16T09:44:31Z</time>
      </trkpt>
      <trkpt lat="38.40639" lon="14.95836">
        <ele>239.99</ele>
        <time>2018-04-16T09:44:43Z</time>
      </trkpt>
      <trkpt lat="38.4064" lon="14.95843">
        <ele>241.91</ele>
        <time>2018-04-16T09:44:55Z</time>
      </trkpt>
      <trkpt lat="38.40641" lon="14.95846">
        <ele>242.39</ele>
        <time>2018-04-16T09:45:10Z</time>
      </trkpt>
      <trkpt lat="38.40641" lon="14.95846">
        <ele>242.87</ele>
        <time>2018-04-16T09:45:22Z</time>
      </trkpt>
      <trkpt lat="38.40643" lon="14.95851">
        <ele>243.35</ele>
        <time>2018-04-16T09:45:32Z</time>
      </trkpt>
      <trkpt lat="38.4065" lon="14.95863">
        <ele>244.79</ele>
        <time>2018-04-16T09:45:45Z</time>
      </trkpt>
      <trkpt lat="38.40655" lon="14.95872">
        <ele>246.23</ele>
        <time>2018-04-16T09:45:57Z</time>
      </trkpt>
      <trkpt lat="38.40654" lon="14.95877">
        <ele>247.68</ele>
        <time>2018-04-16T09:46:09Z</time>
      </trkpt>
      <trkpt lat="38.40654" lon="14.95876">
        <ele>248.16</ele>
        <time>2018-04-16T09:46:30Z</time>
      </trkpt>
      <trkpt lat="38.40655" lon="14.95878">
        <ele>248.16</ele>
        <time>2018-04-16T09:46:38Z</time>
      </trkpt>
      <trkpt lat="38.40655" lon="14.95878">
        <ele>248.64</ele>
        <time>2018-04-16T09:46:52Z</time>
      </trkpt>
      <trkpt lat="38.40655" lon="14.95877">
        <ele>249.12</ele>
        <time>2018-04-16T09:47:10Z</time>
      </trkpt>
      <trkpt lat="38.40652" lon="14.95877">
        <ele>249.12</ele>
        <time>2018-04-16T09:47:16Z</time>
      </trkpt>
      <trkpt lat="38.4064" lon="14.95872">
        <ele>249.6</ele>
        <time>2018-04-16T09:47:28Z</time>
      </trkpt>
      <trkpt lat="38.40634" lon="14.9587">
        <ele>250.56</ele>
        <time>2018-04-16T09:47:35Z</time>
      </trkpt>
      <trkpt lat="38.40631" lon="14.95868">
        <ele>251.52</ele>
        <time>2018-04-16T09:47:46Z</time>
      </trkpt>
      <trkpt lat="38.40632" lon="14.95868">
        <ele>251.52</ele>
        <time>2018-04-16T09:48:09Z</time>
      </trkpt>
      <trkpt lat="38.40632" lon="14.95868">
        <ele>251.52</ele>
        <time>2018-04-16T09:48:26Z</time>
      </trkpt>
      <trkpt lat="38.40618" lon="14.95864">
        <ele>252.96</ele>
        <time>2018-04-16T09:48:40Z</time>
      </trkpt>
      <trkpt lat="38.40619" lon="14.95849">
        <ele>253.93</ele>
        <time>2018-04-16T09:48:51Z</time>
      </trkpt>
      <trkpt lat="38.40618" lon="14.95846">
        <ele>254.41</ele>
        <time>2018-04-16T09:49:03Z</time>
      </trkpt>
      <trkpt lat="38.40614" lon="14.95843">
        <ele>254.41</ele>
        <time>2018-04-16T09:49:16Z</time>
      </trkpt>
      <trkpt lat="38.40612" lon="14.9584">
        <ele>255.37</ele>
        <time>2018-04-16T09:49:29Z</time>
      </trkpt>
      <trkpt lat="38.40609" lon="14.95833">
        <ele>257.29</ele>
        <time>2018-04-16T09:49:41Z</time>
      </trkpt>
      <trkpt lat="38.406" lon="14.95826">
        <ele>260.65</ele>
        <time>2018-04-16T09:49:53Z</time>
      </trkpt>
      <trkpt lat="38.40593" lon="14.95822">
        <ele>263.06</ele>
        <time>2018-04-16T09:50:07Z</time>
      </trkpt>
      <trkpt lat="38.40587" lon="14.95817">
        <ele>264.5</ele>
        <time>2018-04-16T09:50:22Z</time>
      </trkpt>
      <trkpt lat="38.4058" lon="14.95809">
        <ele>267.38</ele>
        <time>2018-04-16T09:50:34Z</time>
      </trkpt>
      <trkpt lat="38.40571" lon="14.95803">
        <ele>271.23</ele>
        <time>2018-04-16T09:50:47Z</time>
      </trkpt>
      <trkpt lat="38.40567" lon="14.95801">
        <ele>273.15</ele>
        <time>2018-04-16T09:50:59Z</time>
      </trkpt>
      <trkpt lat="38.40565" lon="14.958">
        <ele>273.63</ele>
        <time>2018-04-16T09:51:02Z</time>
      </trkpt>
      <trkpt lat="38.40558" lon="14.95795">
        <ele>275.56</ele>
        <time>2018-04-16T09:51:15Z</time>
      </trkpt>
      <trkpt lat="38.40551" lon="14.95793">
        <ele>277.48</ele>
        <time>2018-04-16T09:51:27Z</time>
      </trkpt>
      <trkpt lat="38.40544" lon="14.95789">
        <ele>278.92</ele>
        <time>2018-04-16T09:51:39Z</time>
      </trkpt>
      <trkpt lat="38.40535" lon="14.95786">
        <ele>279.88</ele>
        <time>2018-04-16T09:51:52Z</time>
      </trkpt>
      <trkpt lat="38.4053" lon="14.95783">
        <ele>281.8</ele>
        <time>2018-04-16T09:52:04Z</time>
      </trkpt>
      <trkpt lat="38.4053" lon="14.95783">
        <ele>283.25</ele>
        <time>2018-04-16T09:52:17Z</time>
      </trkpt>
      <trkpt lat="38.40526" lon="14.95782">
        <ele>284.21</ele>
        <time>2018-04-16T09:52:31Z</time>
      </trkpt>
      <trkpt lat="38.40518" lon="14.95778">
        <ele>286.61</ele>
        <time>2018-04-16T09:52:43Z</time>
      </trkpt>
      <trkpt lat="38.40508" lon="14.95776">
        <ele>288.53</ele>
        <time>2018-04-16T09:52:55Z</time>
      </trkpt>
      <trkpt lat="38.40498" lon="14.95773">
        <ele>291.42</ele>
        <time>2018-04-16T09:53:08Z</time>
      </trkpt>
      <trkpt lat="38.40487" lon="14.95771">
        <ele>292.86</ele>
        <time>2018-04-16T09:53:20Z</time>
      </trkpt>
      <trkpt lat="38.40478" lon="14.95769">
        <ele>294.78</ele>
        <time>2018-04-16T09:53:30Z</time>
      </trkpt>
      <trkpt lat="38.40472" lon="14.95769">
        <ele>295.74</ele>
        <time>2018-04-16T09:53:43Z</time>
      </trkpt>
      <trkpt lat="38.40461" lon="14.95769">
        <ele>296.7</ele>
        <time>2018-04-16T09:53:56Z</time>
      </trkpt>
      <trkpt lat="38.4045" lon="14.95769">
        <ele>298.63</ele>
        <time>2018-04-16T09:54:09Z</time>
      </trkpt>
      <trkpt lat="38.40451" lon="14.95768">
        <ele>298.63</ele>
        <time>2018-04-16T09:54:19Z</time>
      </trkpt>
      <trkpt lat="38.40449" lon="14.95769">
        <ele>299.59</ele>
        <time>2018-04-16T09:54:35Z</time>
      </trkpt>
      <trkpt lat="38.40443" lon="14.95771">
        <ele>301.03</ele>
        <time>2018-04-16T09:54:48Z</time>
      </trkpt>
      <trkpt lat="38.40431" lon="14.95774">
        <ele>303.43</ele>
        <time>2018-04-16T09:55:02Z</time>
      </trkpt>
      <trkpt lat="38.40419" lon="14.95779">
        <ele>304.88</ele>
        <time>2018-04-16T09:55:17Z</time>
      </trkpt>
      <trkpt lat="38.40413" lon="14.95781">
        <ele>305.36</ele>
        <time>2018-04-16T09:55:23Z</time>
      </trkpt>
      <trkpt lat="38.40404" lon="14.95784">
        <ele>306.32</ele>
        <time>2018-04-16T09:55:37Z</time>
      </trkpt>
      <trkpt lat="38.40397" lon="14.95789">
        <ele>306.32</ele>
        <time>2018-04-16T09:55:50Z</time>
      </trkpt>
      <trkpt lat="38.40393" lon="14.95791">
        <ele>306.8</ele>
        <time>2018-04-16T09:56:00Z</time>
      </trkpt>
      <trkpt lat="38.40388" lon="14.95798">
        <ele>308.24</ele>
        <time>2018-04-16T09:56:13Z</time>
      </trkpt>
      <trkpt lat="38.40386" lon="14.95801">
        <ele>309.2</ele>
        <time>2018-04-16T09:56:24Z</time>
      </trkpt>
      <trkpt lat="38.40378" lon="14.9581">
        <ele>311.6</ele>
        <time>2018-04-16T09:56:37Z</time>
      </trkpt>
      <trkpt lat="38.40371" lon="14.95819">
        <ele>314.01</ele>
        <time>2018-04-16T09:56:50Z</time>
      </trkpt>
      <trkpt lat="38.40365" lon="14.95828">
        <ele>316.89</ele>
        <time>2018-04-16T09:57:02Z</time>
      </trkpt>
      <trkpt lat="38.4036" lon="14.95835">
        <ele>319.3</ele>
        <time>2018-04-16T09:57:14Z</time>
      </trkpt>
      <trkpt lat="38.40352" lon="14.95845">
        <ele>322.66</ele>
        <time>2018-04-16T09:57:29Z</time>
      </trkpt>
      <trkpt lat="38.4035" lon="14.9585">
        <ele>323.14</ele>
        <time>2018-04-16T09:57:36Z</time>
      </trkpt>
      <trkpt lat="38.40349" lon="14.95852">
        <ele>323.62</ele>
        <time>2018-04-16T09:57:38Z</time>
      </trkpt>
      <trkpt lat="38.40343" lon="14.9586">
        <ele>325.54</ele>
        <time>2018-04-16T09:57:49Z</time>
      </trkpt>
      <trkpt lat="38.40343" lon="14.95861">
        <ele>325.54</ele>
        <time>2018-04-16T09:58:01Z</time>
      </trkpt>
      <trkpt lat="38.40342" lon="14.95861">
        <ele>324.1</ele>
        <time>2018-04-16T09:58:34Z</time>
      </trkpt>
      <trkpt lat="38.4034" lon="14.95861">
        <ele>323.62</ele>
        <time>2018-04-16T09:59:00Z</time>
      </trkpt>
      <trkpt lat="38.4034" lon="14.95862">
        <ele>322.66</ele>
        <time>2018-04-16T09:59:24Z</time>
      </trkpt>
      <trkpt lat="38.4034" lon="14.95861">
        <ele>322.18</ele>
        <time>2018-04-16T09:59:57Z</time>
      </trkpt>
      <trkpt lat="38.4034" lon="14.95861">
        <ele>322.18</ele>
        <time>2018-04-16T10:00:28Z</time>
      </trkpt>
      <trkpt lat="38.40341" lon="14.95861">
        <ele>321.22</ele>
        <time>2018-04-16T10:00:53Z</time>
      </trkpt>
      <trkpt lat="38.40341" lon="14.95861">
        <ele>321.22</ele>
        <time>2018-04-16T10:01:23Z</time>
      </trkpt>
      <trkpt lat="38.4034" lon="14.95861">
        <ele>321.22</ele>
        <time>2018-04-16T10:02:02Z</time>
      </trkpt>
      <trkpt lat="38.4034" lon="14.95861">
        <ele>321.22</ele>
        <time>2018-04-16T10:02:34Z</time>
      </trkpt>
      <trkpt lat="38.4034" lon="14.95861">
        <ele>321.22</ele>
        <time>2018-04-16T10:02:58Z</time>
      </trkpt>
      <trkpt lat="38.4034" lon="14.95861">
        <ele>321.22</ele>
        <time>2018-04-16T10:03:15Z</time>
      </trkpt>
      <trkpt lat="38.40343" lon="14.95859">
        <ele>321.22</ele>
        <time>2018-04-16T10:03:32Z</time>
      </trkpt>
      <trkpt lat="38.40343" lon="14.9586">
        <ele>320.74</ele>
        <time>2018-04-16T10:03:47Z</time>
      </trkpt>
      <trkpt lat="38.40344" lon="14.9586">
        <ele>320.26</ele>
        <time>2018-04-16T10:04:03Z</time>
      </trkpt>
      <trkpt lat="38.40345" lon="14.9586">
        <ele>320.26</ele>
        <time>2018-04-16T10:04:09Z</time>
      </trkpt>
      <trkpt lat="38.40351" lon="14.95858">
        <ele>318.33</ele>
        <time>2018-04-16T10:04:14Z</time>
      </trkpt>
      <trkpt lat="38.40362" lon="14.95857">
        <ele>313.05</ele>
        <time>2018-04-16T10:04:24Z</time>
      </trkpt>
      <trkpt lat="38.40368" lon="14.95859">
        <ele>309.68</ele>
        <time>2018-04-16T10:04:33Z</time>
      </trkpt>
      <trkpt lat="38.40369" lon="14.95857">
        <ele>307.76</ele>
        <time>2018-04-16T10:04:41Z</time>
      </trkpt>
      <trkpt lat="38.40367" lon="14.95857">
        <ele>309.68</ele>
        <time>2018-04-16T10:04:48Z</time>
      </trkpt>
      <trkpt lat="38.40368" lon="14.9586">
        <ele>309.68</ele>
        <time>2018-04-16T10:05:00Z</time>
      </trkpt>
      <trkpt lat="38.4037" lon="14.95859">
        <ele>310.16</ele>
        <time>2018-04-16T10:05:21Z</time>
      </trkpt>
      <trkpt lat="38.40369" lon="14.9586">
        <ele>310.64</ele>
        <time>2018-04-16T10:05:35Z</time>
      </trkpt>
      <trkpt lat="38.40373" lon="14.95861">
        <ele>309.68</ele>
        <time>2018-04-16T10:05:50Z</time>
      </trkpt>
      <trkpt lat="38.40376" lon="14.95861">
        <ele>308.24</ele>
        <time>2018-04-16T10:05:58Z</time>
      </trkpt>
      <trkpt lat="38.4038" lon="14.95865">
        <ele>306.32</ele>
        <time>2018-04-16T10:06:05Z</time>
      </trkpt>
      <trkpt lat="38.40386" lon="14.95866">
        <ele>303.43</ele>
        <time>2018-04-16T10:06:14Z</time>
      </trkpt>
      <trkpt lat="38.40393" lon="14.95868">
        <ele>301.03</ele>
        <time>2018-04-16T10:06:21Z</time>
      </trkpt>
      <trkpt lat="38.404" lon="14.9587">
        <ele>298.63</ele>
        <time>2018-04-16T10:06:29Z</time>
      </trkpt>
      <trkpt lat="38.40413" lon="14.95875">
        <ele>295.26</ele>
        <time>2018-04-16T10:06:41Z</time>
      </trkpt>
      <trkpt lat="38.40421" lon="14.95881">
        <ele>293.82</ele>
        <time>2018-04-16T10:06:49Z</time>
      </trkpt>
      <trkpt lat="38.40432" lon="14.95884">
        <ele>291.9</ele>
        <time>2018-04-16T10:07:00Z</time>
      </trkpt>
      <trkpt lat="38.40443" lon="14.95891">
        <ele>291.9</ele>
        <time>2018-04-16T10:07:13Z</time>
      </trkpt>
      <trkpt lat="38.40456" lon="14.959">
        <ele>293.34</ele>
        <time>2018-04-16T10:07:27Z</time>
      </trkpt>
      <trkpt lat="38.40465" lon="14.95905">
        <ele>292.38</ele>
        <time>2018-04-16T10:07:37Z</time>
      </trkpt>
      <trkpt lat="38.4047" lon="14.95907">
        <ele>292.86</ele>
        <time>2018-04-16T10:07:50Z</time>
      </trkpt>
      <trkpt lat="38.40472" lon="14.95907">
        <ele>292.86</ele>
        <time>2018-04-16T10:07:52Z</time>
      </trkpt>
      <trkpt lat="38.40476" lon="14.95909">
        <ele>293.34</ele>
        <time>2018-04-16T10:07:56Z</time>
      </trkpt>
      <trkpt lat="38.4049" lon="14.95915">
        <ele>293.34</ele>
        <time>2018-04-16T10:08:10Z</time>
      </trkpt>
      <trkpt lat="38.40503" lon="14.95919">
        <ele>293.34</ele>
        <time>2018-04-16T10:08:22Z</time>
      </trkpt>
      <trkpt lat="38.40505" lon="14.95919">
        <ele>293.34</ele>
        <time>2018-04-16T10:08:24Z</time>
      </trkpt>
      <trkpt lat="38.40513" lon="14.95925">
        <ele>292.38</ele>
        <time>2018-04-16T10:08:32Z</time>
      </trkpt>
      <trkpt lat="38.4053" lon="14.95934">
        <ele>291.9</ele>
        <time>2018-04-16T10:08:49Z</time>
      </trkpt>
      <trkpt lat="38.40532" lon="14.95935">
        <ele>291.42</ele>
        <time>2018-04-16T10:08:52Z</time>
      </trkpt>
      <trkpt lat="38.40539" lon="14.9594">
        <ele>290.94</ele>
        <time>2018-04-16T10:08:58Z</time>
      </trkpt>
      <trkpt lat="38.40545" lon="14.95944">
        <ele>289.49</ele>
        <time>2018-04-16T10:09:04Z</time>
      </trkpt>
      <trkpt lat="38.40558" lon="14.95954">
        <ele>287.09</ele>
        <time>2018-04-16T10:09:17Z</time>
      </trkpt>
      <trkpt lat="38.40567" lon="14.95964">
        <ele>283.73</ele>
        <time>2018-04-16T10:09:31Z</time>
      </trkpt>
      <trkpt lat="38.40575" lon="14.95974">
        <ele>284.21</ele>
        <time>2018-04-16T10:09:40Z</time>
      </trkpt>
      <trkpt lat="38.40588" lon="14.95989">
        <ele>282.77</ele>
        <time>2018-04-16T10:09:56Z</time>
      </trkpt>
      <trkpt lat="38.40589" lon="14.95992">
        <ele>282.77</ele>
        <time>2018-04-16T10:09:58Z</time>
      </trkpt>
      <trkpt lat="38.40591" lon="14.95998">
        <ele>282.77</ele>
        <time>2018-04-16T10:10:04Z</time>
      </trkpt>
      <trkpt lat="38.40595" lon="14.96008">
        <ele>283.73</ele>
        <time>2018-04-16T10:10:15Z</time>
      </trkpt>
      <trkpt lat="38.40597" lon="14.96009">
        <ele>283.73</ele>
        <time>2018-04-16T10:10:17Z</time>
      </trkpt>
      <trkpt lat="38.40601" lon="14.96021">
        <ele>283.25</ele>
        <time>2018-04-16T10:10:29Z</time>
      </trkpt>
      <trkpt lat="38.40602" lon="14.96028">
        <ele>283.25</ele>
        <time>2018-04-16T10:10:36Z</time>
      </trkpt>
      <trkpt lat="38.40605" lon="14.96033">
        <ele>283.25</ele>
        <time>2018-04-16T10:10:40Z</time>
      </trkpt>
      <trkpt lat="38.40606" lon="14.96036">
        <ele>283.25</ele>
        <time>2018-04-16T10:10:42Z</time>
      </trkpt>
      <trkpt lat="38.40608" lon="14.96046">
        <ele>284.69</ele>
        <time>2018-04-16T10:10:51Z</time>
      </trkpt>
      <trkpt lat="38.40611" lon="14.96062">
        <ele>286.61</ele>
        <time>2018-04-16T10:11:04Z</time>
      </trkpt>
      <trkpt lat="38.40614" lon="14.96062">
        <ele>285.65</ele>
        <time>2018-04-16T10:11:15Z</time>
      </trkpt>
      <trkpt lat="38.40614" lon="14.9606">
        <ele>284.21</ele>
        <time>2018-04-16T10:11:31Z</time>
      </trkpt>
      <trkpt lat="38.40614" lon="14.96062">
        <ele>283.73</ele>
        <time>2018-04-16T10:11:49Z</time>
      </trkpt>
      <trkpt lat="38.40613" lon="14.96066">
        <ele>283.73</ele>
        <time>2018-04-16T10:11:53Z</time>
      </trkpt>
      <trkpt lat="38.40611" lon="14.9606">
        <ele>283.73</ele>
        <time>2018-04-16T10:12:02Z</time>
      </trkpt>
      <trkpt lat="38.40611" lon="14.96059">
        <ele>283.25</ele>
        <time>2018-04-16T10:12:16Z</time>
      </trkpt>
      <trkpt lat="38.40608" lon="14.96061">
        <ele>283.25</ele>
        <time>2018-04-16T10:12:29Z</time>
      </trkpt>
      <trkpt lat="38.40607" lon="14.96059">
        <ele>284.21</ele>
        <time>2018-04-16T10:12:42Z</time>
      </trkpt>
      <trkpt lat="38.4061" lon="14.96057">
        <ele>282.77</ele>
        <time>2018-04-16T10:12:53Z</time>
      </trkpt>
      <trkpt lat="38.40612" lon="14.96059">
        <ele>281.8</ele>
        <time>2018-04-16T10:13:05Z</time>
      </trkpt>
      <trkpt lat="38.40613" lon="14.9606">
        <ele>282.28</ele>
        <time>2018-04-16T10:13:20Z</time>
      </trkpt>
      <trkpt lat="38.40612" lon="14.96062">
        <ele>282.77</ele>
        <time>2018-04-16T10:13:35Z</time>
      </trkpt>
      <trkpt lat="38.4061" lon="14.96059">
        <ele>282.28</ele>
        <time>2018-04-16T10:13:46Z</time>
      </trkpt>
      <trkpt lat="38.40609" lon="14.96057">
        <ele>280.84</ele>
        <time>2018-04-16T10:14:08Z</time>
      </trkpt>
      <trkpt lat="38.40609" lon="14.96057">
        <ele>280.84</ele>
        <time>2018-04-16T10:14:24Z</time>
      </trkpt>
      <trkpt lat="38.40609" lon="14.96058">
        <ele>282.28</ele>
        <time>2018-04-16T10:14:43Z</time>
      </trkpt>
      <trkpt lat="38.40608" lon="14.96058">
        <ele>282.77</ele>
        <time>2018-04-16T10:15:03Z</time>
      </trkpt>
      <trkpt lat="38.40609" lon="14.96063">
        <ele>283.25</ele>
        <time>2018-04-16T10:15:19Z</time>
      </trkpt>
      <trkpt lat="38.4061" lon="14.96063">
        <ele>283.73</ele>
        <time>2018-04-16T10:15:36Z</time>
      </trkpt>
      <trkpt lat="38.4061" lon="14.96063">
        <ele>283.25</ele>
        <time>2018-04-16T10:15:48Z</time>
      </trkpt>
      <trkpt lat="38.40611" lon="14.96063">
        <ele>283.73</ele>
        <time>2018-04-16T10:16:12Z</time>
      </trkpt>
      <trkpt lat="38.4061" lon="14.96064">
        <ele>284.21</ele>
        <time>2018-04-16T10:16:28Z</time>
      </trkpt>
      <trkpt lat="38.40609" lon="14.96061">
        <ele>284.21</ele>
        <time>2018-04-16T10:16:43Z</time>
      </trkpt>
      <trkpt lat="38.40608" lon="14.96057">
        <ele>284.21</ele>
        <time>2018-04-16T10:16:56Z</time>
      </trkpt>
      <trkpt lat="38.40609" lon="14.96056">
        <ele>283.25</ele>
        <time>2018-04-16T10:17:06Z</time>
      </trkpt>
      <trkpt lat="38.40609" lon="14.96059">
        <ele>283.73</ele>
        <time>2018-04-16T10:17:08Z</time>
      </trkpt>
      <trkpt lat="38.4061" lon="14.96063">
        <ele>283.73</ele>
        <time>2018-04-16T10:17:21Z</time>
      </trkpt>
      <trkpt lat="38.40608" lon="14.96057">
        <ele>284.21</ele>
        <time>2018-04-16T10:17:32Z</time>
      </trkpt>
      <trkpt lat="38.40609" lon="14.96048">
        <ele>283.73</ele>
        <time>2018-04-16T10:17:46Z</time>
      </trkpt>
      <trkpt lat="38.40609" lon="14.96046">
        <ele>284.21</ele>
        <time>2018-04-16T10:17:56Z</time>
      </trkpt>
      <trkpt lat="38.40605" lon="14.96034">
        <ele>284.21</ele>
        <time>2018-04-16T10:18:06Z</time>
      </trkpt>
      <trkpt lat="38.40602" lon="14.96014">
        <ele>282.77</ele>
        <time>2018-04-16T10:18:19Z</time>
      </trkpt>
      <trkpt lat="38.40599" lon="14.96">
        <ele>281.32</ele>
        <time>2018-04-16T10:18:32Z</time>
      </trkpt>
      <trkpt lat="38.40598" lon="14.95995">
        <ele>280.84</ele>
        <time>2018-04-16T10:18:41Z</time>
      </trkpt>
      <trkpt lat="38.40599" lon="14.95985">
        <ele>277.96</ele>
        <time>2018-04-16T10:18:53Z</time>
      </trkpt>
      <trkpt lat="38.40601" lon="14.95978">
        <ele>275.56</ele>
        <time>2018-04-16T10:19:02Z</time>
      </trkpt>
      <trkpt lat="38.406" lon="14.95968">
        <ele>273.15</ele>
        <time>2018-04-16T10:19:14Z</time>
      </trkpt>
      <trkpt lat="38.40601" lon="14.95966">
        <ele>273.15</ele>
        <time>2018-04-16T10:19:16Z</time>
      </trkpt>
      <trkpt lat="38.40601" lon="14.95959">
        <ele>271.23</ele>
        <time>2018-04-16T10:19:21Z</time>
      </trkpt>
      <trkpt lat="38.40601" lon="14.95955">
        <ele>270.27</ele>
        <time>2018-04-16T10:19:24Z</time>
      </trkpt>
      <trkpt lat="38.40599" lon="14.95943">
        <ele>267.38</ele>
        <time>2018-04-16T10:19:37Z</time>
      </trkpt>
      <trkpt lat="38.40597" lon="14.9593">
        <ele>265.46</ele>
        <time>2018-04-16T10:19:48Z</time>
      </trkpt>
      <trkpt lat="38.40594" lon="14.95916">
        <ele>263.54</ele>
        <time>2018-04-16T10:20:00Z</time>
      </trkpt>
      <trkpt lat="38.40592" lon="14.95902">
        <ele>261.62</ele>
        <time>2018-04-16T10:20:14Z</time>
      </trkpt>
      <trkpt lat="38.40595" lon="14.959">
        <ele>261.14</ele>
        <time>2018-04-16T10:20:25Z</time>
      </trkpt>
      <trkpt lat="38.40598" lon="14.95901">
        <ele>260.65</ele>
        <time>2018-04-16T10:20:31Z</time>
      </trkpt>
      <trkpt lat="38.40601" lon="14.95901">
        <ele>259.69</ele>
        <time>2018-04-16T10:20:35Z</time>
      </trkpt>
      <trkpt lat="38.40607" lon="14.95892">
        <ele>257.77</ele>
        <time>2018-04-16T10:20:47Z</time>
      </trkpt>
      <trkpt lat="38.40611" lon="14.95888">
        <ele>255.37</ele>
        <time>2018-04-16T10:20:59Z</time>
      </trkpt>
      <trkpt lat="38.40616" lon="14.95882">
        <ele>254.41</ele>
        <time>2018-04-16T10:21:10Z</time>
      </trkpt>
      <trkpt lat="38.40618" lon="14.9588">
        <ele>253.93</ele>
        <time>2018-04-16T10:21:12Z</time>
      </trkpt>
      <trkpt lat="38.40628" lon="14.95881">
        <ele>253.44</ele>
        <time>2018-04-16T10:21:24Z</time>
      </trkpt>
      <trkpt lat="38.40638" lon="14.95879">
        <ele>252.96</ele>
        <time>2018-04-16T10:21:33Z</time>
      </trkpt>
      <trkpt lat="38.40647" lon="14.95876">
        <ele>251.52</ele>
        <time>2018-04-16T10:21:46Z</time>
      </trkpt>
      <trkpt lat="38.40655" lon="14.95873">
        <ele>248.64</ele>
        <time>2018-04-16T10:21:58Z</time>
      </trkpt>
      <trkpt lat="38.40653" lon="14.95871">
        <ele>248.64</ele>
        <time>2018-04-16T10:22:10Z</time>
      </trkpt>
      <trkpt lat="38.40653" lon="14.95869">
        <ele>248.64</ele>
        <time>2018-04-16T10:22:25Z</time>
      </trkpt>
      <trkpt lat="38.40649" lon="14.95861">
        <ele>247.2</ele>
        <time>2018-04-16T10:22:34Z</time>
      </trkpt>
      <trkpt lat="38.40642" lon="14.9585">
        <ele>244.31</ele>
        <time>2018-04-16T10:22:48Z</time>
      </trkpt>
      <trkpt lat="38.40641" lon="14.95847">
        <ele>242.87</ele>
        <time>2018-04-16T10:23:00Z</time>
      </trkpt>
      <trkpt lat="38.4064" lon="14.95845">
        <ele>242.39</ele>
        <time>2018-04-16T10:23:04Z</time>
      </trkpt>
      <trkpt lat="38.40638" lon="14.95836">
        <ele>239.99</ele>
        <time>2018-04-16T10:23:18Z</time>
      </trkpt>
      <trkpt lat="38.40636" lon="14.95828">
        <ele>238.06</ele>
        <time>2018-04-16T10:23:29Z</time>
      </trkpt>
      <trkpt lat="38.40634" lon="14.95821">
        <ele>236.14</ele>
        <time>2018-04-16T10:23:43Z</time>
      </trkpt>
      <trkpt lat="38.4063" lon="14.95807">
        <ele>233.26</ele>
        <time>2018-04-16T10:23:58Z</time>
      </trkpt>
      <trkpt lat="38.40627" lon="14.958">
        <ele>231.81</ele>
        <time>2018-04-16T10:24:12Z</time>
      </trkpt>
      <trkpt lat="38.40626" lon="14.95792">
        <ele>229.41</ele>
        <time>2018-04-16T10:24:31Z</time>
      </trkpt>
      <trkpt lat="38.40624" lon="14.95789">
        <ele>228.45</ele>
        <time>2018-04-16T10:24:34Z</time>
      </trkpt>
      <trkpt lat="38.40619" lon="14.95772">
        <ele>225.57</ele>
        <time>2018-04-16T10:24:48Z</time>
      </trkpt>
      <trkpt lat="38.40613" lon="14.95756">
        <ele>219.8</ele>
        <time>2018-04-16T10:25:02Z</time>
      </trkpt>
      <trkpt lat="38.40609" lon="14.95748">
        <ele>217.88</ele>
        <time>2018-04-16T10:25:11Z</time>
      </trkpt>
      <trkpt lat="38.40606" lon="14.95736">
        <ele>215.95</ele>
        <time>2018-04-16T10:25:23Z</time>
      </trkpt>
      <trkpt lat="38.40601" lon="14.95726">
        <ele>214.51</ele>
        <time>2018-04-16T10:25:35Z</time>
      </trkpt>
      <trkpt lat="38.40594" lon="14.95714">
        <ele>212.59</ele>
        <time>2018-04-16T10:25:47Z</time>
      </trkpt>
      <trkpt lat="38.40584" lon="14.95702">
        <ele>211.63</ele>
        <time>2018-04-16T10:26:00Z</time>
      </trkpt>
      <trkpt lat="38.40581" lon="14.95697">
        <ele>211.63</ele>
        <time>2018-04-16T10:26:04Z</time>
      </trkpt>
      <trkpt lat="38.40578" lon="14.95692">
        <ele>210.67</ele>
        <time>2018-04-16T10:26:09Z</time>
      </trkpt>
      <trkpt lat="38.40567" lon="14.9568">
        <ele>209.22</ele>
        <time>2018-04-16T10:26:23Z</time>
      </trkpt>
      <trkpt lat="38.40564" lon="14.95677">
        <ele>208.74</ele>
        <time>2018-04-16T10:26:26Z</time>
      </trkpt>
      <trkpt lat="38.40551" lon="14.95662">
        <ele>206.34</ele>
        <time>2018-04-16T10:26:41Z</time>
      </trkpt>
      <trkpt lat="38.4054" lon="14.95656">
        <ele>204.42</ele>
        <time>2018-04-16T10:26:52Z</time>
      </trkpt>
      <trkpt lat="38.40535" lon="14.95652">
        <ele>203.46</ele>
        <time>2018-04-16T10:26:57Z</time>
      </trkpt>
      <trkpt lat="38.40526" lon="14.95641">
        <ele>201.53</ele>
        <time>2018-04-16T10:27:10Z</time>
      </trkpt>
      <trkpt lat="38.40513" lon="14.95631">
        <ele>199.61</ele>
        <time>2018-04-16T10:27:24Z</time>
      </trkpt>
      <trkpt lat="38.4051" lon="14.95629">
        <ele>199.61</ele>
        <time>2018-04-16T10:27:27Z</time>
      </trkpt>
      <trkpt lat="38.40502" lon="14.95622">
        <ele>199.13</ele>
        <time>2018-04-16T10:27:36Z</time>
      </trkpt>
      <trkpt lat="38.405" lon="14.9562">
        <ele>198.65</ele>
        <time>2018-04-16T10:27:38Z</time>
      </trkpt>
      <trkpt lat="38.40498" lon="14.95618">
        <ele>198.65</ele>
        <time>2018-04-16T10:27:41Z</time>
      </trkpt>
      <trkpt lat="38.40483" lon="14.95605">
        <ele>196.73</ele>
        <time>2018-04-16T10:27:58Z</time>
      </trkpt>
      <trkpt lat="38.40483" lon="14.95604">
        <ele>196.73</ele>
        <time>2018-04-16T10:27:59Z</time>
      </trkpt>
      <trkpt lat="38.40474" lon="14.95594">
        <ele>197.21</ele>
        <time>2018-04-16T10:28:11Z</time>
      </trkpt>
      <trkpt lat="38.4046" lon="14.95585">
        <ele>194.8</ele>
        <time>2018-04-16T10:28:26Z</time>
      </trkpt>
      <trkpt lat="38.40447" lon="14.95576">
        <ele>191.92</ele>
        <time>2018-04-16T10:28:39Z</time>
      </trkpt>
      <trkpt lat="38.40444" lon="14.95575">
        <ele>191.44</ele>
        <time>2018-04-16T10:28:42Z</time>
      </trkpt>
      <trkpt lat="38.40427" lon="14.95563">
        <ele>189.04</ele>
        <time>2018-04-16T10:29:00Z</time>
      </trkpt>
      <trkpt lat="38.40427" lon="14.95563">
        <ele>189.04</ele>
        <time>2018-04-16T10:29:01Z</time>
      </trkpt>
      <trkpt lat="38.40414" lon="14.9556">
        <ele>186.63</ele>
        <time>2018-04-16T10:29:14Z</time>
      </trkpt>
      <trkpt lat="38.40399" lon="14.95555">
        <ele>183.27</ele>
        <time>2018-04-16T10:29:28Z</time>
      </trkpt>
      <trkpt lat="38.40394" lon="14.95553">
        <ele>182.79</ele>
        <time>2018-04-16T10:29:33Z</time>
      </trkpt>
      <trkpt lat="38.40392" lon="14.95553">
        <ele>182.31</ele>
        <time>2018-04-16T10:29:35Z</time>
      </trkpt>
      <trkpt lat="38.40383" lon="14.95548">
        <ele>180.38</ele>
        <time>2018-04-16T10:29:46Z</time>
      </trkpt>
      <trkpt lat="38.40387" lon="14.95541">
        <ele>177.98</ele>
        <time>2018-04-16T10:29:54Z</time>
      </trkpt>
      <trkpt lat="38.40399" lon="14.95533">
        <ele>172.21</ele>
        <time>2018-04-16T10:30:08Z</time>
      </trkpt>
      <trkpt lat="38.40405" lon="14.95529">
        <ele>170.29</ele>
        <time>2018-04-16T10:30:17Z</time>
      </trkpt>
      <trkpt lat="38.40412" lon="14.95525">
        <ele>167.89</ele>
        <time>2018-04-16T10:30:25Z</time>
      </trkpt>
      <trkpt lat="38.40415" lon="14.95521">
        <ele>166.45</ele>
        <time>2018-04-16T10:30:29Z</time>
      </trkpt>
      <trkpt lat="38.40428" lon="14.95517">
        <ele>163.56</ele>
        <time>2018-04-16T10:30:42Z</time>
      </trkpt>
      <trkpt lat="38.40435" lon="14.95514">
        <ele>162.6</ele>
        <time>2018-04-16T10:30:49Z</time>
      </trkpt>
      <trkpt lat="38.40442" lon="14.95511">
        <ele>159.72</ele>
        <time>2018-04-16T10:30:56Z</time>
      </trkpt>
      <trkpt lat="38.40446" lon="14.95512">
        <ele>157.79</ele>
        <time>2018-04-16T10:31:00Z</time>
      </trkpt>
      <trkpt lat="38.40457" lon="14.95508">
        <ele>155.87</ele>
        <time>2018-04-16T10:31:12Z</time>
      </trkpt>
      <trkpt lat="38.40469" lon="14.95507">
        <ele>154.43</ele>
        <time>2018-04-16T10:31:24Z</time>
      </trkpt>
      <trkpt lat="38.40471" lon="14.95507">
        <ele>153.95</ele>
        <time>2018-04-16T10:31:26Z</time>
      </trkpt>
      <trkpt lat="38.40479" lon="14.95503">
        <ele>151.54</ele>
        <time>2018-04-16T10:31:35Z</time>
      </trkpt>
      <trkpt lat="38.40484" lon="14.95499">
        <ele>151.06</ele>
        <time>2018-04-16T10:31:42Z</time>
      </trkpt>
      <trkpt lat="38.40489" lon="14.955">
        <ele>150.1</ele>
        <time>2018-04-16T10:31:49Z</time>
      </trkpt>
      <trkpt lat="38.40504" lon="14.95498">
        <ele>147.7</ele>
        <time>2018-04-16T10:32:03Z</time>
      </trkpt>
      <trkpt lat="38.40519" lon="14.95497">
        <ele>146.26</ele>
        <time>2018-04-16T10:32:16Z</time>
      </trkpt>
      <trkpt lat="38.40523" lon="14.95498">
        <ele>145.3</ele>
        <time>2018-04-16T10:32:20Z</time>
      </trkpt>
      <trkpt lat="38.40538" lon="14.95499">
        <ele>142.41</ele>
        <time>2018-04-16T10:32:33Z</time>
      </trkpt>
      <trkpt lat="38.4054" lon="14.95498">
        <ele>141.93</ele>
        <time>2018-04-16T10:32:35Z</time>
      </trkpt>
      <trkpt lat="38.40551" lon="14.955">
        <ele>139.53</ele>
        <time>2018-04-16T10:32:49Z</time>
      </trkpt>
      <trkpt lat="38.40551" lon="14.95496">
        <ele>139.53</ele>
        <time>2018-04-16T10:33:02Z</time>
      </trkpt>
      <trkpt lat="38.40554" lon="14.95496">
        <ele>138.57</ele>
        <time>2018-04-16T10:33:05Z</time>
      </trkpt>
      <trkpt lat="38.40558" lon="14.95503">
        <ele>136.16</ele>
        <time>2018-04-16T10:33:12Z</time>
      </trkpt>
      <trkpt lat="38.40565" lon="14.95498">
        <ele>134.24</ele>
        <time>2018-04-16T10:33:22Z</time>
      </trkpt>
      <trkpt lat="38.4057" lon="14.95496">
        <ele>133.28</ele>
        <time>2018-04-16T10:33:26Z</time>
      </trkpt>
      <trkpt lat="38.40575" lon="14.95499">
        <ele>133.28</ele>
        <time>2018-04-16T10:33:32Z</time>
      </trkpt>
      <trkpt lat="38.40589" lon="14.95508">
        <ele>130.88</ele>
        <time>2018-04-16T10:33:48Z</time>
      </trkpt>
      <trkpt lat="38.40593" lon="14.95508">
        <ele>129.43</ele>
        <time>2018-04-16T10:33:58Z</time>
      </trkpt>
      <trkpt lat="38.40597" lon="14.95512">
        <ele>127.99</ele>
        <time>2018-04-16T10:34:08Z</time>
      </trkpt>
      <trkpt lat="38.40609" lon="14.95509">
        <ele>125.59</ele>
        <time>2018-04-16T10:34:20Z</time>
      </trkpt>
      <trkpt lat="38.40613" lon="14.95509">
        <ele>124.63</ele>
        <time>2018-04-16T10:34:24Z</time>
      </trkpt>
      <trkpt lat="38.40625" lon="14.9551">
        <ele>121.26</ele>
        <time>2018-04-16T10:34:37Z</time>
      </trkpt>
      <trkpt lat="38.40627" lon="14.95511">
        <ele>120.78</ele>
        <time>2018-04-16T10:34:39Z</time>
      </trkpt>
      <trkpt lat="38.40634" lon="14.95515">
        <ele>116.46</ele>
        <time>2018-04-16T10:34:51Z</time>
      </trkpt>
      <trkpt lat="38.4064" lon="14.95519">
        <ele>115.98</ele>
        <time>2018-04-16T10:34:59Z</time>
      </trkpt>
      <trkpt lat="38.4065" lon="14.95516">
        <ele>115.01</ele>
        <time>2018-04-16T10:35:11Z</time>
      </trkpt>
      <trkpt lat="38.40663" lon="14.95519">
        <ele>110.69</ele>
        <time>2018-04-16T10:35:26Z</time>
      </trkpt>
      <trkpt lat="38.40667" lon="14.95526">
        <ele>109.73</ele>
        <time>2018-04-16T10:35:33Z</time>
      </trkpt>
      <trkpt lat="38.40679" lon="14.95527">
        <ele>110.69</ele>
        <time>2018-04-16T10:35:43Z</time>
      </trkpt>
      <trkpt lat="38.40682" lon="14.95528">
        <ele>111.17</ele>
        <time>2018-04-16T10:35:49Z</time>
      </trkpt>
      <trkpt lat="38.40687" lon="14.95533">
        <ele>109.73</ele>
        <time>2018-04-16T10:35:57Z</time>
      </trkpt>
      <trkpt lat="38.40689" lon="14.95531">
        <ele>109.25</ele>
        <time>2018-04-16T10:35:59Z</time>
      </trkpt>
      <trkpt lat="38.40703" lon="14.95537">
        <ele>104.92</ele>
        <time>2018-04-16T10:36:14Z</time>
      </trkpt>
      <trkpt lat="38.40711" lon="14.95539">
        <ele>103</ele>
        <time>2018-04-16T10:36:22Z</time>
      </trkpt>
      <trkpt lat="38.40714" lon="14.95542">
        <ele>102.52</ele>
        <time>2018-04-16T10:36:25Z</time>
      </trkpt>
      <trkpt lat="38.40718" lon="14.95551">
        <ele>99.63</ele>
        <time>2018-04-16T10:36:37Z</time>
      </trkpt>
      <trkpt lat="38.40724" lon="14.95553">
        <ele>99.63</ele>
        <time>2018-04-16T10:36:44Z</time>
      </trkpt>
      <trkpt lat="38.40727" lon="14.95557">
        <ele>100.11</ele>
        <time>2018-04-16T10:36:49Z</time>
      </trkpt>
      <trkpt lat="38.40742" lon="14.95555">
        <ele>96.75</ele>
        <time>2018-04-16T10:37:04Z</time>
      </trkpt>
      <trkpt lat="38.40746" lon="14.95554">
        <ele>95.79</ele>
        <time>2018-04-16T10:37:14Z</time>
      </trkpt>
      <trkpt lat="38.40747" lon="14.95554">
        <ele>95.31</ele>
        <time>2018-04-16T10:37:18Z</time>
      </trkpt>
      <trkpt lat="38.40751" lon="14.95559">
        <ele>94.35</ele>
        <time>2018-04-16T10:37:32Z</time>
      </trkpt>
      <trkpt lat="38.40756" lon="14.95561">
        <ele>93.39</ele>
        <time>2018-04-16T10:37:37Z</time>
      </trkpt>
      <trkpt lat="38.40766" lon="14.95566">
        <ele>90.98</ele>
        <time>2018-04-16T10:37:49Z</time>
      </trkpt>
      <trkpt lat="38.40767" lon="14.95569">
        <ele>90.5</ele>
        <time>2018-04-16T10:37:52Z</time>
      </trkpt>
      <trkpt lat="38.4077" lon="14.95572">
        <ele>89.06</ele>
        <time>2018-04-16T10:37:57Z</time>
      </trkpt>
      <trkpt lat="38.40776" lon="14.95572">
        <ele>87.62</ele>
        <time>2018-04-16T10:38:05Z</time>
      </trkpt>
      <trkpt lat="38.40786" lon="14.95574">
        <ele>85.21</ele>
        <time>2018-04-16T10:38:17Z</time>
      </trkpt>
      <trkpt lat="38.40786" lon="14.95575">
        <ele>85.21</ele>
        <time>2018-04-16T10:38:36Z</time>
      </trkpt>
      <trkpt lat="38.40793" lon="14.95575">
        <ele>83.77</ele>
        <time>2018-04-16T10:38:50Z</time>
      </trkpt>
      <trkpt lat="38.408" lon="14.95578">
        <ele>81.37</ele>
        <time>2018-04-16T10:39:00Z</time>
      </trkpt>
      <trkpt lat="38.40809" lon="14.95581">
        <ele>77.52</ele>
        <time>2018-04-16T10:39:10Z</time>
      </trkpt>
      <trkpt lat="38.40817" lon="14.95585">
        <ele>73.68</ele>
        <time>2018-04-16T10:39:19Z</time>
      </trkpt>
      <trkpt lat="38.40825" lon="14.95589">
        <ele>72.24</ele>
        <time>2018-04-16T10:39:29Z</time>
      </trkpt>
      <trkpt lat="38.40834" lon="14.95587">
        <ele>68.87</ele>
        <time>2018-04-16T10:39:40Z</time>
      </trkpt>
      <trkpt lat="38.40833" lon="14.95583">
        <ele>68.87</ele>
        <time>2018-04-16T10:39:42Z</time>
      </trkpt>
      <trkpt lat="38.40831" lon="14.95579">
        <ele>67.91</ele>
        <time>2018-04-16T10:39:46Z</time>
      </trkpt>
      <trkpt lat="38.4083" lon="14.95576">
        <ele>67.91</ele>
        <time>2018-04-16T10:39:50Z</time>
      </trkpt>
      <trkpt lat="38.40824" lon="14.9556">
        <ele>64.55</ele>
        <time>2018-04-16T10:40:02Z</time>
      </trkpt>
      <trkpt lat="38.40823" lon="14.95558">
        <ele>64.55</ele>
        <time>2018-04-16T10:40:03Z</time>
      </trkpt>
      <trkpt lat="38.40816" lon="14.95537">
        <ele>62.14</ele>
        <time>2018-04-16T10:40:18Z</time>
      </trkpt>
      <trkpt lat="38.40814" lon="14.95535">
        <ele>62.14</ele>
        <time>2018-04-16T10:40:23Z</time>
      </trkpt>
      <trkpt lat="38.40805" lon="14.9551">
        <ele>59.74</ele>
        <time>2018-04-16T10:40:39Z</time>
      </trkpt>
      <trkpt lat="38.40796" lon="14.95485">
        <ele>59.74</ele>
        <time>2018-04-16T10:40:57Z</time>
      </trkpt>
      <trkpt lat="38.40793" lon="14.95479">
        <ele>59.26</ele>
        <time>2018-04-16T10:41:02Z</time>
      </trkpt>
      <trkpt lat="38.40789" lon="14.95474">
        <ele>59.26</ele>
        <time>2018-04-16T10:41:06Z</time>
      </trkpt>
      <trkpt lat="38.40782" lon="14.95449">
        <ele>57.82</ele>
        <time>2018-04-16T10:41:24Z</time>
      </trkpt>
      <trkpt lat="38.4078" lon="14.95445">
        <ele>57.34</ele>
        <time>2018-04-16T10:41:27Z</time>
      </trkpt>
      <trkpt lat="38.40772" lon="14.9542">
        <ele>56.37</ele>
        <time>2018-04-16T10:41:43Z</time>
      </trkpt>
      <trkpt lat="38.40767" lon="14.95402">
        <ele>56.37</ele>
        <time>2018-04-16T10:41:56Z</time>
      </trkpt>
      <trkpt lat="38.40772" lon="14.95397">
        <ele>55.41</ele>
        <time>2018-04-16T10:42:02Z</time>
      </trkpt>
      <trkpt lat="38.40778" lon="14.95397">
        <ele>53.97</ele>
        <time>2018-04-16T10:42:08Z</time>
      </trkpt>
      <trkpt lat="38.40781" lon="14.95397">
        <ele>53.01</ele>
        <time>2018-04-16T10:42:11Z</time>
      </trkpt>
      <trkpt lat="38.40784" lon="14.95398">
        <ele>52.05</ele>
        <time>2018-04-16T10:42:14Z</time>
      </trkpt>
      <trkpt lat="38.408" lon="14.95395">
        <ele>48.68</ele>
        <time>2018-04-16T10:42:28Z</time>
      </trkpt>
      <trkpt lat="38.40802" lon="14.95395">
        <ele>48.2</ele>
        <time>2018-04-16T10:42:30Z</time>
      </trkpt>
      <trkpt lat="38.40806" lon="14.95394">
        <ele>47.24</ele>
        <time>2018-04-16T10:42:34Z</time>
      </trkpt>
      <trkpt lat="38.40825" lon="14.95389">
        <ele>42.44</ele>
        <time>2018-04-16T10:42:51Z</time>
      </trkpt>
      <trkpt lat="38.40842" lon="14.95386">
        <ele>39.55</ele>
        <time>2018-04-16T10:43:05Z</time>
      </trkpt>
      <trkpt lat="38.40861" lon="14.95378">
        <ele>35.71</ele>
        <time>2018-04-16T10:43:21Z</time>
      </trkpt>
      <trkpt lat="38.40869" lon="14.95374">
        <ele>34.74</ele>
        <time>2018-04-16T10:43:28Z</time>
      </trkpt>
      <trkpt lat="38.40871" lon="14.95375">
        <ele>34.74</ele>
        <time>2018-04-16T10:43:30Z</time>
      </trkpt>
      <trkpt lat="38.40876" lon="14.95382">
        <ele>34.26</ele>
        <time>2018-04-16T10:43:46Z</time>
      </trkpt>
      <trkpt lat="38.40878" lon="14.95384">
        <ele>34.26</ele>
        <time>2018-04-16T10:43:48Z</time>
      </trkpt>
      <trkpt lat="38.40888" lon="14.95391">
        <ele>32.82</ele>
        <time>2018-04-16T10:43:58Z</time>
      </trkpt>
      <trkpt lat="38.40895" lon="14.95396">
        <ele>31.86</ele>
        <time>2018-04-16T10:44:04Z</time>
      </trkpt>
      <trkpt lat="38.4091" lon="14.95418">
        <ele>30.9</ele>
        <time>2018-04-16T10:44:22Z</time>
      </trkpt>
      <trkpt lat="38.40924" lon="14.95435">
        <ele>29.94</ele>
        <time>2018-04-16T10:44:38Z</time>
      </trkpt>
      <trkpt lat="38.40925" lon="14.95435">
        <ele>29.94</ele>
        <time>2018-04-16T10:44:55Z</time>
      </trkpt>
      <trkpt lat="38.4093" lon="14.95441">
        <ele>30.42</ele>
        <time>2018-04-16T10:45:10Z</time>
      </trkpt>
      <trkpt lat="38.40941" lon="14.95455">
        <ele>27.05</ele>
        <time>2018-04-16T10:45:23Z</time>
      </trkpt>
      <trkpt lat="38.40956" lon="14.95472">
        <ele>27.05</ele>
        <time>2018-04-16T10:45:39Z</time>
      </trkpt>
      <trkpt lat="38.40965" lon="14.95484">
        <ele>26.09</ele>
        <time>2018-04-16T10:45:51Z</time>
      </trkpt>
      <trkpt lat="38.40977" lon="14.95497">
        <ele>26.09</ele>
        <time>2018-04-16T10:46:07Z</time>
      </trkpt>
      <trkpt lat="38.4099" lon="14.95512">
        <ele>24.65</ele>
        <time>2018-04-16T10:46:23Z</time>
      </trkpt>
      <trkpt lat="38.41004" lon="14.95531">
        <ele>23.21</ele>
        <time>2018-04-16T10:46:41Z</time>
      </trkpt>
      <trkpt lat="38.41018" lon="14.95547">
        <ele>22.73</ele>
        <time>2018-04-16T10:46:57Z</time>
      </trkpt>
      <trkpt lat="38.41031" lon="14.95563">
        <ele>22.73</ele>
        <time>2018-04-16T10:47:13Z</time>
      </trkpt>
      <trkpt lat="38.41047" lon="14.95582">
        <ele>21.77</ele>
        <time>2018-04-16T10:47:31Z</time>
      </trkpt>
      <trkpt lat="38.4106" lon="14.95602">
        <ele>20.81</ele>
        <time>2018-04-16T10:47:50Z</time>
      </trkpt>
      <trkpt lat="38.41073" lon="14.95617">
        <ele>19.36</ele>
        <time>2018-04-16T10:48:04Z</time>
      </trkpt>
      <trkpt lat="38.41083" lon="14.95634">
        <ele>16.48</ele>
        <time>2018-04-16T10:48:21Z</time>
      </trkpt>
      <trkpt lat="38.41084" lon="14.95635">
        <ele>16</ele>
        <time>2018-04-16T10:48:22Z</time>
      </trkpt>
      <trkpt lat="38.411" lon="14.95653">
        <ele>13.6</ele>
        <time>2018-04-16T10:48:40Z</time>
      </trkpt>
      <trkpt lat="38.41109" lon="14.95663">
        <ele>15.04</ele>
        <time>2018-04-16T10:48:53Z</time>
      </trkpt>
      <trkpt lat="38.41122" lon="14.95679">
        <ele>14.56</ele>
        <time>2018-04-16T10:49:08Z</time>
      </trkpt>
      <trkpt lat="38.41136" lon="14.95697">
        <ele>14.08</ele>
        <time>2018-04-16T10:49:25Z</time>
      </trkpt>
      <trkpt lat="38.41151" lon="14.95711">
        <ele>14.08</ele>
        <time>2018-04-16T10:49:41Z</time>
      </trkpt>
      <trkpt lat="38.41161" lon="14.95725">
        <ele>12.15</ele>
        <time>2018-04-16T10:49:57Z</time>
      </trkpt>
      <trkpt lat="38.41172" lon="14.95737">
        <ele>10.23</ele>
        <time>2018-04-16T10:50:13Z</time>
      </trkpt>
      <trkpt lat="38.41182" lon="14.95754">
        <ele>7.35</ele>
        <time>2018-04-16T10:50:30Z</time>
      </trkpt>
      <trkpt lat="38.41184" lon="14.95754">
        <ele>10.23</ele>
        <time>2018-04-16T10:50:45Z</time>
      </trkpt>
      <trkpt lat="38.41192" lon="14.95762">
        <ele>10.23</ele>
        <time>2018-04-16T10:50:55Z</time>
      </trkpt>
      <trkpt lat="38.41201" lon="14.95773">
        <ele>10.23</ele>
        <time>2018-04-16T10:51:07Z</time>
      </trkpt>
      <trkpt lat="38.41216" lon="14.95789">
        <ele>9.75</ele>
        <time>2018-04-16T10:51:24Z</time>
      </trkpt>
      <trkpt lat="38.41228" lon="14.95805">
        <ele>6.39</ele>
        <time>2018-04-16T10:51:42Z</time>
      </trkpt>
      <trkpt lat="38.41235" lon="14.95811">
        <ele>4.94</ele>
        <time>2018-04-16T10:51:57Z</time>
      </trkpt>
      <trkpt lat="38.41248" lon="14.95826">
        <ele>0.14</ele>
        <time>2018-04-16T10:52:13Z</time>
      </trkpt>
      <trkpt lat="38.41251" lon="14.95829">
        <ele>-1.79</ele>
        <time>2018-04-16T10:52:28Z</time>
      </trkpt>
      <trkpt lat="38.41257" lon="14.95834">
        <ele>-2.75</ele>
        <time>2018-04-16T10:52:34Z</time>
      </trkpt>
      <trkpt lat="38.41269" lon="14.95848">
        <ele>-6.11</ele>
        <time>2018-04-16T10:52:50Z</time>
      </trkpt>
      <trkpt lat="38.41281" lon="14.95862">
        <ele>-9</ele>
        <time>2018-04-16T10:53:05Z</time>
      </trkpt>
      <trkpt lat="38.41292" lon="14.95877">
        <ele>-11.4</ele>
        <time>2018-04-16T10:53:19Z</time>
      </trkpt>
      <trkpt lat="38.41293" lon="14.95879">
        <ele>-11.4</ele>
        <time>2018-04-16T10:53:21Z</time>
      </trkpt>
      <trkpt lat="38.41299" lon="14.95886">
        <ele>-11.88</ele>
        <time>2018-04-16T10:53:28Z</time>
      </trkpt>
      <trkpt lat="38.41301" lon="14.95888">
        <ele>-12.36</ele>
        <time>2018-04-16T10:53:31Z</time>
      </trkpt>
      <trkpt lat="38.41312" lon="14.95904">
        <ele>-12.84</ele>
        <time>2018-04-16T10:53:46Z</time>
      </trkpt>
      <trkpt lat="38.4132" lon="14.95919">
        <ele>-0.82</ele>
        <time>2018-04-16T10:53:58Z</time>
      </trkpt>
      <trkpt lat="38.41339" lon="14.95932">
        <ele>1.58</ele>
        <time>2018-04-16T10:54:16Z</time>
      </trkpt>
      <trkpt lat="38.41348" lon="14.95944">
        <ele>0.62</ele>
        <time>2018-04-16T10:54:27Z</time>
      </trkpt>
      <trkpt lat="38.4135" lon="14.95948">
        <ele>0.14</ele>
        <time>2018-04-16T10:54:31Z</time>
      </trkpt>
      <trkpt lat="38.41365" lon="14.95964">
        <ele>-0.34</ele>
        <time>2018-04-16T10:54:48Z</time>
      </trkpt>
      <trkpt lat="38.41371" lon="14.95969">
        <ele>0.62</ele>
        <time>2018-04-16T10:55:00Z</time>
      </trkpt>
      <trkpt lat="38.41372" lon="14.9597">
        <ele>0.62</ele>
        <time>2018-04-16T10:55:01Z</time>
      </trkpt>
      <trkpt lat="38.41385" lon="14.95979">
        <ele>-0.34</ele>
        <time>2018-04-16T10:55:17Z</time>
      </trkpt>
      <trkpt lat="38.41384" lon="14.95986">
        <ele>-1.79</ele>
        <time>2018-04-16T10:55:23Z</time>
      </trkpt>
      <trkpt lat="38.41382" lon="14.96003">
        <ele>-1.3</ele>
        <time>2018-04-16T10:55:37Z</time>
      </trkpt>
      <trkpt lat="38.41392" lon="14.96015">
        <ele>-1.3</ele>
        <time>2018-04-16T10:55:51Z</time>
      </trkpt>
      <trkpt lat="38.41388" lon="14.96013">
        <ele>-1.79</ele>
        <time>2018-04-16T10:55:55Z</time>
      </trkpt>
      <trkpt lat="38.41384" lon="14.96004">
        <ele>-0.34</ele>
        <time>2018-04-16T10:56:07Z</time>
      </trkpt>
      <trkpt lat="38.41383" lon="14.95996">
        <ele>1.1</ele>
        <time>2018-04-16T10:56:15Z</time>
      </trkpt>
      <trkpt lat="38.41386" lon="14.95985">
        <ele>1.58</ele>
        <time>2018-04-16T10:56:31Z</time>
      </trkpt>
      <trkpt lat="38.41388" lon="14.95985">
        <ele>1.58</ele>
        <time>2018-04-16T10:56:33Z</time>
      </trkpt>
      <trkpt lat="38.41406" lon="14.95987">
        <ele>-0.82</ele>
        <time>2018-04-16T10:56:49Z</time>
      </trkpt>
      <trkpt lat="38.41419" lon="14.9599">
        <ele>-0.34</ele>
        <time>2018-04-16T10:57:02Z</time>
      </trkpt>
      <trkpt lat="38.4142" lon="14.9599">
        <ele>-0.34</ele>
        <time>2018-04-16T10:57:04Z</time>
      </trkpt>
      <trkpt lat="38.41429" lon="14.95982">
        <ele>0.14</ele>
        <time>2018-04-16T10:57:17Z</time>
      </trkpt>
      <trkpt lat="38.41438" lon="14.95968">
        <ele>2.06</ele>
        <time>2018-04-16T10:57:31Z</time>
      </trkpt>
      <trkpt lat="38.41443" lon="14.95957">
        <ele>3.02</ele>
        <time>2018-04-16T10:57:42Z</time>
      </trkpt>
      <trkpt lat="38.41443" lon="14.95957">
        <ele>3.02</ele>
        <time>2018-04-16T10:57:43Z</time>
      </trkpt>
      <trkpt lat="38.41445" lon="14.9595">
        <ele>2.54</ele>
        <time>2018-04-16T10:57:49Z</time>
      </trkpt>
      <trkpt lat="38.41449" lon="14.95941">
        <ele>2.54</ele>
        <time>2018-04-16T10:57:58Z</time>
      </trkpt>
      <trkpt lat="38.41456" lon="14.95927">
        <ele>3.5</ele>
        <time>2018-04-16T10:58:10Z</time>
      </trkpt>
      <trkpt lat="38.41457" lon="14.95926">
        <ele>3.5</ele>
        <time>2018-04-16T10:58:11Z</time>
      </trkpt>
      <trkpt lat="38.41463" lon="14.95912">
        <ele>4.46</ele>
        <time>2018-04-16T10:58:23Z</time>
      </trkpt>
      <trkpt lat="38.4147" lon="14.959">
        <ele>4.94</ele>
        <time>2018-04-16T10:58:36Z</time>
      </trkpt>
      <trkpt lat="38.41474" lon="14.95894">
        <ele>5.42</ele>
        <time>2018-04-16T10:58:42Z</time>
      </trkpt>
      <trkpt lat="38.41482" lon="14.95883">
        <ele>4.94</ele>
        <time>2018-04-16T10:58:55Z</time>
      </trkpt>
      <trkpt lat="38.41493" lon="14.9587">
        <ele>4.46</ele>
        <time>2018-04-16T10:59:10Z</time>
      </trkpt>
      <trkpt lat="38.41497" lon="14.95866">
        <ele>4.46</ele>
        <time>2018-04-16T10:59:16Z</time>
      </trkpt>
      <trkpt lat="38.41508" lon="14.9586">
        <ele>3.98</ele>
        <time>2018-04-16T10:59:28Z</time>
      </trkpt>
      <trkpt lat="38.41518" lon="14.95853">
        <ele>4.46</ele>
        <time>2018-04-16T10:59:41Z</time>
      </trkpt>
      <trkpt lat="38.41519" lon="14.95854">
        <ele>4.46</ele>
        <time>2018-04-16T10:59:43Z</time>
      </trkpt>
      <trkpt lat="38.41525" lon="14.95854">
        <ele>4.94</ele>
        <time>2018-04-16T10:59:48Z</time>
      </trkpt>
      <trkpt lat="38.41527" lon="14.95854">
        <ele>4.94</ele>
        <time>2018-04-16T10:59:50Z</time>
      </trkpt>
      <trkpt lat="38.41529" lon="14.95854">
        <ele>4.94</ele>
        <time>2018-04-16T10:59:52Z</time>
      </trkpt>
      <trkpt lat="38.41543" lon="14.95863">
        <ele>3.98</ele>
        <time>2018-04-16T11:00:07Z</time>
      </trkpt>
      <trkpt lat="38.41546" lon="14.95866">
        <ele>3.5</ele>
        <time>2018-04-16T11:00:11Z</time>
      </trkpt>
      <trkpt lat="38.41551" lon="14.95873">
        <ele>3.5</ele>
        <time>2018-04-16T11:00:18Z</time>
      </trkpt>
      <trkpt lat="38.41552" lon="14.95879">
        <ele>3.5</ele>
        <time>2018-04-16T11:00:23Z</time>
      </trkpt>
      <trkpt lat="38.41553" lon="14.95885">
        <ele>3.02</ele>
        <time>2018-04-16T11:00:27Z</time>
      </trkpt>
      <trkpt lat="38.41553" lon="14.95889">
        <ele>3.02</ele>
        <time>2018-04-16T11:00:30Z</time>
      </trkpt>
      <trkpt lat="38.41556" lon="14.95898">
        <ele>2.54</ele>
        <time>2018-04-16T11:00:38Z</time>
      </trkpt>
      <trkpt lat="38.4156" lon="14.95903">
        <ele>2.54</ele>
        <time>2018-04-16T11:00:50Z</time>
      </trkpt>
      <trkpt lat="38.41562" lon="14.95905">
        <ele>2.06</ele>
        <time>2018-04-16T11:01:02Z</time>
      </trkpt>
      <trkpt lat="38.41566" lon="14.95908">
        <ele>0.62</ele>
        <time>2018-04-16T11:01:30Z</time>
      </trkpt>
      <trkpt lat="38.41566" lon="14.95909">
        <ele>0.62</ele>
        <time>2018-04-16T11:01:37Z</time>
      </trkpt>
      <trkpt lat="38.41672" lon="14.96205">
        <ele>0.14</ele>
        <time>2018-04-16T14:46:11Z</time>
      </trkpt>
      <trkpt lat="38.41667" lon="14.96203">
        <ele>9.27</ele>
        <time>2018-04-16T14:46:31Z</time>
      </trkpt>
      <trkpt lat="38.41673" lon="14.96205">
        <ele>4.46</ele>
        <time>2018-04-16T14:46:51Z</time>
      </trkpt>
      <trkpt lat="38.4168" lon="14.96206">
        <ele>3.5</ele>
        <time>2018-04-16T14:47:21Z</time>
      </trkpt>
      <trkpt lat="38.41673" lon="14.96201">
        <ele>2.06</ele>
        <time>2018-04-16T14:47:46Z</time>
      </trkpt>
      <trkpt lat="38.41671" lon="14.96186">
        <ele>3.02</ele>
        <time>2018-04-16T14:48:13Z</time>
      </trkpt>
      <trkpt lat="38.4167" lon="14.96177">
        <ele>3.02</ele>
        <time>2018-04-16T14:48:48Z</time>
      </trkpt>
      <trkpt lat="38.41669" lon="14.96174">
        <ele>3.02</ele>
        <time>2018-04-16T14:49:18Z</time>
      </trkpt>
      <trkpt lat="38.41671" lon="14.96181">
        <ele>2.54</ele>
        <time>2018-04-16T14:49:44Z</time>
      </trkpt>
      <trkpt lat="38.41688" lon="14.96196">
        <ele>2.06</ele>
        <time>2018-04-16T14:50:19Z</time>
      </trkpt>
      <trkpt lat="38.41692" lon="14.962">
        <ele>2.06</ele>
        <time>2018-04-16T14:50:24Z</time>
      </trkpt>
      <trkpt lat="38.41715" lon="14.96243">
        <ele>3.5</ele>
        <time>2018-04-16T14:50:56Z</time>
      </trkpt>
      <trkpt lat="38.41736" lon="14.96287">
        <ele>3.02</ele>
        <time>2018-04-16T14:51:21Z</time>
      </trkpt>
      <trkpt lat="38.41759" lon="14.96337">
        <ele>3.02</ele>
        <time>2018-04-16T14:51:41Z</time>
      </trkpt>
      <trkpt lat="38.41781" lon="14.96398">
        <ele>2.54</ele>
        <time>2018-04-16T14:52:04Z</time>
      </trkpt>
      <trkpt lat="38.41816" lon="14.96478">
        <ele>3.02</ele>
        <time>2018-04-16T14:52:35Z</time>
      </trkpt>
      <trkpt lat="38.4185" lon="14.96532">
        <ele>3.02</ele>
        <time>2018-04-16T14:52:58Z</time>
      </trkpt>
      <trkpt lat="38.41886" lon="14.96588">
        <ele>3.02</ele>
        <time>2018-04-16T14:53:22Z</time>
      </trkpt>
      <trkpt lat="38.41927" lon="14.96652">
        <ele>2.54</ele>
        <time>2018-04-16T14:53:50Z</time>
      </trkpt>
      <trkpt lat="38.41956" lon="14.96708">
        <ele>1.58</ele>
        <time>2018-04-16T14:54:13Z</time>
      </trkpt>
      <trkpt lat="38.41989" lon="14.96765">
        <ele>1.58</ele>
        <time>2018-04-16T14:54:37Z</time>
      </trkpt>
      <trkpt lat="38.42016" lon="14.96804">
        <ele>1.58</ele>
        <time>2018-04-16T14:54:54Z</time>
      </trkpt>
      <trkpt lat="38.42048" lon="14.96845">
        <ele>1.1</ele>
        <time>2018-04-16T14:55:14Z</time>
      </trkpt>
      <trkpt lat="38.42102" lon="14.96894">
        <ele>0.62</ele>
        <time>2018-04-16T14:55:43Z</time>
      </trkpt>
      <trkpt lat="38.42142" lon="14.96921">
        <ele>0.62</ele>
        <time>2018-04-16T14:56:04Z</time>
      </trkpt>
      <trkpt lat="38.42181" lon="14.96947">
        <ele>1.1</ele>
        <time>2018-04-16T14:56:25Z</time>
      </trkpt>
      <trkpt lat="38.42224" lon="14.96982">
        <ele>0.14</ele>
        <time>2018-04-16T14:56:49Z</time>
      </trkpt>
      <trkpt lat="38.42272" lon="14.97016">
        <ele>0.14</ele>
        <time>2018-04-16T14:57:15Z</time>
      </trkpt>
      <trkpt lat="38.42293" lon="14.97032">
        <ele>0.62</ele>
        <time>2018-04-16T14:57:26Z</time>
      </trkpt>
      <trkpt lat="38.42335" lon="14.97057">
        <ele>1.58</ele>
        <time>2018-04-16T14:57:46Z</time>
      </trkpt>
      <trkpt lat="38.42392" lon="14.97097">
        <ele>1.58</ele>
        <time>2018-04-16T14:58:10Z</time>
      </trkpt>
      <trkpt lat="38.42458" lon="14.9714">
        <ele>1.58</ele>
        <time>2018-04-16T14:58:37Z</time>
      </trkpt>
      <trkpt lat="38.42513" lon="14.97177">
        <ele>3.02</ele>
        <time>2018-04-16T14:59:00Z</time>
      </trkpt>
      <trkpt lat="38.42576" lon="14.97218">
        <ele>2.54</ele>
        <time>2018-04-16T14:59:26Z</time>
      </trkpt>
      <trkpt lat="38.42633" lon="14.97252">
        <ele>3.02</ele>
        <time>2018-04-16T14:59:49Z</time>
      </trkpt>
      <trkpt lat="38.42687" lon="14.97286">
        <ele>2.06</ele>
        <time>2018-04-16T15:00:11Z</time>
      </trkpt>
      <trkpt lat="38.42738" lon="14.97315">
        <ele>1.1</ele>
        <time>2018-04-16T15:00:31Z</time>
      </trkpt>
      <trkpt lat="38.42788" lon="14.97351">
        <ele>0.62</ele>
        <time>2018-04-16T15:00:52Z</time>
      </trkpt>
      <trkpt lat="38.4284" lon="14.97397">
        <ele>0.14</ele>
        <time>2018-04-16T15:01:15Z</time>
      </trkpt>
      <trkpt lat="38.42889" lon="14.97446">
        <ele>1.1</ele>
        <time>2018-04-16T15:01:38Z</time>
      </trkpt>
      <trkpt lat="38.42934" lon="14.97474">
        <ele>1.58</ele>
        <time>2018-04-16T15:01:56Z</time>
      </trkpt>
      <trkpt lat="38.42975" lon="14.97495">
        <ele>0.62</ele>
        <time>2018-04-16T15:02:12Z</time>
      </trkpt>
      <trkpt lat="38.43014" lon="14.9752">
        <ele>0.62</ele>
        <time>2018-04-16T15:02:28Z</time>
      </trkpt>
      <trkpt lat="38.43061" lon="14.97548">
        <ele>0.62</ele>
        <time>2018-04-16T15:02:47Z</time>
      </trkpt>
      <trkpt lat="38.43102" lon="14.97563">
        <ele>1.58</ele>
        <time>2018-04-16T15:03:03Z</time>
      </trkpt>
      <trkpt lat="38.43149" lon="14.97588">
        <ele>2.06</ele>
        <time>2018-04-16T15:03:22Z</time>
      </trkpt>
      <trkpt lat="38.43185" lon="14.97603">
        <ele>2.06</ele>
        <time>2018-04-16T15:03:36Z</time>
      </trkpt>
      <trkpt lat="38.43227" lon="14.97611">
        <ele>2.54</ele>
        <time>2018-04-16T15:03:52Z</time>
      </trkpt>
      <trkpt lat="38.43275" lon="14.97623">
        <ele>2.06</ele>
        <time>2018-04-16T15:04:10Z</time>
      </trkpt>
      <trkpt lat="38.43317" lon="14.97665">
        <ele>1.58</ele>
        <time>2018-04-16T15:04:29Z</time>
      </trkpt>
      <trkpt lat="38.43358" lon="14.97697">
        <ele>1.58</ele>
        <time>2018-04-16T15:04:46Z</time>
      </trkpt>
      <trkpt lat="38.43405" lon="14.97717">
        <ele>2.06</ele>
        <time>2018-04-16T15:05:04Z</time>
      </trkpt>
      <trkpt lat="38.43436" lon="14.97725">
        <ele>2.06</ele>
        <time>2018-04-16T15:05:16Z</time>
      </trkpt>
      <trkpt lat="38.43476" lon="14.97725">
        <ele>2.54</ele>
        <time>2018-04-16T15:05:31Z</time>
      </trkpt>
      <trkpt lat="38.43511" lon="14.97727">
        <ele>2.06</ele>
        <time>2018-04-16T15:05:44Z</time>
      </trkpt>
      <trkpt lat="38.43541" lon="14.97736">
        <ele>2.06</ele>
        <time>2018-04-16T15:05:55Z</time>
      </trkpt>
      <trkpt lat="38.43569" lon="14.97742">
        <ele>2.54</ele>
        <time>2018-04-16T15:06:06Z</time>
      </trkpt>
      <trkpt lat="38.43604" lon="14.97752">
        <ele>3.02</ele>
        <time>2018-04-16T15:06:19Z</time>
      </trkpt>
      <trkpt lat="38.43644" lon="14.97763">
        <ele>2.06</ele>
        <time>2018-04-16T15:06:34Z</time>
      </trkpt>
      <trkpt lat="38.43675" lon="14.97769">
        <ele>3.02</ele>
        <time>2018-04-16T15:06:46Z</time>
      </trkpt>
      <trkpt lat="38.43709" lon="14.97784">
        <ele>2.54</ele>
        <time>2018-04-16T15:06:59Z</time>
      </trkpt>
      <trkpt lat="38.43746" lon="14.97808">
        <ele>2.06</ele>
        <time>2018-04-16T15:07:14Z</time>
      </trkpt>
      <trkpt lat="38.4378" lon="14.97842">
        <ele>1.58</ele>
        <time>2018-04-16T15:07:29Z</time>
      </trkpt>
      <trkpt lat="38.43816" lon="14.97887">
        <ele>1.58</ele>
        <time>2018-04-16T15:07:46Z</time>
      </trkpt>
      <trkpt lat="38.43856" lon="14.9793">
        <ele>1.1</ele>
        <time>2018-04-16T15:08:04Z</time>
      </trkpt>
      <trkpt lat="38.43894" lon="14.97961">
        <ele>1.1</ele>
        <time>2018-04-16T15:08:20Z</time>
      </trkpt>
      <trkpt lat="38.43935" lon="14.97997">
        <ele>1.58</ele>
        <time>2018-04-16T15:08:38Z</time>
      </trkpt>
      <trkpt lat="38.43958" lon="14.97997">
        <ele>2.06</ele>
        <time>2018-04-16T15:08:51Z</time>
      </trkpt>
      <trkpt lat="38.43959" lon="14.97973">
        <ele>2.06</ele>
        <time>2018-04-16T15:09:08Z</time>
      </trkpt>
      <trkpt lat="38.43951" lon="14.97958">
        <ele>3.02</ele>
        <time>2018-04-16T15:09:26Z</time>
      </trkpt>
      <trkpt lat="38.43947" lon="14.97947">
        <ele>3.98</ele>
        <time>2018-04-16T15:09:41Z</time>
      </trkpt>
      <trkpt lat="38.43946" lon="14.97933">
        <ele>3.02</ele>
        <time>2018-04-16T15:09:58Z</time>
      </trkpt>
      <trkpt lat="38.43946" lon="14.97918">
        <ele>2.54</ele>
        <time>2018-04-16T15:10:17Z</time>
      </trkpt>
      <trkpt lat="38.4394" lon="14.97907">
        <ele>3.02</ele>
        <time>2018-04-16T15:10:36Z</time>
      </trkpt>
      <trkpt lat="38.43937" lon="14.97896">
        <ele>3.02</ele>
        <time>2018-04-16T15:10:56Z</time>
      </trkpt>
      <trkpt lat="38.43937" lon="14.97883">
        <ele>2.54</ele>
        <time>2018-04-16T15:11:19Z</time>
      </trkpt>
      <trkpt lat="38.43939" lon="14.97878">
        <ele>3.02</ele>
        <time>2018-04-16T15:11:25Z</time>
      </trkpt>
      <trkpt lat="38.43948" lon="14.97866">
        <ele>3.5</ele>
        <time>2018-04-16T15:11:34Z</time>
      </trkpt>
      <trkpt lat="38.43954" lon="14.97837">
        <ele>4.94</ele>
        <time>2018-04-16T15:11:50Z</time>
      </trkpt>
      <trkpt lat="38.43952" lon="14.97817">
        <ele>4.46</ele>
        <time>2018-04-16T15:12:06Z</time>
      </trkpt>
      <trkpt lat="38.43951" lon="14.97801">
        <ele>4.46</ele>
        <time>2018-04-16T15:12:26Z</time>
      </trkpt>
      <trkpt lat="38.4395" lon="14.97789">
        <ele>3.98</ele>
        <time>2018-04-16T15:12:44Z</time>
      </trkpt>
      <trkpt lat="38.43949" lon="14.97777">
        <ele>3.02</ele>
        <time>2018-04-16T15:13:04Z</time>
      </trkpt>
      <trkpt lat="38.43949" lon="14.97773">
        <ele>3.02</ele>
        <time>2018-04-16T15:13:09Z</time>
      </trkpt>
      <trkpt lat="38.4395" lon="14.9777">
        <ele>3.02</ele>
        <time>2018-04-16T15:13:11Z</time>
      </trkpt>
      <trkpt lat="38.43956" lon="14.97764">
        <ele>3.02</ele>
        <time>2018-04-16T15:13:16Z</time>
      </trkpt>
      <trkpt lat="38.43984" lon="14.97778">
        <ele>3.02</ele>
        <time>2018-04-16T15:13:30Z</time>
      </trkpt>
      <trkpt lat="38.44078" lon="14.97826">
        <ele>3.5</ele>
        <time>2018-04-16T15:14:09Z</time>
      </trkpt>
      <trkpt lat="38.44115" lon="14.97837">
        <ele>3.98</ele>
        <time>2018-04-16T15:14:23Z</time>
      </trkpt>
      <trkpt lat="38.44158" lon="14.97849">
        <ele>4.46</ele>
        <time>2018-04-16T15:14:39Z</time>
      </trkpt>
      <trkpt lat="38.44207" lon="14.97868">
        <ele>3.98</ele>
        <time>2018-04-16T15:14:58Z</time>
      </trkpt>
      <trkpt lat="38.4425" lon="14.97894">
        <ele>3.5</ele>
        <time>2018-04-16T15:15:16Z</time>
      </trkpt>
      <trkpt lat="38.44289" lon="14.97909">
        <ele>2.54</ele>
        <time>2018-04-16T15:15:31Z</time>
      </trkpt>
      <trkpt lat="38.44336" lon="14.9792">
        <ele>3.5</ele>
        <time>2018-04-16T15:15:49Z</time>
      </trkpt>
      <trkpt lat="38.44376" lon="14.9793">
        <ele>3.5</ele>
        <time>2018-04-16T15:16:04Z</time>
      </trkpt>
      <trkpt lat="38.44418" lon="14.97951">
        <ele>3.02</ele>
        <time>2018-04-16T15:16:21Z</time>
      </trkpt>
      <trkpt lat="38.44455" lon="14.97964">
        <ele>3.02</ele>
        <time>2018-04-16T15:16:35Z</time>
      </trkpt>
      <trkpt lat="38.44504" lon="14.9799">
        <ele>3.02</ele>
        <time>2018-04-16T15:16:55Z</time>
      </trkpt>
      <trkpt lat="38.44545" lon="14.98004">
        <ele>3.02</ele>
        <time>2018-04-16T15:17:11Z</time>
      </trkpt>
      <trkpt lat="38.44588" lon="14.98021">
        <ele>3.5</ele>
        <time>2018-04-16T15:17:28Z</time>
      </trkpt>
      <trkpt lat="38.44632" lon="14.98035">
        <ele>3.5</ele>
        <time>2018-04-16T15:17:44Z</time>
      </trkpt>
      <trkpt lat="38.44681" lon="14.98051">
        <ele>3.5</ele>
        <time>2018-04-16T15:18:01Z</time>
      </trkpt>
      <trkpt lat="38.44737" lon="14.98069">
        <ele>3.98</ele>
        <time>2018-04-16T15:18:19Z</time>
      </trkpt>
      <trkpt lat="38.44787" lon="14.98071">
        <ele>3.98</ele>
        <time>2018-04-16T15:18:34Z</time>
      </trkpt>
      <trkpt lat="38.44843" lon="14.98074">
        <ele>3.98</ele>
        <time>2018-04-16T15:18:50Z</time>
      </trkpt>
      <trkpt lat="38.44899" lon="14.98079">
        <ele>3.98</ele>
        <time>2018-04-16T15:19:05Z</time>
      </trkpt>
      <trkpt lat="38.44965" lon="14.98097">
        <ele>3.98</ele>
        <time>2018-04-16T15:19:23Z</time>
      </trkpt>
      <trkpt lat="38.45018" lon="14.98106">
        <ele>4.46</ele>
        <time>2018-04-16T15:19:38Z</time>
      </trkpt>
      <trkpt lat="38.45068" lon="14.98109">
        <ele>4.46</ele>
        <time>2018-04-16T15:19:52Z</time>
      </trkpt>
      <trkpt lat="38.45133" lon="14.98123">
        <ele>3.5</ele>
        <time>2018-04-16T15:20:10Z</time>
      </trkpt>
      <trkpt lat="38.4519" lon="14.9814">
        <ele>3.5</ele>
        <time>2018-04-16T15:20:26Z</time>
      </trkpt>
      <trkpt lat="38.45254" lon="14.9815">
        <ele>3.02</ele>
        <time>2018-04-16T15:20:43Z</time>
      </trkpt>
      <trkpt lat="38.45319" lon="14.98159">
        <ele>3.5</ele>
        <time>2018-04-16T15:21:01Z</time>
      </trkpt>
      <trkpt lat="38.45374" lon="14.98168">
        <ele>3.02</ele>
        <time>2018-04-16T15:21:16Z</time>
      </trkpt>
      <trkpt lat="38.45439" lon="14.98179">
        <ele>3.5</ele>
        <time>2018-04-16T15:21:33Z</time>
      </trkpt>
      <trkpt lat="38.45491" lon="14.98193">
        <ele>2.54</ele>
        <time>2018-04-16T15:21:46Z</time>
      </trkpt>
      <trkpt lat="38.45547" lon="14.98201">
        <ele>2.54</ele>
        <time>2018-04-16T15:22:01Z</time>
      </trkpt>
      <trkpt lat="38.45599" lon="14.98211">
        <ele>3.5</ele>
        <time>2018-04-16T15:22:16Z</time>
      </trkpt>
      <trkpt lat="38.45645" lon="14.98215">
        <ele>3.98</ele>
        <time>2018-04-16T15:22:28Z</time>
      </trkpt>
      <trkpt lat="38.45707" lon="14.98226">
        <ele>3.98</ele>
        <time>2018-04-16T15:22:45Z</time>
      </trkpt>
      <trkpt lat="38.45764" lon="14.98235">
        <ele>3.98</ele>
        <time>2018-04-16T15:23:00Z</time>
      </trkpt>
      <trkpt lat="38.45824" lon="14.9825">
        <ele>3.5</ele>
        <time>2018-04-16T15:23:17Z</time>
      </trkpt>
      <trkpt lat="38.45875" lon="14.9826">
        <ele>3.5</ele>
        <time>2018-04-16T15:23:31Z</time>
      </trkpt>
      <trkpt lat="38.45944" lon="14.98286">
        <ele>4.46</ele>
        <time>2018-04-16T15:23:51Z</time>
      </trkpt>
      <trkpt lat="38.46002" lon="14.98312">
        <ele>2.54</ele>
        <time>2018-04-16T15:24:09Z</time>
      </trkpt>
      <trkpt lat="38.46058" lon="14.98326">
        <ele>5.42</ele>
        <time>2018-04-16T15:24:26Z</time>
      </trkpt>
      <trkpt lat="38.46102" lon="14.9833">
        <ele>6.39</ele>
        <time>2018-04-16T15:24:38Z</time>
      </trkpt>
      <trkpt lat="38.46178" lon="14.98337">
        <ele>6.39</ele>
        <time>2018-04-16T15:24:58Z</time>
      </trkpt>
      <trkpt lat="38.46235" lon="14.9834">
        <ele>5.91</ele>
        <time>2018-04-16T15:25:13Z</time>
      </trkpt>
      <trkpt lat="38.46295" lon="14.98343">
        <ele>5.42</ele>
        <time>2018-04-16T15:25:29Z</time>
      </trkpt>
      <trkpt lat="38.46351" lon="14.98341">
        <ele>5.91</ele>
        <time>2018-04-16T15:25:44Z</time>
      </trkpt>
      <trkpt lat="38.4642" lon="14.98347">
        <ele>5.42</ele>
        <time>2018-04-16T15:26:02Z</time>
      </trkpt>
      <trkpt lat="38.4648" lon="14.98349">
        <ele>5.91</ele>
        <time>2018-04-16T15:26:17Z</time>
      </trkpt>
      <trkpt lat="38.46507" lon="14.98352">
        <ele>6.39</ele>
        <time>2018-04-16T15:26:24Z</time>
      </trkpt>
      <trkpt lat="38.46538" lon="14.98352">
        <ele>6.39</ele>
        <time>2018-04-16T15:26:32Z</time>
      </trkpt>
      <trkpt lat="38.4661" lon="14.98351">
        <ele>6.39</ele>
        <time>2018-04-16T15:26:50Z</time>
      </trkpt>
      <trkpt lat="38.4667" lon="14.9836">
        <ele>5.91</ele>
        <time>2018-04-16T15:27:05Z</time>
      </trkpt>
      <trkpt lat="38.46731" lon="14.98373">
        <ele>4.94</ele>
        <time>2018-04-16T15:27:21Z</time>
      </trkpt>
      <trkpt lat="38.46786" lon="14.98389">
        <ele>4.94</ele>
        <time>2018-04-16T15:27:36Z</time>
      </trkpt>
      <trkpt lat="38.46837" lon="14.98402">
        <ele>4.94</ele>
        <time>2018-04-16T15:27:50Z</time>
      </trkpt>
      <trkpt lat="38.469" lon="14.98412">
        <ele>4.94</ele>
        <time>2018-04-16T15:28:07Z</time>
      </trkpt>
      <trkpt lat="38.46946" lon="14.98419">
        <ele>5.42</ele>
        <time>2018-04-16T15:28:19Z</time>
      </trkpt>
      <trkpt lat="38.46961" lon="14.98423">
        <ele>5.42</ele>
        <time>2018-04-16T15:28:23Z</time>
      </trkpt>
      <trkpt lat="38.47025" lon="14.98426">
        <ele>5.42</ele>
        <time>2018-04-16T15:28:39Z</time>
      </trkpt>
      <trkpt lat="38.47081" lon="14.98438">
        <ele>5.42</ele>
        <time>2018-04-16T15:28:54Z</time>
      </trkpt>
      <trkpt lat="38.47138" lon="14.98451">
        <ele>4.94</ele>
        <time>2018-04-16T15:29:09Z</time>
      </trkpt>
      <trkpt lat="38.47199" lon="14.98459">
        <ele>5.42</ele>
        <time>2018-04-16T15:29:25Z</time>
      </trkpt>
      <trkpt lat="38.47269" lon="14.98476">
        <ele>5.42</ele>
        <time>2018-04-16T15:29:44Z</time>
      </trkpt>
      <trkpt lat="38.47333" lon="14.98493">
        <ele>4.94</ele>
        <time>2018-04-16T15:30:02Z</time>
      </trkpt>
      <trkpt lat="38.47398" lon="14.98506">
        <ele>4.94</ele>
        <time>2018-04-16T15:30:20Z</time>
      </trkpt>
      <trkpt lat="38.47453" lon="14.98509">
        <ele>4.94</ele>
        <time>2018-04-16T15:30:34Z</time>
      </trkpt>
      <trkpt lat="38.47502" lon="14.98514">
        <ele>4.94</ele>
        <time>2018-04-16T15:30:46Z</time>
      </trkpt>
      <trkpt lat="38.4755" lon="14.9851">
        <ele>4.94</ele>
        <time>2018-04-16T15:30:58Z</time>
      </trkpt>
      <trkpt lat="38.47619" lon="14.98534">
        <ele>5.42</ele>
        <time>2018-04-16T15:31:16Z</time>
      </trkpt>
      <trkpt lat="38.47679" lon="14.98565">
        <ele>4.46</ele>
        <time>2018-04-16T15:31:33Z</time>
      </trkpt>
      <trkpt lat="38.47738" lon="14.98588">
        <ele>4.94</ele>
        <time>2018-04-16T15:31:49Z</time>
      </trkpt>
      <trkpt lat="38.47806" lon="14.98598">
        <ele>5.42</ele>
        <time>2018-04-16T15:32:07Z</time>
      </trkpt>
      <trkpt lat="38.47869" lon="14.98606">
        <ele>4.94</ele>
        <time>2018-04-16T15:32:24Z</time>
      </trkpt>
      <trkpt lat="38.4793" lon="14.98609">
        <ele>4.46</ele>
        <time>2018-04-16T15:32:41Z</time>
      </trkpt>
      <trkpt lat="38.47987" lon="14.98607">
        <ele>4.94</ele>
        <time>2018-04-16T15:32:56Z</time>
      </trkpt>
      <trkpt lat="38.48044" lon="14.98613">
        <ele>3.98</ele>
        <time>2018-04-16T15:33:12Z</time>
      </trkpt>
      <trkpt lat="38.48105" lon="14.98619">
        <ele>3.5</ele>
        <time>2018-04-16T15:33:30Z</time>
      </trkpt>
      <trkpt lat="38.48154" lon="14.98614">
        <ele>3.02</ele>
        <time>2018-04-16T15:33:45Z</time>
      </trkpt>
      <trkpt lat="38.48203" lon="14.98611">
        <ele>3.02</ele>
        <time>2018-04-16T15:34:01Z</time>
      </trkpt>
      <trkpt lat="38.48256" lon="14.98603">
        <ele>2.54</ele>
        <time>2018-04-16T15:34:19Z</time>
      </trkpt>
      <trkpt lat="38.48307" lon="14.98607">
        <ele>2.54</ele>
        <time>2018-04-16T15:34:39Z</time>
      </trkpt>
      <trkpt lat="38.48331" lon="14.98607">
        <ele>3.5</ele>
        <time>2018-04-16T15:34:55Z</time>
      </trkpt>
      <trkpt lat="38.4835" lon="14.98605">
        <ele>4.46</ele>
        <time>2018-04-16T15:35:14Z</time>
      </trkpt>
      <trkpt lat="38.4837" lon="14.98602">
        <ele>4.46</ele>
        <time>2018-04-16T15:35:36Z</time>
      </trkpt>
      <trkpt lat="38.48383" lon="14.986">
        <ele>3.5</ele>
        <time>2018-04-16T15:35:54Z</time>
      </trkpt>
      <trkpt lat="38.48396" lon="14.98601">
        <ele>3.5</ele>
        <time>2018-04-16T15:36:19Z</time>
      </trkpt>
      <trkpt lat="38.48406" lon="14.98603">
        <ele>3.02</ele>
        <time>2018-04-16T15:36:41Z</time>
      </trkpt>
      <trkpt lat="38.48417" lon="14.98608">
        <ele>2.06</ele>
        <time>2018-04-16T15:37:07Z</time>
      </trkpt>
      <trkpt lat="38.48429" lon="14.98613">
        <ele>2.06</ele>
        <time>2018-04-16T15:37:28Z</time>
      </trkpt>
      <trkpt lat="38.48442" lon="14.98618">
        <ele>3.02</ele>
        <time>2018-04-16T15:37:49Z</time>
      </trkpt>
      <trkpt lat="38.48454" lon="14.98623">
        <ele>3.02</ele>
        <time>2018-04-16T15:38:11Z</time>
      </trkpt>
      <trkpt lat="38.48465" lon="14.98629">
        <ele>3.02</ele>
        <time>2018-04-16T15:38:35Z</time>
      </trkpt>
      <trkpt lat="38.48474" lon="14.98629">
        <ele>3.5</ele>
        <time>2018-04-16T15:38:55Z</time>
      </trkpt>
      <trkpt lat="38.4848" lon="14.98628">
        <ele>3.5</ele>
        <time>2018-04-16T15:39:14Z</time>
      </trkpt>
      <trkpt lat="38.48483" lon="14.98629">
        <ele>3.02</ele>
        <time>2018-04-16T15:39:36Z</time>
      </trkpt>
      <trkpt lat="38.48487" lon="14.98633">
        <ele>3.5</ele>
        <time>2018-04-16T15:39:55Z</time>
      </trkpt>
      <trkpt lat="38.48496" lon="14.98638">
        <ele>2.54</ele>
        <time>2018-04-16T15:40:13Z</time>
      </trkpt>
      <trkpt lat="38.48503" lon="14.98643">
        <ele>2.54</ele>
        <time>2018-04-16T15:40:24Z</time>
      </trkpt>
      <trkpt lat="38.48529" lon="14.98652">
        <ele>2.54</ele>
        <time>2018-04-16T15:40:42Z</time>
      </trkpt>
      <trkpt lat="38.48561" lon="14.98649">
        <ele>3.02</ele>
        <time>2018-04-16T15:41:04Z</time>
      </trkpt>
      <trkpt lat="38.48584" lon="14.98644">
        <ele>3.5</ele>
        <time>2018-04-16T15:41:24Z</time>
      </trkpt>
      <trkpt lat="38.48606" lon="14.98639">
        <ele>3.5</ele>
        <time>2018-04-16T15:41:43Z</time>
      </trkpt>
      <trkpt lat="38.4864" lon="14.98623">
        <ele>3.02</ele>
        <time>2018-04-16T15:42:02Z</time>
      </trkpt>
      <trkpt lat="38.48674" lon="14.98602">
        <ele>3.5</ele>
        <time>2018-04-16T15:42:23Z</time>
      </trkpt>
      <trkpt lat="38.48705" lon="14.98588">
        <ele>3.5</ele>
        <time>2018-04-16T15:42:43Z</time>
      </trkpt>
      <trkpt lat="38.48739" lon="14.98569">
        <ele>3.02</ele>
        <time>2018-04-16T15:43:02Z</time>
      </trkpt>
      <trkpt lat="38.48775" lon="14.98549">
        <ele>3.02</ele>
        <time>2018-04-16T15:43:21Z</time>
      </trkpt>
      <trkpt lat="38.48814" lon="14.98528">
        <ele>3.98</ele>
        <time>2018-04-16T15:43:42Z</time>
      </trkpt>
      <trkpt lat="38.48859" lon="14.98509">
        <ele>4.94</ele>
        <time>2018-04-16T15:44:05Z</time>
      </trkpt>
      <trkpt lat="38.48902" lon="14.98494">
        <ele>3.5</ele>
        <time>2018-04-16T15:44:26Z</time>
      </trkpt>
      <trkpt lat="38.48949" lon="14.98476">
        <ele>3.5</ele>
        <time>2018-04-16T15:44:47Z</time>
      </trkpt>
      <trkpt lat="38.49007" lon="14.98454">
        <ele>3.98</ele>
        <time>2018-04-16T15:45:10Z</time>
      </trkpt>
      <trkpt lat="38.49059" lon="14.98431">
        <ele>3.98</ele>
        <time>2018-04-16T15:45:32Z</time>
      </trkpt>
      <trkpt lat="38.49108" lon="14.98406">
        <ele>4.94</ele>
        <time>2018-04-16T15:45:57Z</time>
      </trkpt>
      <trkpt lat="38.49151" lon="14.9839">
        <ele>4.94</ele>
        <time>2018-04-16T15:46:20Z</time>
      </trkpt>
      <trkpt lat="38.49205" lon="14.98367">
        <ele>4.46</ele>
        <time>2018-04-16T15:46:44Z</time>
      </trkpt>
      <trkpt lat="38.4927" lon="14.98333">
        <ele>3.98</ele>
        <time>2018-04-16T15:47:07Z</time>
      </trkpt>
      <trkpt lat="38.49332" lon="14.98303">
        <ele>4.46</ele>
        <time>2018-04-16T15:47:26Z</time>
      </trkpt>
      <trkpt lat="38.49382" lon="14.9827">
        <ele>3.02</ele>
        <time>2018-04-16T15:47:42Z</time>
      </trkpt>
      <trkpt lat="38.49426" lon="14.98243">
        <ele>3.5</ele>
        <time>2018-04-16T15:47:56Z</time>
      </trkpt>
      <trkpt lat="38.49476" lon="14.98216">
        <ele>3.98</ele>
        <time>2018-04-16T15:48:11Z</time>
      </trkpt>
      <trkpt lat="38.49533" lon="14.9819">
        <ele>4.94</ele>
        <time>2018-04-16T15:48:28Z</time>
      </trkpt>
      <trkpt lat="38.49596" lon="14.98162">
        <ele>4.46</ele>
        <time>2018-04-16T15:48:47Z</time>
      </trkpt>
      <trkpt lat="38.49645" lon="14.98139">
        <ele>5.42</ele>
        <time>2018-04-16T15:49:02Z</time>
      </trkpt>
      <trkpt lat="38.49686" lon="14.9812">
        <ele>4.94</ele>
        <time>2018-04-16T15:49:15Z</time>
      </trkpt>
      <trkpt lat="38.49749" lon="14.98098">
        <ele>4.46</ele>
        <time>2018-04-16T15:49:35Z</time>
      </trkpt>
      <trkpt lat="38.49806" lon="14.98072">
        <ele>5.42</ele>
        <time>2018-04-16T15:49:53Z</time>
      </trkpt>
      <trkpt lat="38.4985" lon="14.9805">
        <ele>5.42</ele>
        <time>2018-04-16T15:50:07Z</time>
      </trkpt>
      <trkpt lat="38.49895" lon="14.98031">
        <ele>4.94</ele>
        <time>2018-04-16T15:50:21Z</time>
      </trkpt>
      <trkpt lat="38.4994" lon="14.98021">
        <ele>4.46</ele>
        <time>2018-04-16T15:50:39Z</time>
      </trkpt>
      <trkpt lat="38.49991" lon="14.98009">
        <ele>4.46</ele>
        <time>2018-04-16T15:50:59Z</time>
      </trkpt>
      <trkpt lat="38.50035" lon="14.97997">
        <ele>4.46</ele>
        <time>2018-04-16T15:51:17Z</time>
      </trkpt>
      <trkpt lat="38.50077" lon="14.97986">
        <ele>4.94</ele>
        <time>2018-04-16T15:51:35Z</time>
      </trkpt>
      <trkpt lat="38.50127" lon="14.97968">
        <ele>3.98</ele>
        <time>2018-04-16T15:51:58Z</time>
      </trkpt>
      <trkpt lat="38.50163" lon="14.97955">
        <ele>3.5</ele>
        <time>2018-04-16T15:52:20Z</time>
      </trkpt>
      <trkpt lat="38.50199" lon="14.97945">
        <ele>3.5</ele>
        <time>2018-04-16T15:52:43Z</time>
      </trkpt>
      <trkpt lat="38.50224" lon="14.97938">
        <ele>3.5</ele>
        <time>2018-04-16T15:53:04Z</time>
      </trkpt>
      <trkpt lat="38.50244" lon="14.97933">
        <ele>3.98</ele>
        <time>2018-04-16T15:53:26Z</time>
      </trkpt>
      <trkpt lat="38.50275" lon="14.9793">
        <ele>3.5</ele>
        <time>2018-04-16T15:53:47Z</time>
      </trkpt>
      <trkpt lat="38.50316" lon="14.97912">
        <ele>3.5</ele>
        <time>2018-04-16T15:54:07Z</time>
      </trkpt>
      <trkpt lat="38.50373" lon="14.97862">
        <ele>3.98</ele>
        <time>2018-04-16T15:54:32Z</time>
      </trkpt>
      <trkpt lat="38.50428" lon="14.97815">
        <ele>3.02</ele>
        <time>2018-04-16T15:54:55Z</time>
      </trkpt>
      <trkpt lat="38.50485" lon="14.97776">
        <ele>3.5</ele>
        <time>2018-04-16T15:55:17Z</time>
      </trkpt>
      <trkpt lat="38.50551" lon="14.97725">
        <ele>3.5</ele>
        <time>2018-04-16T15:55:43Z</time>
      </trkpt>
      <trkpt lat="38.50604" lon="14.97685">
        <ele>3.5</ele>
        <time>2018-04-16T15:56:03Z</time>
      </trkpt>
      <trkpt lat="38.50664" lon="14.97652">
        <ele>3.98</ele>
        <time>2018-04-16T15:56:24Z</time>
      </trkpt>
      <trkpt lat="38.50727" lon="14.97614">
        <ele>4.46</ele>
        <time>2018-04-16T15:56:45Z</time>
      </trkpt>
      <trkpt lat="38.50784" lon="14.97579">
        <ele>4.46</ele>
        <time>2018-04-16T15:57:04Z</time>
      </trkpt>
      <trkpt lat="38.50835" lon="14.97549">
        <ele>3.5</ele>
        <time>2018-04-16T15:57:21Z</time>
      </trkpt>
      <trkpt lat="38.50905" lon="14.97509">
        <ele>3.98</ele>
        <time>2018-04-16T15:57:44Z</time>
      </trkpt>
      <trkpt lat="38.50967" lon="14.97462">
        <ele>3.02</ele>
        <time>2018-04-16T15:58:06Z</time>
      </trkpt>
      <trkpt lat="38.51008" lon="14.97436">
        <ele>2.54</ele>
        <time>2018-04-16T15:58:20Z</time>
      </trkpt>
      <trkpt lat="38.51053" lon="14.97417">
        <ele>3.02</ele>
        <time>2018-04-16T15:58:34Z</time>
      </trkpt>
      <trkpt lat="38.51096" lon="14.974">
        <ele>3.98</ele>
        <time>2018-04-16T15:58:48Z</time>
      </trkpt>
      <trkpt lat="38.51153" lon="14.97357">
        <ele>3.5</ele>
        <time>2018-04-16T15:59:08Z</time>
      </trkpt>
      <trkpt lat="38.51214" lon="14.97306">
        <ele>3.5</ele>
        <time>2018-04-16T15:59:30Z</time>
      </trkpt>
      <trkpt lat="38.51262" lon="14.97268">
        <ele>3.02</ele>
        <time>2018-04-16T15:59:47Z</time>
      </trkpt>
      <trkpt lat="38.51327" lon="14.97205">
        <ele>4.46</ele>
        <time>2018-04-16T16:00:11Z</time>
      </trkpt>
      <trkpt lat="38.51375" lon="14.97162">
        <ele>4.46</ele>
        <time>2018-04-16T16:00:29Z</time>
      </trkpt>
      <trkpt lat="38.51432" lon="14.97117">
        <ele>3.98</ele>
        <time>2018-04-16T16:00:50Z</time>
      </trkpt>
      <trkpt lat="38.51474" lon="14.97092">
        <ele>3.98</ele>
        <time>2018-04-16T16:01:10Z</time>
      </trkpt>
      <trkpt lat="38.51517" lon="14.97068">
        <ele>3.98</ele>
        <time>2018-04-16T16:01:31Z</time>
      </trkpt>
      <trkpt lat="38.51551" lon="14.97054">
        <ele>3.5</ele>
        <time>2018-04-16T16:01:53Z</time>
      </trkpt>
      <trkpt lat="38.51584" lon="14.97048">
        <ele>3.5</ele>
        <time>2018-04-16T16:02:12Z</time>
      </trkpt>
      <trkpt lat="38.5161" lon="14.97046">
        <ele>3.98</ele>
        <time>2018-04-16T16:02:27Z</time>
      </trkpt>
      <trkpt lat="38.51648" lon="14.97045">
        <ele>4.46</ele>
        <time>2018-04-16T16:02:45Z</time>
      </trkpt>
      <trkpt lat="38.51702" lon="14.97045">
        <ele>3.5</ele>
        <time>2018-04-16T16:03:06Z</time>
      </trkpt>
      <trkpt lat="38.51758" lon="14.97042">
        <ele>3.5</ele>
        <time>2018-04-16T16:03:24Z</time>
      </trkpt>
      <trkpt lat="38.51811" lon="14.97049">
        <ele>3.5</ele>
        <time>2018-04-16T16:03:40Z</time>
      </trkpt>
      <trkpt lat="38.51854" lon="14.97047">
        <ele>3.5</ele>
        <time>2018-04-16T16:03:53Z</time>
      </trkpt>
      <trkpt lat="38.51906" lon="14.97053">
        <ele>2.54</ele>
        <time>2018-04-16T16:04:09Z</time>
      </trkpt>
      <trkpt lat="38.5196" lon="14.97061">
        <ele>3.02</ele>
        <time>2018-04-16T16:04:25Z</time>
      </trkpt>
      <trkpt lat="38.52014" lon="14.97059">
        <ele>3.5</ele>
        <time>2018-04-16T16:04:40Z</time>
      </trkpt>
      <trkpt lat="38.52066" lon="14.97058">
        <ele>3.5</ele>
        <time>2018-04-16T16:04:55Z</time>
      </trkpt>
      <trkpt lat="38.52126" lon="14.97058">
        <ele>4.46</ele>
        <time>2018-04-16T16:05:12Z</time>
      </trkpt>
      <trkpt lat="38.5218" lon="14.97047">
        <ele>4.46</ele>
        <time>2018-04-16T16:05:27Z</time>
      </trkpt>
      <trkpt lat="38.52225" lon="14.97035">
        <ele>4.94</ele>
        <time>2018-04-16T16:05:40Z</time>
      </trkpt>
      <trkpt lat="38.52276" lon="14.97024">
        <ele>5.42</ele>
        <time>2018-04-16T16:05:54Z</time>
      </trkpt>
      <trkpt lat="38.52333" lon="14.9702">
        <ele>5.42</ele>
        <time>2018-04-16T16:06:09Z</time>
      </trkpt>
      <trkpt lat="38.52394" lon="14.97006">
        <ele>5.42</ele>
        <time>2018-04-16T16:06:25Z</time>
      </trkpt>
      <trkpt lat="38.52458" lon="14.97">
        <ele>3.98</ele>
        <time>2018-04-16T16:06:41Z</time>
      </trkpt>
      <trkpt lat="38.52483" lon="14.96997">
        <ele>3.98</ele>
        <time>2018-04-16T16:06:47Z</time>
      </trkpt>
      <trkpt lat="38.52495" lon="14.96996">
        <ele>3.5</ele>
        <time>2018-04-16T16:06:50Z</time>
      </trkpt>
      <trkpt lat="38.52556" lon="14.96994">
        <ele>2.54</ele>
        <time>2018-04-16T16:07:05Z</time>
      </trkpt>
      <trkpt lat="38.52563" lon="14.96991">
        <ele>2.54</ele>
        <time>2018-04-16T16:07:07Z</time>
      </trkpt>
      <trkpt lat="38.52608" lon="14.96986">
        <ele>2.54</ele>
        <time>2018-04-16T16:07:18Z</time>
      </trkpt>
      <trkpt lat="38.5262" lon="14.96986">
        <ele>2.54</ele>
        <time>2018-04-16T16:07:21Z</time>
      </trkpt>
      <trkpt lat="38.52639" lon="14.96984">
        <ele>2.06</ele>
        <time>2018-04-16T16:07:26Z</time>
      </trkpt>
      <trkpt lat="38.5266" lon="14.96986">
        <ele>2.06</ele>
        <time>2018-04-16T16:07:31Z</time>
      </trkpt>
      <trkpt lat="38.52681" lon="14.96993">
        <ele>2.54</ele>
        <time>2018-04-16T16:07:36Z</time>
      </trkpt>
      <trkpt lat="38.52716" lon="14.96997">
        <ele>2.06</ele>
        <time>2018-04-16T16:07:45Z</time>
      </trkpt>
      <trkpt lat="38.52732" lon="14.96999">
        <ele>2.06</ele>
        <time>2018-04-16T16:07:49Z</time>
      </trkpt>
      <trkpt lat="38.5278" lon="14.97004">
        <ele>2.54</ele>
        <time>2018-04-16T16:08:02Z</time>
      </trkpt>
      <trkpt lat="38.52833" lon="14.96997">
        <ele>3.02</ele>
        <time>2018-04-16T16:08:16Z</time>
      </trkpt>
      <trkpt lat="38.52891" lon="14.96988">
        <ele>3.02</ele>
        <time>2018-04-16T16:08:31Z</time>
      </trkpt>
      <trkpt lat="38.52948" lon="14.9698">
        <ele>3.02</ele>
        <time>2018-04-16T16:08:46Z</time>
      </trkpt>
      <trkpt lat="38.52992" lon="14.96961">
        <ele>2.54</ele>
        <time>2018-04-16T16:08:59Z</time>
      </trkpt>
      <trkpt lat="38.53042" lon="14.96946">
        <ele>2.54</ele>
        <time>2018-04-16T16:09:13Z</time>
      </trkpt>
      <trkpt lat="38.5308" lon="14.96926">
        <ele>2.54</ele>
        <time>2018-04-16T16:09:25Z</time>
      </trkpt>
      <trkpt lat="38.53119" lon="14.96908">
        <ele>2.54</ele>
        <time>2018-04-16T16:09:36Z</time>
      </trkpt>
      <trkpt lat="38.53167" lon="14.96888">
        <ele>2.54</ele>
        <time>2018-04-16T16:09:50Z</time>
      </trkpt>
      <trkpt lat="38.5321" lon="14.96867">
        <ele>2.54</ele>
        <time>2018-04-16T16:10:03Z</time>
      </trkpt>
      <trkpt lat="38.53247" lon="14.96849">
        <ele>2.54</ele>
        <time>2018-04-16T16:10:14Z</time>
      </trkpt>
      <trkpt lat="38.53282" lon="14.96833">
        <ele>3.02</ele>
        <time>2018-04-16T16:10:24Z</time>
      </trkpt>
      <trkpt lat="38.53297" lon="14.96828">
        <ele>2.54</ele>
        <time>2018-04-16T16:10:28Z</time>
      </trkpt>
      <trkpt lat="38.5335" lon="14.96812">
        <ele>3.02</ele>
        <time>2018-04-16T16:10:42Z</time>
      </trkpt>
      <trkpt lat="38.53362" lon="14.96809">
        <ele>3.02</ele>
        <time>2018-04-16T16:10:45Z</time>
      </trkpt>
      <trkpt lat="38.5337" lon="14.96808">
        <ele>3.02</ele>
        <time>2018-04-16T16:10:47Z</time>
      </trkpt>
      <trkpt lat="38.5339" lon="14.96802">
        <ele>2.06</ele>
        <time>2018-04-16T16:10:52Z</time>
      </trkpt>
      <trkpt lat="38.53402" lon="14.96799">
        <ele>2.54</ele>
        <time>2018-04-16T16:10:55Z</time>
      </trkpt>
      <trkpt lat="38.53415" lon="14.96797">
        <ele>2.06</ele>
        <time>2018-04-16T16:10:58Z</time>
      </trkpt>
      <trkpt lat="38.5345" lon="14.96792">
        <ele>2.06</ele>
        <time>2018-04-16T16:11:07Z</time>
      </trkpt>
      <trkpt lat="38.53492" lon="14.96767">
        <ele>2.54</ele>
        <time>2018-04-16T16:11:19Z</time>
      </trkpt>
      <trkpt lat="38.53537" lon="14.9674">
        <ele>3.02</ele>
        <time>2018-04-16T16:11:33Z</time>
      </trkpt>
      <trkpt lat="38.53575" lon="14.96719">
        <ele>3.02</ele>
        <time>2018-04-16T16:11:45Z</time>
      </trkpt>
      <trkpt lat="38.53599" lon="14.96707">
        <ele>2.54</ele>
        <time>2018-04-16T16:11:52Z</time>
      </trkpt>
      <trkpt lat="38.5363" lon="14.96689">
        <ele>2.06</ele>
        <time>2018-04-16T16:12:01Z</time>
      </trkpt>
      <trkpt lat="38.53676" lon="14.96667">
        <ele>1.58</ele>
        <time>2018-04-16T16:12:14Z</time>
      </trkpt>
      <trkpt lat="38.53711" lon="14.96636">
        <ele>2.06</ele>
        <time>2018-04-16T16:12:27Z</time>
      </trkpt>
      <trkpt lat="38.53756" lon="14.96599">
        <ele>2.54</ele>
        <time>2018-04-16T16:12:43Z</time>
      </trkpt>
      <trkpt lat="38.53788" lon="14.9657">
        <ele>3.02</ele>
        <time>2018-04-16T16:12:56Z</time>
      </trkpt>
      <trkpt lat="38.53825" lon="14.96537">
        <ele>2.54</ele>
        <time>2018-04-16T16:13:11Z</time>
      </trkpt>
      <trkpt lat="38.53864" lon="14.96508">
        <ele>2.06</ele>
        <time>2018-04-16T16:13:24Z</time>
      </trkpt>
      <trkpt lat="38.53896" lon="14.96483">
        <ele>2.54</ele>
        <time>2018-04-16T16:13:35Z</time>
      </trkpt>
      <trkpt lat="38.53934" lon="14.96452">
        <ele>3.02</ele>
        <time>2018-04-16T16:13:48Z</time>
      </trkpt>
      <trkpt lat="38.53977" lon="14.96423">
        <ele>3.02</ele>
        <time>2018-04-16T16:14:01Z</time>
      </trkpt>
      <trkpt lat="38.54009" lon="14.96405">
        <ele>2.54</ele>
        <time>2018-04-16T16:14:10Z</time>
      </trkpt>
      <trkpt lat="38.54022" lon="14.96396">
        <ele>2.54</ele>
        <time>2018-04-16T16:14:14Z</time>
      </trkpt>
      <trkpt lat="38.54075" lon="14.96361">
        <ele>2.54</ele>
        <time>2018-04-16T16:14:30Z</time>
      </trkpt>
      <trkpt lat="38.54114" lon="14.9634">
        <ele>2.06</ele>
        <time>2018-04-16T16:14:41Z</time>
      </trkpt>
      <trkpt lat="38.54148" lon="14.9631">
        <ele>3.02</ele>
        <time>2018-04-16T16:14:53Z</time>
      </trkpt>
      <trkpt lat="38.5418" lon="14.96281">
        <ele>3.5</ele>
        <time>2018-04-16T16:15:04Z</time>
      </trkpt>
      <trkpt lat="38.54216" lon="14.96247">
        <ele>2.54</ele>
        <time>2018-04-16T16:15:16Z</time>
      </trkpt>
      <trkpt lat="38.54259" lon="14.9621">
        <ele>2.54</ele>
        <time>2018-04-16T16:15:30Z</time>
      </trkpt>
      <trkpt lat="38.54291" lon="14.9618">
        <ele>2.54</ele>
        <time>2018-04-16T16:15:41Z</time>
      </trkpt>
      <trkpt lat="38.54329" lon="14.96144">
        <ele>3.02</ele>
        <time>2018-04-16T16:15:54Z</time>
      </trkpt>
      <trkpt lat="38.54358" lon="14.96107">
        <ele>2.54</ele>
        <time>2018-04-16T16:16:06Z</time>
      </trkpt>
      <trkpt lat="38.54388" lon="14.96072">
        <ele>3.02</ele>
        <time>2018-04-16T16:16:18Z</time>
      </trkpt>
      <trkpt lat="38.54418" lon="14.96035">
        <ele>3.5</ele>
        <time>2018-04-16T16:16:30Z</time>
      </trkpt>
      <trkpt lat="38.54454" lon="14.95996">
        <ele>2.54</ele>
        <time>2018-04-16T16:16:43Z</time>
      </trkpt>
      <trkpt lat="38.54489" lon="14.95953">
        <ele>3.02</ele>
        <time>2018-04-16T16:16:57Z</time>
      </trkpt>
      <trkpt lat="38.54529" lon="14.95913">
        <ele>2.06</ele>
        <time>2018-04-16T16:17:11Z</time>
      </trkpt>
      <trkpt lat="38.5456" lon="14.95883">
        <ele>2.54</ele>
        <time>2018-04-16T16:17:22Z</time>
      </trkpt>
      <trkpt lat="38.54585" lon="14.95848">
        <ele>2.54</ele>
        <time>2018-04-16T16:17:33Z</time>
      </trkpt>
      <trkpt lat="38.54618" lon="14.95802">
        <ele>2.54</ele>
        <time>2018-04-16T16:17:47Z</time>
      </trkpt>
      <trkpt lat="38.54641" lon="14.95759">
        <ele>3.5</ele>
        <time>2018-04-16T16:17:59Z</time>
      </trkpt>
      <trkpt lat="38.54667" lon="14.95715">
        <ele>3.98</ele>
        <time>2018-04-16T16:18:12Z</time>
      </trkpt>
      <trkpt lat="38.54694" lon="14.95671">
        <ele>3.02</ele>
        <time>2018-04-16T16:18:25Z</time>
      </trkpt>
      <trkpt lat="38.54724" lon="14.9562">
        <ele>2.54</ele>
        <time>2018-04-16T16:18:40Z</time>
      </trkpt>
      <trkpt lat="38.54742" lon="14.95581">
        <ele>2.54</ele>
        <time>2018-04-16T16:18:51Z</time>
      </trkpt>
      <trkpt lat="38.54764" lon="14.95539">
        <ele>3.02</ele>
        <time>2018-04-16T16:19:03Z</time>
      </trkpt>
      <trkpt lat="38.54793" lon="14.95489">
        <ele>3.02</ele>
        <time>2018-04-16T16:19:17Z</time>
      </trkpt>
      <trkpt lat="38.54817" lon="14.95448">
        <ele>2.54</ele>
        <time>2018-04-16T16:19:29Z</time>
      </trkpt>
      <trkpt lat="38.54847" lon="14.95398">
        <ele>1.58</ele>
        <time>2018-04-16T16:19:43Z</time>
      </trkpt>
      <trkpt lat="38.54869" lon="14.95352">
        <ele>2.06</ele>
        <time>2018-04-16T16:19:56Z</time>
      </trkpt>
      <trkpt lat="38.54883" lon="14.95313">
        <ele>3.5</ele>
        <time>2018-04-16T16:20:08Z</time>
      </trkpt>
      <trkpt lat="38.54901" lon="14.95277">
        <ele>3.98</ele>
        <time>2018-04-16T16:20:19Z</time>
      </trkpt>
      <trkpt lat="38.54925" lon="14.95234">
        <ele>4.94</ele>
        <time>2018-04-16T16:20:32Z</time>
      </trkpt>
      <trkpt lat="38.54955" lon="14.95181">
        <ele>6.39</ele>
        <time>2018-04-16T16:20:49Z</time>
      </trkpt>
      <trkpt lat="38.5498" lon="14.95138">
        <ele>5.91</ele>
        <time>2018-04-16T16:21:03Z</time>
      </trkpt>
      <trkpt lat="38.55008" lon="14.95084">
        <ele>4.94</ele>
        <time>2018-04-16T16:21:20Z</time>
      </trkpt>
      <trkpt lat="38.55025" lon="14.95042">
        <ele>4.46</ele>
        <time>2018-04-16T16:21:33Z</time>
      </trkpt>
      <trkpt lat="38.55045" lon="14.94992">
        <ele>4.94</ele>
        <time>2018-04-16T16:21:48Z</time>
      </trkpt>
      <trkpt lat="38.55061" lon="14.94952">
        <ele>4.94</ele>
        <time>2018-04-16T16:22:00Z</time>
      </trkpt>
      <trkpt lat="38.55079" lon="14.94903">
        <ele>5.42</ele>
        <time>2018-04-16T16:22:14Z</time>
      </trkpt>
      <trkpt lat="38.55095" lon="14.94854">
        <ele>4.94</ele>
        <time>2018-04-16T16:22:28Z</time>
      </trkpt>
      <trkpt lat="38.55112" lon="14.94809">
        <ele>4.94</ele>
        <time>2018-04-16T16:22:41Z</time>
      </trkpt>
      <trkpt lat="38.55128" lon="14.94759">
        <ele>5.91</ele>
        <time>2018-04-16T16:22:55Z</time>
      </trkpt>
      <trkpt lat="38.55142" lon="14.94714">
        <ele>5.91</ele>
        <time>2018-04-16T16:23:08Z</time>
      </trkpt>
      <trkpt lat="38.55159" lon="14.94665">
        <ele>6.39</ele>
        <time>2018-04-16T16:23:22Z</time>
      </trkpt>
      <trkpt lat="38.55177" lon="14.94613">
        <ele>6.39</ele>
        <time>2018-04-16T16:23:37Z</time>
      </trkpt>
      <trkpt lat="38.55201" lon="14.94556">
        <ele>6.87</ele>
        <time>2018-04-16T16:23:53Z</time>
      </trkpt>
      <trkpt lat="38.55216" lon="14.94513">
        <ele>6.39</ele>
        <time>2018-04-16T16:24:05Z</time>
      </trkpt>
      <trkpt lat="38.55238" lon="14.94458">
        <ele>4.94</ele>
        <time>2018-04-16T16:24:20Z</time>
      </trkpt>
      <trkpt lat="38.55255" lon="14.94408">
        <ele>4.46</ele>
        <time>2018-04-16T16:24:34Z</time>
      </trkpt>
      <trkpt lat="38.55272" lon="14.94344">
        <ele>4.94</ele>
        <time>2018-04-16T16:24:51Z</time>
      </trkpt>
      <trkpt lat="38.55288" lon="14.94292">
        <ele>4.46</ele>
        <time>2018-04-16T16:25:05Z</time>
      </trkpt>
      <trkpt lat="38.55305" lon="14.94239">
        <ele>3.98</ele>
        <time>2018-04-16T16:25:19Z</time>
      </trkpt>
      <trkpt lat="38.55325" lon="14.94185">
        <ele>3.5</ele>
        <time>2018-04-16T16:25:33Z</time>
      </trkpt>
      <trkpt lat="38.55344" lon="14.94141">
        <ele>4.94</ele>
        <time>2018-04-16T16:25:45Z</time>
      </trkpt>
      <trkpt lat="38.55359" lon="14.94088">
        <ele>4.94</ele>
        <time>2018-04-16T16:25:59Z</time>
      </trkpt>
      <trkpt lat="38.55379" lon="14.94045">
        <ele>5.91</ele>
        <time>2018-04-16T16:26:11Z</time>
      </trkpt>
      <trkpt lat="38.55396" lon="14.93997">
        <ele>5.91</ele>
        <time>2018-04-16T16:26:24Z</time>
      </trkpt>
      <trkpt lat="38.55413" lon="14.93945">
        <ele>5.42</ele>
        <time>2018-04-16T16:26:38Z</time>
      </trkpt>
      <trkpt lat="38.55428" lon="14.93896">
        <ele>5.42</ele>
        <time>2018-04-16T16:26:51Z</time>
      </trkpt>
      <trkpt lat="38.55445" lon="14.9385">
        <ele>5.91</ele>
        <time>2018-04-16T16:27:04Z</time>
      </trkpt>
      <trkpt lat="38.55467" lon="14.93796">
        <ele>6.39</ele>
        <time>2018-04-16T16:27:20Z</time>
      </trkpt>
      <trkpt lat="38.55485" lon="14.93745">
        <ele>5.91</ele>
        <time>2018-04-16T16:27:34Z</time>
      </trkpt>
      <trkpt lat="38.55495" lon="14.93711">
        <ele>5.42</ele>
        <time>2018-04-16T16:27:44Z</time>
      </trkpt>
      <trkpt lat="38.55507" lon="14.93673">
        <ele>4.94</ele>
        <time>2018-04-16T16:27:56Z</time>
      </trkpt>
      <trkpt lat="38.55518" lon="14.93629">
        <ele>4.46</ele>
        <time>2018-04-16T16:28:11Z</time>
      </trkpt>
      <trkpt lat="38.55533" lon="14.93589">
        <ele>4.94</ele>
        <time>2018-04-16T16:28:24Z</time>
      </trkpt>
      <trkpt lat="38.55552" lon="14.93534">
        <ele>5.42</ele>
        <time>2018-04-16T16:28:41Z</time>
      </trkpt>
      <trkpt lat="38.55567" lon="14.9349">
        <ele>5.91</ele>
        <time>2018-04-16T16:28:54Z</time>
      </trkpt>
      <trkpt lat="38.55583" lon="14.93439">
        <ele>5.42</ele>
        <time>2018-04-16T16:29:09Z</time>
      </trkpt>
      <trkpt lat="38.55608" lon="14.93388">
        <ele>6.87</ele>
        <time>2018-04-16T16:29:24Z</time>
      </trkpt>
      <trkpt lat="38.55627" lon="14.93344">
        <ele>6.87</ele>
        <time>2018-04-16T16:29:37Z</time>
      </trkpt>
      <trkpt lat="38.55639" lon="14.93303">
        <ele>5.91</ele>
        <time>2018-04-16T16:29:49Z</time>
      </trkpt>
      <trkpt lat="38.55652" lon="14.9326">
        <ele>5.42</ele>
        <time>2018-04-16T16:30:02Z</time>
      </trkpt>
      <trkpt lat="38.55665" lon="14.93224">
        <ele>5.42</ele>
        <time>2018-04-16T16:30:14Z</time>
      </trkpt>
      <trkpt lat="38.55675" lon="14.93188">
        <ele>4.94</ele>
        <time>2018-04-16T16:30:26Z</time>
      </trkpt>
      <trkpt lat="38.5569" lon="14.93145">
        <ele>5.42</ele>
        <time>2018-04-16T16:30:40Z</time>
      </trkpt>
      <trkpt lat="38.55708" lon="14.93101">
        <ele>5.42</ele>
        <time>2018-04-16T16:30:54Z</time>
      </trkpt>
      <trkpt lat="38.5571" lon="14.93098">
        <ele>5.91</ele>
        <time>2018-04-16T16:30:55Z</time>
      </trkpt>
      <trkpt lat="38.55724" lon="14.93055">
        <ele>6.39</ele>
        <time>2018-04-16T16:31:09Z</time>
      </trkpt>
      <trkpt lat="38.55741" lon="14.93014">
        <ele>4.94</ele>
        <time>2018-04-16T16:31:22Z</time>
      </trkpt>
      <trkpt lat="38.55756" lon="14.92971">
        <ele>4.46</ele>
        <time>2018-04-16T16:31:35Z</time>
      </trkpt>
      <trkpt lat="38.55774" lon="14.92933">
        <ele>5.42</ele>
        <time>2018-04-16T16:31:47Z</time>
      </trkpt>
      <trkpt lat="38.55787" lon="14.92893">
        <ele>5.91</ele>
        <time>2018-04-16T16:31:59Z</time>
      </trkpt>
      <trkpt lat="38.55807" lon="14.92851">
        <ele>5.42</ele>
        <time>2018-04-16T16:32:12Z</time>
      </trkpt>
      <trkpt lat="38.55825" lon="14.92802">
        <ele>5.42</ele>
        <time>2018-04-16T16:32:26Z</time>
      </trkpt>
      <trkpt lat="38.55836" lon="14.92758">
        <ele>5.42</ele>
        <time>2018-04-16T16:32:39Z</time>
      </trkpt>
      <trkpt lat="38.55847" lon="14.92715">
        <ele>4.94</ele>
        <time>2018-04-16T16:32:52Z</time>
      </trkpt>
      <trkpt lat="38.5586" lon="14.92666">
        <ele>4.94</ele>
        <time>2018-04-16T16:33:07Z</time>
      </trkpt>
      <trkpt lat="38.5587" lon="14.9263">
        <ele>4.94</ele>
        <time>2018-04-16T16:33:18Z</time>
      </trkpt>
      <trkpt lat="38.55874" lon="14.92612">
        <ele>4.46</ele>
        <time>2018-04-16T16:33:24Z</time>
      </trkpt>
      <trkpt lat="38.55878" lon="14.926">
        <ele>4.46</ele>
        <time>2018-04-16T16:33:28Z</time>
      </trkpt>
      <trkpt lat="38.55881" lon="14.92584">
        <ele>3.02</ele>
        <time>2018-04-16T16:33:33Z</time>
      </trkpt>
      <trkpt lat="38.55897" lon="14.92534">
        <ele>3.02</ele>
        <time>2018-04-16T16:33:49Z</time>
      </trkpt>
      <trkpt lat="38.55913" lon="14.92495">
        <ele>4.94</ele>
        <time>2018-04-16T16:34:01Z</time>
      </trkpt>
      <trkpt lat="38.55932" lon="14.92445">
        <ele>5.42</ele>
        <time>2018-04-16T16:34:16Z</time>
      </trkpt>
      <trkpt lat="38.55948" lon="14.924">
        <ele>5.42</ele>
        <time>2018-04-16T16:34:29Z</time>
      </trkpt>
      <trkpt lat="38.55961" lon="14.92351">
        <ele>4.46</ele>
        <time>2018-04-16T16:34:43Z</time>
      </trkpt>
      <trkpt lat="38.55963" lon="14.92331">
        <ele>3.98</ele>
        <time>2018-04-16T16:34:49Z</time>
      </trkpt>
      <trkpt lat="38.55977" lon="14.9229">
        <ele>3.98</ele>
        <time>2018-04-16T16:35:01Z</time>
      </trkpt>
      <trkpt lat="38.55988" lon="14.92252">
        <ele>4.46</ele>
        <time>2018-04-16T16:35:12Z</time>
      </trkpt>
      <trkpt lat="38.56009" lon="14.92205">
        <ele>4.94</ele>
        <time>2018-04-16T16:35:26Z</time>
      </trkpt>
      <trkpt lat="38.56026" lon="14.92171">
        <ele>5.91</ele>
        <time>2018-04-16T16:35:37Z</time>
      </trkpt>
      <trkpt lat="38.56035" lon="14.92133">
        <ele>5.91</ele>
        <time>2018-04-16T16:35:48Z</time>
      </trkpt>
      <trkpt lat="38.56039" lon="14.92101">
        <ele>5.42</ele>
        <time>2018-04-16T16:35:58Z</time>
      </trkpt>
      <trkpt lat="38.56047" lon="14.92083">
        <ele>5.42</ele>
        <time>2018-04-16T16:36:04Z</time>
      </trkpt>
      <trkpt lat="38.56049" lon="14.9207">
        <ele>4.94</ele>
        <time>2018-04-16T16:36:08Z</time>
      </trkpt>
      <trkpt lat="38.56059" lon="14.92031">
        <ele>4.46</ele>
        <time>2018-04-16T16:36:20Z</time>
      </trkpt>
      <trkpt lat="38.56074" lon="14.91994">
        <ele>4.46</ele>
        <time>2018-04-16T16:36:32Z</time>
      </trkpt>
      <trkpt lat="38.56089" lon="14.91949">
        <ele>4.94</ele>
        <time>2018-04-16T16:36:45Z</time>
      </trkpt>
      <trkpt lat="38.56107" lon="14.91909">
        <ele>4.94</ele>
        <time>2018-04-16T16:36:57Z</time>
      </trkpt>
      <trkpt lat="38.56115" lon="14.91869">
        <ele>3.5</ele>
        <time>2018-04-16T16:37:09Z</time>
      </trkpt>
      <trkpt lat="38.56127" lon="14.91822">
        <ele>3.5</ele>
        <time>2018-04-16T16:37:23Z</time>
      </trkpt>
      <trkpt lat="38.56138" lon="14.91775">
        <ele>3.98</ele>
        <time>2018-04-16T16:37:36Z</time>
      </trkpt>
      <trkpt lat="38.56149" lon="14.91723">
        <ele>3.98</ele>
        <time>2018-04-16T16:37:50Z</time>
      </trkpt>
      <trkpt lat="38.56156" lon="14.91671">
        <ele>3.5</ele>
        <time>2018-04-16T16:38:04Z</time>
      </trkpt>
      <trkpt lat="38.56166" lon="14.91623">
        <ele>3.5</ele>
        <time>2018-04-16T16:38:17Z</time>
      </trkpt>
      <trkpt lat="38.56181" lon="14.91568">
        <ele>3.02</ele>
        <time>2018-04-16T16:38:32Z</time>
      </trkpt>
      <trkpt lat="38.56188" lon="14.91529">
        <ele>3.02</ele>
        <time>2018-04-16T16:38:43Z</time>
      </trkpt>
      <trkpt lat="38.56193" lon="14.91492">
        <ele>2.54</ele>
        <time>2018-04-16T16:38:53Z</time>
      </trkpt>
      <trkpt lat="38.56197" lon="14.91446">
        <ele>2.06</ele>
        <time>2018-04-16T16:39:06Z</time>
      </trkpt>
      <trkpt lat="38.56203" lon="14.91396">
        <ele>2.06</ele>
        <time>2018-04-16T16:39:19Z</time>
      </trkpt>
      <trkpt lat="38.56214" lon="14.91348">
        <ele>3.5</ele>
        <time>2018-04-16T16:39:32Z</time>
      </trkpt>
      <trkpt lat="38.56221" lon="14.91296">
        <ele>2.54</ele>
        <time>2018-04-16T16:39:46Z</time>
      </trkpt>
      <trkpt lat="38.56227" lon="14.91257">
        <ele>2.54</ele>
        <time>2018-04-16T16:39:57Z</time>
      </trkpt>
      <trkpt lat="38.56234" lon="14.91206">
        <ele>2.54</ele>
        <time>2018-04-16T16:40:11Z</time>
      </trkpt>
      <trkpt lat="38.56245" lon="14.91154">
        <ele>1.58</ele>
        <time>2018-04-16T16:40:25Z</time>
      </trkpt>
      <trkpt lat="38.56255" lon="14.9111">
        <ele>1.58</ele>
        <time>2018-04-16T16:40:37Z</time>
      </trkpt>
      <trkpt lat="38.56264" lon="14.91061">
        <ele>2.54</ele>
        <time>2018-04-16T16:40:51Z</time>
      </trkpt>
      <trkpt lat="38.56276" lon="14.91026">
        <ele>2.54</ele>
        <time>2018-04-16T16:41:01Z</time>
      </trkpt>
      <trkpt lat="38.56283" lon="14.90984">
        <ele>2.54</ele>
        <time>2018-04-16T16:41:12Z</time>
      </trkpt>
      <trkpt lat="38.56294" lon="14.90943">
        <ele>2.54</ele>
        <time>2018-04-16T16:41:23Z</time>
      </trkpt>
      <trkpt lat="38.56306" lon="14.90898">
        <ele>2.06</ele>
        <time>2018-04-16T16:41:35Z</time>
      </trkpt>
      <trkpt lat="38.56313" lon="14.90845">
        <ele>3.02</ele>
        <time>2018-04-16T16:41:49Z</time>
      </trkpt>
      <trkpt lat="38.56321" lon="14.90794">
        <ele>3.02</ele>
        <time>2018-04-16T16:42:02Z</time>
      </trkpt>
      <trkpt lat="38.56327" lon="14.90747">
        <ele>2.06</ele>
        <time>2018-04-16T16:42:14Z</time>
      </trkpt>
      <trkpt lat="38.56337" lon="14.90688">
        <ele>2.06</ele>
        <time>2018-04-16T16:42:29Z</time>
      </trkpt>
      <trkpt lat="38.56344" lon="14.90646">
        <ele>1.58</ele>
        <time>2018-04-16T16:42:40Z</time>
      </trkpt>
      <trkpt lat="38.56347" lon="14.90591">
        <ele>1.1</ele>
        <time>2018-04-16T16:42:54Z</time>
      </trkpt>
      <trkpt lat="38.56352" lon="14.9055">
        <ele>1.58</ele>
        <time>2018-04-16T16:43:04Z</time>
      </trkpt>
      <trkpt lat="38.56357" lon="14.9051">
        <ele>1.58</ele>
        <time>2018-04-16T16:43:14Z</time>
      </trkpt>
      <trkpt lat="38.56362" lon="14.90469">
        <ele>1.58</ele>
        <time>2018-04-16T16:43:24Z</time>
      </trkpt>
      <trkpt lat="38.56362" lon="14.9042">
        <ele>2.54</ele>
        <time>2018-04-16T16:43:36Z</time>
      </trkpt>
      <trkpt lat="38.56363" lon="14.90374">
        <ele>2.54</ele>
        <time>2018-04-16T16:43:47Z</time>
      </trkpt>
      <trkpt lat="38.5637" lon="14.90324">
        <ele>2.54</ele>
        <time>2018-04-16T16:43:59Z</time>
      </trkpt>
      <trkpt lat="38.56372" lon="14.90276">
        <ele>3.02</ele>
        <time>2018-04-16T16:44:11Z</time>
      </trkpt>
      <trkpt lat="38.56375" lon="14.90227">
        <ele>2.06</ele>
        <time>2018-04-16T16:44:23Z</time>
      </trkpt>
      <trkpt lat="38.56378" lon="14.90191">
        <ele>2.06</ele>
        <time>2018-04-16T16:44:32Z</time>
      </trkpt>
      <trkpt lat="38.56375" lon="14.90142">
        <ele>2.54</ele>
        <time>2018-04-16T16:44:45Z</time>
      </trkpt>
      <trkpt lat="38.56374" lon="14.90084">
        <ele>2.54</ele>
        <time>2018-04-16T16:44:59Z</time>
      </trkpt>
      <trkpt lat="38.56372" lon="14.90014">
        <ele>3.02</ele>
        <time>2018-04-16T16:45:16Z</time>
      </trkpt>
      <trkpt lat="38.56368" lon="14.89945">
        <ele>2.54</ele>
        <time>2018-04-16T16:45:33Z</time>
      </trkpt>
      <trkpt lat="38.56364" lon="14.89887">
        <ele>3.02</ele>
        <time>2018-04-16T16:45:47Z</time>
      </trkpt>
      <trkpt lat="38.56358" lon="14.89829">
        <ele>2.54</ele>
        <time>2018-04-16T16:46:01Z</time>
      </trkpt>
      <trkpt lat="38.56352" lon="14.89773">
        <ele>2.54</ele>
        <time>2018-04-16T16:46:16Z</time>
      </trkpt>
      <trkpt lat="38.56342" lon="14.89719">
        <ele>2.54</ele>
        <time>2018-04-16T16:46:34Z</time>
      </trkpt>
      <trkpt lat="38.56347" lon="14.89676">
        <ele>2.54</ele>
        <time>2018-04-16T16:46:51Z</time>
      </trkpt>
      <trkpt lat="38.56357" lon="14.89637">
        <ele>3.5</ele>
        <time>2018-04-16T16:47:04Z</time>
      </trkpt>
      <trkpt lat="38.56367" lon="14.89593">
        <ele>4.46</ele>
        <time>2018-04-16T16:47:18Z</time>
      </trkpt>
      <trkpt lat="38.56371" lon="14.89556">
        <ele>3.5</ele>
        <time>2018-04-16T16:47:33Z</time>
      </trkpt>
      <trkpt lat="38.56378" lon="14.89527">
        <ele>2.54</ele>
        <time>2018-04-16T16:47:49Z</time>
      </trkpt>
      <trkpt lat="38.56379" lon="14.89521">
        <ele>2.54</ele>
        <time>2018-04-16T16:47:53Z</time>
      </trkpt>
      <trkpt lat="38.56382" lon="14.89508">
        <ele>3.02</ele>
        <time>2018-04-16T16:48:01Z</time>
      </trkpt>
      <trkpt lat="38.56383" lon="14.89486">
        <ele>3.5</ele>
        <time>2018-04-16T16:48:18Z</time>
      </trkpt>
      <trkpt lat="38.56386" lon="14.89463">
        <ele>3.98</ele>
        <time>2018-04-16T16:48:37Z</time>
      </trkpt>
      <trkpt lat="38.56387" lon="14.89452">
        <ele>3.5</ele>
        <time>2018-04-16T16:48:46Z</time>
      </trkpt>
      <trkpt lat="38.56388" lon="14.89436">
        <ele>2.06</ele>
        <time>2018-04-16T16:49:00Z</time>
      </trkpt>
      <trkpt lat="38.56386" lon="14.89424">
        <ele>2.54</ele>
        <time>2018-04-16T16:49:14Z</time>
      </trkpt>
      <trkpt lat="38.56384" lon="14.89412">
        <ele>3.02</ele>
        <time>2018-04-16T16:49:30Z</time>
      </trkpt>
      <trkpt lat="38.56384" lon="14.89397">
        <ele>3.5</ele>
        <time>2018-04-16T16:49:46Z</time>
      </trkpt>
      <trkpt lat="38.56384" lon="14.89394">
        <ele>3.5</ele>
        <time>2018-04-16T16:49:48Z</time>
      </trkpt>
      <trkpt lat="38.56373" lon="14.89361">
        <ele>3.02</ele>
        <time>2018-04-16T16:50:04Z</time>
      </trkpt>
      <trkpt lat="38.56351" lon="14.8932">
        <ele>3.02</ele>
        <time>2018-04-16T16:50:21Z</time>
      </trkpt>
      <trkpt lat="38.56331" lon="14.89282">
        <ele>3.5</ele>
        <time>2018-04-16T16:50:36Z</time>
      </trkpt>
      <trkpt lat="38.56303" lon="14.89242">
        <ele>3.5</ele>
        <time>2018-04-16T16:50:53Z</time>
      </trkpt>
      <trkpt lat="38.56275" lon="14.89201">
        <ele>3.98</ele>
        <time>2018-04-16T16:51:10Z</time>
      </trkpt>
      <trkpt lat="38.56241" lon="14.89178">
        <ele>3.98</ele>
        <time>2018-04-16T16:51:26Z</time>
      </trkpt>
      <trkpt lat="38.56217" lon="14.89142">
        <ele>3.02</ele>
        <time>2018-04-16T16:51:41Z</time>
      </trkpt>
      <trkpt lat="38.56192" lon="14.89096">
        <ele>2.54</ele>
        <time>2018-04-16T16:51:59Z</time>
      </trkpt>
      <trkpt lat="38.56168" lon="14.8905">
        <ele>3.02</ele>
        <time>2018-04-16T16:52:17Z</time>
      </trkpt>
      <trkpt lat="38.56146" lon="14.89016">
        <ele>3.5</ele>
        <time>2018-04-16T16:52:31Z</time>
      </trkpt>
      <trkpt lat="38.56118" lon="14.88977">
        <ele>3.5</ele>
        <time>2018-04-16T16:52:48Z</time>
      </trkpt>
      <trkpt lat="38.56092" lon="14.8894">
        <ele>3.02</ele>
        <time>2018-04-16T16:53:04Z</time>
      </trkpt>
      <trkpt lat="38.56077" lon="14.8891">
        <ele>2.06</ele>
        <time>2018-04-16T16:53:16Z</time>
      </trkpt>
      <trkpt lat="38.56061" lon="14.88883">
        <ele>2.54</ele>
        <time>2018-04-16T16:53:27Z</time>
      </trkpt>
      <trkpt lat="38.5604" lon="14.88848">
        <ele>2.54</ele>
        <time>2018-04-16T16:53:41Z</time>
      </trkpt>
      <trkpt lat="38.56019" lon="14.88813">
        <ele>3.02</ele>
        <time>2018-04-16T16:53:55Z</time>
      </trkpt>
      <trkpt lat="38.55996" lon="14.88773">
        <ele>3.02</ele>
        <time>2018-04-16T16:54:10Z</time>
      </trkpt>
      <trkpt lat="38.55976" lon="14.88735">
        <ele>3.02</ele>
        <time>2018-04-16T16:54:23Z</time>
      </trkpt>
      <trkpt lat="38.55952" lon="14.88687">
        <ele>2.54</ele>
        <time>2018-04-16T16:54:39Z</time>
      </trkpt>
      <trkpt lat="38.55933" lon="14.88643">
        <ele>2.54</ele>
        <time>2018-04-16T16:54:53Z</time>
      </trkpt>
      <trkpt lat="38.5591" lon="14.88592">
        <ele>2.54</ele>
        <time>2018-04-16T16:55:09Z</time>
      </trkpt>
      <trkpt lat="38.55885" lon="14.8853">
        <ele>2.54</ele>
        <time>2018-04-16T16:55:28Z</time>
      </trkpt>
      <trkpt lat="38.55858" lon="14.8847">
        <ele>2.54</ele>
        <time>2018-04-16T16:55:47Z</time>
      </trkpt>
      <trkpt lat="38.55834" lon="14.88419">
        <ele>2.54</ele>
        <time>2018-04-16T16:56:03Z</time>
      </trkpt>
      <trkpt lat="38.55808" lon="14.88371">
        <ele>2.54</ele>
        <time>2018-04-16T16:56:19Z</time>
      </trkpt>
      <trkpt lat="38.55785" lon="14.8833">
        <ele>3.98</ele>
        <time>2018-04-16T16:56:33Z</time>
      </trkpt>
      <trkpt lat="38.55755" lon="14.88276">
        <ele>3.98</ele>
        <time>2018-04-16T16:56:51Z</time>
      </trkpt>
      <trkpt lat="38.55729" lon="14.8822">
        <ele>4.46</ele>
        <time>2018-04-16T16:57:09Z</time>
      </trkpt>
      <trkpt lat="38.55702" lon="14.88165">
        <ele>4.94</ele>
        <time>2018-04-16T16:57:27Z</time>
      </trkpt>
      <trkpt lat="38.55672" lon="14.88098">
        <ele>3.02</ele>
        <time>2018-04-16T16:57:48Z</time>
      </trkpt>
      <trkpt lat="38.55646" lon="14.88037">
        <ele>3.02</ele>
        <time>2018-04-16T16:58:07Z</time>
      </trkpt>
      <trkpt lat="38.55616" lon="14.8797">
        <ele>3.02</ele>
        <time>2018-04-16T16:58:28Z</time>
      </trkpt>
      <trkpt lat="38.55592" lon="14.8791">
        <ele>3.5</ele>
        <time>2018-04-16T16:58:46Z</time>
      </trkpt>
      <trkpt lat="38.55567" lon="14.87847">
        <ele>3.5</ele>
        <time>2018-04-16T16:59:05Z</time>
      </trkpt>
      <trkpt lat="38.55541" lon="14.87783">
        <ele>2.54</ele>
        <time>2018-04-16T16:59:24Z</time>
      </trkpt>
      <trkpt lat="38.55515" lon="14.8772">
        <ele>3.5</ele>
        <time>2018-04-16T16:59:43Z</time>
      </trkpt>
      <trkpt lat="38.55488" lon="14.87652">
        <ele>3.02</ele>
        <time>2018-04-16T17:00:03Z</time>
      </trkpt>
      <trkpt lat="38.55456" lon="14.87575">
        <ele>3.02</ele>
        <time>2018-04-16T17:00:26Z</time>
      </trkpt>
      <trkpt lat="38.55431" lon="14.87514">
        <ele>4.46</ele>
        <time>2018-04-16T17:00:44Z</time>
      </trkpt>
      <trkpt lat="38.55413" lon="14.87463">
        <ele>4.94</ele>
        <time>2018-04-16T17:01:00Z</time>
      </trkpt>
      <trkpt lat="38.55401" lon="14.87403">
        <ele>4.46</ele>
        <time>2018-04-16T17:01:19Z</time>
      </trkpt>
      <trkpt lat="38.55392" lon="14.87355">
        <ele>4.94</ele>
        <time>2018-04-16T17:01:35Z</time>
      </trkpt>
      <trkpt lat="38.55386" lon="14.87284">
        <ele>5.42</ele>
        <time>2018-04-16T17:02:00Z</time>
      </trkpt>
      <trkpt lat="38.55387" lon="14.87242">
        <ele>6.87</ele>
        <time>2018-04-16T17:02:19Z</time>
      </trkpt>
      <trkpt lat="38.55391" lon="14.87205">
        <ele>5.42</ele>
        <time>2018-04-16T17:02:39Z</time>
      </trkpt>
      <trkpt lat="38.55399" lon="14.87168">
        <ele>3.98</ele>
        <time>2018-04-16T17:03:03Z</time>
      </trkpt>
      <trkpt lat="38.55421" lon="14.87146">
        <ele>2.54</ele>
        <time>2018-04-16T17:03:24Z</time>
      </trkpt>
      <trkpt lat="38.55452" lon="14.87141">
        <ele>3.02</ele>
        <time>2018-04-16T17:03:45Z</time>
      </trkpt>
      <trkpt lat="38.55485" lon="14.8714">
        <ele>3.02</ele>
        <time>2018-04-16T17:04:07Z</time>
      </trkpt>
      <trkpt lat="38.55516" lon="14.87147">
        <ele>3.5</ele>
        <time>2018-04-16T17:04:31Z</time>
      </trkpt>
      <trkpt lat="38.55542" lon="14.87163">
        <ele>3.02</ele>
        <time>2018-04-16T17:04:54Z</time>
      </trkpt>
      <trkpt lat="38.55573" lon="14.87176">
        <ele>3.98</ele>
        <time>2018-04-16T17:05:24Z</time>
      </trkpt>
      <trkpt lat="38.5559" lon="14.87178">
        <ele>3.02</ele>
        <time>2018-04-16T17:05:53Z</time>
      </trkpt>
      <trkpt lat="38.55591" lon="14.87178">
        <ele>2.54</ele>
        <time>2018-04-16T17:06:18Z</time>
      </trkpt>
      <trkpt lat="38.55591" lon="14.87181">
        <ele>1.58</ele>
        <time>2018-04-16T17:06:49Z</time>
      </trkpt>
      <trkpt lat="38.5559" lon="14.87184">
        <ele>1.58</ele>
        <time>2018-04-16T17:07:19Z</time>
      </trkpt>
      <trkpt lat="38.55588" lon="14.87185">
        <ele>1.58</ele>
        <time>2018-04-16T17:07:46Z</time>
      </trkpt>
      <trkpt lat="38.55586" lon="14.87187">
        <ele>1.58</ele>
        <time>2018-04-16T17:08:15Z</time>
      </trkpt>
      <trkpt lat="38.55585" lon="14.872">
        <ele>1.58</ele>
        <time>2018-04-16T17:08:36Z</time>
      </trkpt>
      <trkpt lat="38.55584" lon="14.87206">
        <ele>3.02</ele>
        <time>2018-04-16T17:09:02Z</time>
      </trkpt>
      <trkpt lat="38.55585" lon="14.87206">
        <ele>3.98</ele>
        <time>2018-04-16T17:09:24Z</time>
      </trkpt>
      <trkpt lat="38.55586" lon="14.87206">
        <ele>4.46</ele>
        <time>2018-04-16T17:09:51Z</time>
      </trkpt>
      <trkpt lat="38.55587" lon="14.87207">
        <ele>4.94</ele>
        <time>2018-04-16T17:10:19Z</time>
      </trkpt>
      <trkpt lat="38.55588" lon="14.87208">
        <ele>4.46</ele>
        <time>2018-04-16T17:10:44Z</time>
      </trkpt>
      <trkpt lat="38.55589" lon="14.87208">
        <ele>4.94</ele>
        <time>2018-04-16T17:11:14Z</time>
      </trkpt>
      <trkpt lat="38.55589" lon="14.87208">
        <ele>4.46</ele>
        <time>2018-04-16T17:11:41Z</time>
      </trkpt>
      <trkpt lat="38.5559" lon="14.87208">
        <ele>4.94</ele>
        <time>2018-04-16T17:12:06Z</time>
      </trkpt>
      <trkpt lat="38.55589" lon="14.87208">
        <ele>4.94</ele>
        <time>2018-04-16T17:12:35Z</time>
      </trkpt>
      <trkpt lat="38.55588" lon="14.87208">
        <ele>4.94</ele>
        <time>2018-04-16T17:13:03Z</time>
      </trkpt>
      <trkpt lat="38.55589" lon="14.87208">
        <ele>4.94</ele>
        <time>2018-04-16T17:13:31Z</time>
      </trkpt>
      <trkpt lat="38.55589" lon="14.87207">
        <ele>4.94</ele>
        <time>2018-04-16T17:13:46Z</time>
      </trkpt>
    </trkseg>
  </trk>
</gpx>